<?xml version="1.0" encoding="UTF-8" standalone="no" ?>
<gpx xmlns="http://www.topografix.com/GPX/1/1" xmlns:xsi="http://www.w3.org/2001/XMLSchema-instance" xsi:schemaLocation="http://www.topografix.com/GPX/1/1 http://www.topografix.com/GPX/1/1/gpx.xsd" version="1.1" creator="VisuGPX - https://www.visugpx.com">
  <metadata>
    <name>Lac du grand MACLU (FR) 2015 (Juil) </name>
    <desc><![CDATA[Balade dans le jura au lac du grand maclu pas trop clair mais sympa ]]></desc>
  </metadata>
  <trk>
    <name><![CDATA[duo choupy & scooby]]></name>
    <trkseg>
      <trkpt lat="46.60971" lon="5.90414">
        <ele>865</ele>
        <time>2015-07-19T09:02:01Z</time>
      </trkpt>
      <trkpt lat="46.60971" lon="5.90415">
        <ele>865</ele>
        <time>2015-07-19T09:02:07Z</time>
      </trkpt>
      <trkpt lat="46.60971" lon="5.90416">
        <ele>866</ele>
        <time>2015-07-19T09:02:15Z</time>
      </trkpt>
      <trkpt lat="46.60971" lon="5.90416">
        <ele>866</ele>
        <time>2015-07-19T09:02:22Z</time>
      </trkpt>
      <trkpt lat="46.60971" lon="5.90416">
        <ele>865</ele>
        <time>2015-07-19T09:02:27Z</time>
      </trkpt>
      <trkpt lat="46.60971" lon="5.90415">
        <ele>865</ele>
        <time>2015-07-19T09:02:34Z</time>
      </trkpt>
      <trkpt lat="46.60971" lon="5.90414">
        <ele>866</ele>
        <time>2015-07-19T09:02:40Z</time>
      </trkpt>
      <trkpt lat="46.60971" lon="5.90413">
        <ele>866</ele>
        <time>2015-07-19T09:02:45Z</time>
      </trkpt>
      <trkpt lat="46.60971" lon="5.90413">
        <ele>866</ele>
        <time>2015-07-19T09:02:50Z</time>
      </trkpt>
      <trkpt lat="46.60971" lon="5.90413">
        <ele>866</ele>
        <time>2015-07-19T09:02:55Z</time>
      </trkpt>
      <trkpt lat="46.60971" lon="5.90412">
        <ele>866</ele>
        <time>2015-07-19T09:03:00Z</time>
      </trkpt>
      <trkpt lat="46.60973" lon="5.90408">
        <ele>866</ele>
        <time>2015-07-19T09:03:05Z</time>
      </trkpt>
      <trkpt lat="46.60973" lon="5.90407">
        <ele>866</ele>
        <time>2015-07-19T09:03:10Z</time>
      </trkpt>
      <trkpt lat="46.60973" lon="5.90409">
        <ele>866</ele>
        <time>2015-07-19T09:03:15Z</time>
      </trkpt>
      <trkpt lat="46.60971" lon="5.90409">
        <ele>866</ele>
        <time>2015-07-19T09:03:21Z</time>
      </trkpt>
      <trkpt lat="46.60972" lon="5.9041">
        <ele>866</ele>
        <time>2015-07-19T09:03:27Z</time>
      </trkpt>
      <trkpt lat="46.60971" lon="5.90411">
        <ele>866</ele>
        <time>2015-07-19T09:03:33Z</time>
      </trkpt>
      <trkpt lat="46.60971" lon="5.90411">
        <ele>866</ele>
        <time>2015-07-19T09:03:39Z</time>
      </trkpt>
      <trkpt lat="46.60971" lon="5.90412">
        <ele>866</ele>
        <time>2015-07-19T09:03:45Z</time>
      </trkpt>
      <trkpt lat="46.60971" lon="5.90411">
        <ele>866</ele>
        <time>2015-07-19T09:03:51Z</time>
      </trkpt>
      <trkpt lat="46.60971" lon="5.90411">
        <ele>866</ele>
        <time>2015-07-19T09:03:57Z</time>
      </trkpt>
      <trkpt lat="46.60971" lon="5.90411">
        <ele>866</ele>
        <time>2015-07-19T09:04:03Z</time>
      </trkpt>
      <trkpt lat="46.60972" lon="5.90409">
        <ele>867</ele>
        <time>2015-07-19T09:04:09Z</time>
      </trkpt>
      <trkpt lat="46.60972" lon="5.90409">
        <ele>867</ele>
        <time>2015-07-19T09:04:15Z</time>
      </trkpt>
      <trkpt lat="46.6097" lon="5.90408">
        <ele>867</ele>
        <time>2015-07-19T09:04:21Z</time>
      </trkpt>
      <trkpt lat="46.60968" lon="5.90411">
        <ele>867</ele>
        <time>2015-07-19T09:04:27Z</time>
      </trkpt>
      <trkpt lat="46.60966" lon="5.90408">
        <ele>866</ele>
        <time>2015-07-19T09:04:33Z</time>
      </trkpt>
      <trkpt lat="46.60966" lon="5.90407">
        <ele>866</ele>
        <time>2015-07-19T09:04:39Z</time>
      </trkpt>
      <trkpt lat="46.60967" lon="5.90407">
        <ele>866</ele>
        <time>2015-07-19T09:04:45Z</time>
      </trkpt>
      <trkpt lat="46.60967" lon="5.90407">
        <ele>866</ele>
        <time>2015-07-19T09:04:51Z</time>
      </trkpt>
      <trkpt lat="46.60968" lon="5.9041">
        <ele>866</ele>
        <time>2015-07-19T09:04:57Z</time>
      </trkpt>
      <trkpt lat="46.60974" lon="5.90409">
        <ele>867</ele>
        <time>2015-07-19T09:05:03Z</time>
      </trkpt>
      <trkpt lat="46.60979" lon="5.90407">
        <ele>867</ele>
        <time>2015-07-19T09:05:09Z</time>
      </trkpt>
      <trkpt lat="46.60983" lon="5.90406">
        <ele>868</ele>
        <time>2015-07-19T09:05:15Z</time>
      </trkpt>
      <trkpt lat="46.60989" lon="5.90403">
        <ele>869</ele>
        <time>2015-07-19T09:05:20Z</time>
      </trkpt>
      <trkpt lat="46.60994" lon="5.90406">
        <ele>869</ele>
        <time>2015-07-19T09:05:25Z</time>
      </trkpt>
      <trkpt lat="46.60999" lon="5.90411">
        <ele>869</ele>
        <time>2015-07-19T09:05:32Z</time>
      </trkpt>
      <trkpt lat="46.61" lon="5.90414">
        <ele>870</ele>
        <time>2015-07-19T09:05:38Z</time>
      </trkpt>
      <trkpt lat="46.61002" lon="5.90416">
        <ele>870</ele>
        <time>2015-07-19T09:05:44Z</time>
      </trkpt>
      <trkpt lat="46.61002" lon="5.90418">
        <ele>870</ele>
        <time>2015-07-19T09:05:49Z</time>
      </trkpt>
      <trkpt lat="46.61002" lon="5.90419">
        <ele>870</ele>
        <time>2015-07-19T09:05:54Z</time>
      </trkpt>
      <trkpt lat="46.61003" lon="5.90419">
        <ele>870</ele>
        <time>2015-07-19T09:06:03Z</time>
      </trkpt>
      <trkpt lat="46.61001" lon="5.90423">
        <ele>870</ele>
        <time>2015-07-19T09:06:09Z</time>
      </trkpt>
      <trkpt lat="46.61" lon="5.90432">
        <ele>870</ele>
        <time>2015-07-19T09:06:14Z</time>
      </trkpt>
      <trkpt lat="46.61001" lon="5.90443">
        <ele>870</ele>
        <time>2015-07-19T09:06:20Z</time>
      </trkpt>
      <trkpt lat="46.61003" lon="5.90449">
        <ele>869</ele>
        <time>2015-07-19T09:06:25Z</time>
      </trkpt>
      <trkpt lat="46.61003" lon="5.90449">
        <ele>870</ele>
        <time>2015-07-19T09:06:30Z</time>
      </trkpt>
      <trkpt lat="46.61003" lon="5.9045">
        <ele>869</ele>
        <time>2015-07-19T09:06:37Z</time>
      </trkpt>
      <trkpt lat="46.61005" lon="5.90451">
        <ele>869</ele>
        <time>2015-07-19T09:06:42Z</time>
      </trkpt>
      <trkpt lat="46.6101" lon="5.90455">
        <ele>869</ele>
        <time>2015-07-19T09:06:48Z</time>
      </trkpt>
      <trkpt lat="46.61015" lon="5.90457">
        <ele>869</ele>
        <time>2015-07-19T09:06:53Z</time>
      </trkpt>
      <trkpt lat="46.6102" lon="5.90455">
        <ele>869</ele>
        <time>2015-07-19T09:06:59Z</time>
      </trkpt>
      <trkpt lat="46.61026" lon="5.90455">
        <ele>870</ele>
        <time>2015-07-19T09:07:04Z</time>
      </trkpt>
      <trkpt lat="46.61031" lon="5.90454">
        <ele>870</ele>
        <time>2015-07-19T09:07:10Z</time>
      </trkpt>
      <trkpt lat="46.61038" lon="5.90452">
        <ele>870</ele>
        <time>2015-07-19T09:07:16Z</time>
      </trkpt>
      <trkpt lat="46.61044" lon="5.90451">
        <ele>871</ele>
        <time>2015-07-19T09:07:21Z</time>
      </trkpt>
      <trkpt lat="46.61049" lon="5.90449">
        <ele>870</ele>
        <time>2015-07-19T09:07:27Z</time>
      </trkpt>
      <trkpt lat="46.61053" lon="5.90446">
        <ele>871</ele>
        <time>2015-07-19T09:07:32Z</time>
      </trkpt>
      <trkpt lat="46.61054" lon="5.90446">
        <ele>871</ele>
        <time>2015-07-19T09:07:38Z</time>
      </trkpt>
      <trkpt lat="46.61056" lon="5.90447">
        <ele>872</ele>
        <time>2015-07-19T09:07:43Z</time>
      </trkpt>
      <trkpt lat="46.61059" lon="5.90447">
        <ele>872</ele>
        <time>2015-07-19T09:07:49Z</time>
      </trkpt>
      <trkpt lat="46.61062" lon="5.90443">
        <ele>873</ele>
        <time>2015-07-19T09:07:56Z</time>
      </trkpt>
      <trkpt lat="46.61069" lon="5.90441">
        <ele>873</ele>
        <time>2015-07-19T09:08:01Z</time>
      </trkpt>
      <trkpt lat="46.61073" lon="5.90439">
        <ele>874</ele>
        <time>2015-07-19T09:08:08Z</time>
      </trkpt>
      <trkpt lat="46.61074" lon="5.90438">
        <ele>874</ele>
        <time>2015-07-19T09:08:13Z</time>
      </trkpt>
      <trkpt lat="46.61074" lon="5.90437">
        <ele>874</ele>
        <time>2015-07-19T09:08:20Z</time>
      </trkpt>
      <trkpt lat="46.61076" lon="5.90436">
        <ele>874</ele>
        <time>2015-07-19T09:08:25Z</time>
      </trkpt>
      <trkpt lat="46.61076" lon="5.90436">
        <ele>875</ele>
        <time>2015-07-19T09:08:31Z</time>
      </trkpt>
      <trkpt lat="46.61079" lon="5.90434">
        <ele>875</ele>
        <time>2015-07-19T09:08:37Z</time>
      </trkpt>
      <trkpt lat="46.61083" lon="5.90432">
        <ele>875</ele>
        <time>2015-07-19T09:08:42Z</time>
      </trkpt>
      <trkpt lat="46.61087" lon="5.9043">
        <ele>875</ele>
        <time>2015-07-19T09:08:48Z</time>
      </trkpt>
      <trkpt lat="46.61091" lon="5.90428">
        <ele>876</ele>
        <time>2015-07-19T09:08:53Z</time>
      </trkpt>
      <trkpt lat="46.61094" lon="5.90426">
        <ele>876</ele>
        <time>2015-07-19T09:08:59Z</time>
      </trkpt>
      <trkpt lat="46.61099" lon="5.90425">
        <ele>877</ele>
        <time>2015-07-19T09:09:04Z</time>
      </trkpt>
      <trkpt lat="46.61104" lon="5.90424">
        <ele>878</ele>
        <time>2015-07-19T09:09:10Z</time>
      </trkpt>
      <trkpt lat="46.6111" lon="5.90423">
        <ele>878</ele>
        <time>2015-07-19T09:09:15Z</time>
      </trkpt>
      <trkpt lat="46.61114" lon="5.90422">
        <ele>880</ele>
        <time>2015-07-19T09:09:20Z</time>
      </trkpt>
      <trkpt lat="46.61117" lon="5.90421">
        <ele>880</ele>
        <time>2015-07-19T09:09:26Z</time>
      </trkpt>
      <trkpt lat="46.61122" lon="5.90422">
        <ele>881</ele>
        <time>2015-07-19T09:09:31Z</time>
      </trkpt>
      <trkpt lat="46.61127" lon="5.90421">
        <ele>882</ele>
        <time>2015-07-19T09:09:36Z</time>
      </trkpt>
      <trkpt lat="46.61132" lon="5.90417">
        <ele>883</ele>
        <time>2015-07-19T09:09:43Z</time>
      </trkpt>
      <trkpt lat="46.61138" lon="5.90413">
        <ele>883</ele>
        <time>2015-07-19T09:09:49Z</time>
      </trkpt>
      <trkpt lat="46.61142" lon="5.90409">
        <ele>884</ele>
        <time>2015-07-19T09:09:54Z</time>
      </trkpt>
      <trkpt lat="46.61147" lon="5.90405">
        <ele>884</ele>
        <time>2015-07-19T09:10:00Z</time>
      </trkpt>
      <trkpt lat="46.61151" lon="5.90403">
        <ele>886</ele>
        <time>2015-07-19T09:10:05Z</time>
      </trkpt>
      <trkpt lat="46.61155" lon="5.90403">
        <ele>888</ele>
        <time>2015-07-19T09:10:11Z</time>
      </trkpt>
      <trkpt lat="46.6116" lon="5.90402">
        <ele>888</ele>
        <time>2015-07-19T09:10:17Z</time>
      </trkpt>
      <trkpt lat="46.61164" lon="5.90401">
        <ele>888</ele>
        <time>2015-07-19T09:10:22Z</time>
      </trkpt>
      <trkpt lat="46.6117" lon="5.904">
        <ele>888</ele>
        <time>2015-07-19T09:10:27Z</time>
      </trkpt>
      <trkpt lat="46.61176" lon="5.90399">
        <ele>889</ele>
        <time>2015-07-19T09:10:32Z</time>
      </trkpt>
      <trkpt lat="46.6118" lon="5.90399">
        <ele>889</ele>
        <time>2015-07-19T09:10:38Z</time>
      </trkpt>
      <trkpt lat="46.61185" lon="5.90397">
        <ele>889</ele>
        <time>2015-07-19T09:10:44Z</time>
      </trkpt>
      <trkpt lat="46.6119" lon="5.90393">
        <ele>889</ele>
        <time>2015-07-19T09:10:49Z</time>
      </trkpt>
      <trkpt lat="46.61195" lon="5.9039">
        <ele>890</ele>
        <time>2015-07-19T09:10:55Z</time>
      </trkpt>
      <trkpt lat="46.61199" lon="5.90386">
        <ele>890</ele>
        <time>2015-07-19T09:11:00Z</time>
      </trkpt>
      <trkpt lat="46.61201" lon="5.90383">
        <ele>891</ele>
        <time>2015-07-19T09:11:06Z</time>
      </trkpt>
      <trkpt lat="46.61206" lon="5.90379">
        <ele>891</ele>
        <time>2015-07-19T09:11:12Z</time>
      </trkpt>
      <trkpt lat="46.6121" lon="5.90373">
        <ele>891</ele>
        <time>2015-07-19T09:11:17Z</time>
      </trkpt>
      <trkpt lat="46.61214" lon="5.90368">
        <ele>892</ele>
        <time>2015-07-19T09:11:22Z</time>
      </trkpt>
      <trkpt lat="46.61219" lon="5.90365">
        <ele>892</ele>
        <time>2015-07-19T09:11:28Z</time>
      </trkpt>
      <trkpt lat="46.61223" lon="5.90362">
        <ele>892</ele>
        <time>2015-07-19T09:11:34Z</time>
      </trkpt>
      <trkpt lat="46.61228" lon="5.90361">
        <ele>891</ele>
        <time>2015-07-19T09:11:39Z</time>
      </trkpt>
      <trkpt lat="46.61233" lon="5.90358">
        <ele>892</ele>
        <time>2015-07-19T09:11:45Z</time>
      </trkpt>
      <trkpt lat="46.6124" lon="5.90357">
        <ele>892</ele>
        <time>2015-07-19T09:11:50Z</time>
      </trkpt>
      <trkpt lat="46.61246" lon="5.90358">
        <ele>892</ele>
        <time>2015-07-19T09:11:56Z</time>
      </trkpt>
      <trkpt lat="46.61252" lon="5.90359">
        <ele>891</ele>
        <time>2015-07-19T09:12:02Z</time>
      </trkpt>
      <trkpt lat="46.61257" lon="5.90362">
        <ele>892</ele>
        <time>2015-07-19T09:12:07Z</time>
      </trkpt>
      <trkpt lat="46.61262" lon="5.90365">
        <ele>893</ele>
        <time>2015-07-19T09:12:12Z</time>
      </trkpt>
      <trkpt lat="46.61268" lon="5.90366">
        <ele>893</ele>
        <time>2015-07-19T09:12:18Z</time>
      </trkpt>
      <trkpt lat="46.61272" lon="5.90367">
        <ele>894</ele>
        <time>2015-07-19T09:12:23Z</time>
      </trkpt>
      <trkpt lat="46.61277" lon="5.90368">
        <ele>895</ele>
        <time>2015-07-19T09:12:29Z</time>
      </trkpt>
      <trkpt lat="46.61282" lon="5.90367">
        <ele>895</ele>
        <time>2015-07-19T09:12:35Z</time>
      </trkpt>
      <trkpt lat="46.61286" lon="5.90366">
        <ele>897</ele>
        <time>2015-07-19T09:12:40Z</time>
      </trkpt>
      <trkpt lat="46.61289" lon="5.90363">
        <ele>897</ele>
        <time>2015-07-19T09:12:46Z</time>
      </trkpt>
      <trkpt lat="46.61292" lon="5.90359">
        <ele>898</ele>
        <time>2015-07-19T09:12:51Z</time>
      </trkpt>
      <trkpt lat="46.61294" lon="5.90356">
        <ele>899</ele>
        <time>2015-07-19T09:12:57Z</time>
      </trkpt>
      <trkpt lat="46.61298" lon="5.90351">
        <ele>899</ele>
        <time>2015-07-19T09:13:03Z</time>
      </trkpt>
      <trkpt lat="46.613" lon="5.90345">
        <ele>900</ele>
        <time>2015-07-19T09:13:09Z</time>
      </trkpt>
      <trkpt lat="46.61304" lon="5.90341">
        <ele>900</ele>
        <time>2015-07-19T09:13:14Z</time>
      </trkpt>
      <trkpt lat="46.61308" lon="5.90338">
        <ele>901</ele>
        <time>2015-07-19T09:13:19Z</time>
      </trkpt>
      <trkpt lat="46.61313" lon="5.90338">
        <ele>901</ele>
        <time>2015-07-19T09:13:25Z</time>
      </trkpt>
      <trkpt lat="46.61318" lon="5.90336">
        <ele>901</ele>
        <time>2015-07-19T09:13:30Z</time>
      </trkpt>
      <trkpt lat="46.61322" lon="5.90337">
        <ele>901</ele>
        <time>2015-07-19T09:13:35Z</time>
      </trkpt>
      <trkpt lat="46.61327" lon="5.90339">
        <ele>902</ele>
        <time>2015-07-19T09:13:42Z</time>
      </trkpt>
      <trkpt lat="46.61332" lon="5.90342">
        <ele>903</ele>
        <time>2015-07-19T09:13:47Z</time>
      </trkpt>
      <trkpt lat="46.61337" lon="5.90343">
        <ele>902</ele>
        <time>2015-07-19T09:13:53Z</time>
      </trkpt>
      <trkpt lat="46.61341" lon="5.90343">
        <ele>902</ele>
        <time>2015-07-19T09:13:58Z</time>
      </trkpt>
      <trkpt lat="46.61347" lon="5.90341">
        <ele>903</ele>
        <time>2015-07-19T09:14:04Z</time>
      </trkpt>
      <trkpt lat="46.61351" lon="5.90337">
        <ele>904</ele>
        <time>2015-07-19T09:14:09Z</time>
      </trkpt>
      <trkpt lat="46.61353" lon="5.90334">
        <ele>904</ele>
        <time>2015-07-19T09:14:14Z</time>
      </trkpt>
      <trkpt lat="46.61355" lon="5.9033">
        <ele>904</ele>
        <time>2015-07-19T09:14:19Z</time>
      </trkpt>
      <trkpt lat="46.61357" lon="5.90325">
        <ele>905</ele>
        <time>2015-07-19T09:14:25Z</time>
      </trkpt>
      <trkpt lat="46.61359" lon="5.90319">
        <ele>906</ele>
        <time>2015-07-19T09:14:31Z</time>
      </trkpt>
      <trkpt lat="46.61362" lon="5.90314">
        <ele>906</ele>
        <time>2015-07-19T09:14:37Z</time>
      </trkpt>
      <trkpt lat="46.61366" lon="5.9031">
        <ele>907</ele>
        <time>2015-07-19T09:14:43Z</time>
      </trkpt>
      <trkpt lat="46.61368" lon="5.90305">
        <ele>907</ele>
        <time>2015-07-19T09:14:48Z</time>
      </trkpt>
      <trkpt lat="46.61372" lon="5.90301">
        <ele>907</ele>
        <time>2015-07-19T09:14:54Z</time>
      </trkpt>
      <trkpt lat="46.61374" lon="5.903">
        <ele>906</ele>
        <time>2015-07-19T09:14:59Z</time>
      </trkpt>
      <trkpt lat="46.61377" lon="5.90299">
        <ele>906</ele>
        <time>2015-07-19T09:15:04Z</time>
      </trkpt>
      <trkpt lat="46.61381" lon="5.90297">
        <ele>906</ele>
        <time>2015-07-19T09:15:10Z</time>
      </trkpt>
      <trkpt lat="46.61385" lon="5.90294">
        <ele>906</ele>
        <time>2015-07-19T09:15:17Z</time>
      </trkpt>
      <trkpt lat="46.61387" lon="5.90291">
        <ele>907</ele>
        <time>2015-07-19T09:15:22Z</time>
      </trkpt>
      <trkpt lat="46.61389" lon="5.90289">
        <ele>908</ele>
        <time>2015-07-19T09:15:28Z</time>
      </trkpt>
      <trkpt lat="46.61393" lon="5.90287">
        <ele>908</ele>
        <time>2015-07-19T09:15:34Z</time>
      </trkpt>
      <trkpt lat="46.61398" lon="5.90286">
        <ele>909</ele>
        <time>2015-07-19T09:15:39Z</time>
      </trkpt>
      <trkpt lat="46.61401" lon="5.90285">
        <ele>909</ele>
        <time>2015-07-19T09:15:45Z</time>
      </trkpt>
      <trkpt lat="46.61403" lon="5.90285">
        <ele>908</ele>
        <time>2015-07-19T09:15:51Z</time>
      </trkpt>
      <trkpt lat="46.61403" lon="5.90285">
        <ele>909</ele>
        <time>2015-07-19T09:15:57Z</time>
      </trkpt>
      <trkpt lat="46.61402" lon="5.90285">
        <ele>909</ele>
        <time>2015-07-19T09:16:02Z</time>
      </trkpt>
      <trkpt lat="46.61401" lon="5.90284">
        <ele>909</ele>
        <time>2015-07-19T09:16:07Z</time>
      </trkpt>
      <trkpt lat="46.61399" lon="5.90282">
        <ele>909</ele>
        <time>2015-07-19T09:16:13Z</time>
      </trkpt>
      <trkpt lat="46.61398" lon="5.90282">
        <ele>909</ele>
        <time>2015-07-19T09:16:19Z</time>
      </trkpt>
      <trkpt lat="46.61396" lon="5.90282">
        <ele>909</ele>
        <time>2015-07-19T09:16:24Z</time>
      </trkpt>
      <trkpt lat="46.61395" lon="5.90282">
        <ele>909</ele>
        <time>2015-07-19T09:16:29Z</time>
      </trkpt>
      <trkpt lat="46.61395" lon="5.90282">
        <ele>909</ele>
        <time>2015-07-19T09:16:34Z</time>
      </trkpt>
      <trkpt lat="46.61396" lon="5.90282">
        <ele>909</ele>
        <time>2015-07-19T09:16:40Z</time>
      </trkpt>
      <trkpt lat="46.61397" lon="5.90281">
        <ele>909</ele>
        <time>2015-07-19T09:16:45Z</time>
      </trkpt>
      <trkpt lat="46.61397" lon="5.9028">
        <ele>909</ele>
        <time>2015-07-19T09:16:50Z</time>
      </trkpt>
      <trkpt lat="46.61397" lon="5.90279">
        <ele>909</ele>
        <time>2015-07-19T09:16:57Z</time>
      </trkpt>
      <trkpt lat="46.61399" lon="5.90278">
        <ele>909</ele>
        <time>2015-07-19T09:17:02Z</time>
      </trkpt>
      <trkpt lat="46.61404" lon="5.90278">
        <ele>911</ele>
        <time>2015-07-19T09:17:08Z</time>
      </trkpt>
      <trkpt lat="46.61408" lon="5.90278">
        <ele>912</ele>
        <time>2015-07-19T09:17:13Z</time>
      </trkpt>
      <trkpt lat="46.61411" lon="5.90279">
        <ele>913</ele>
        <time>2015-07-19T09:17:19Z</time>
      </trkpt>
      <trkpt lat="46.61413" lon="5.9028">
        <ele>914</ele>
        <time>2015-07-19T09:17:24Z</time>
      </trkpt>
      <trkpt lat="46.61413" lon="5.90279">
        <ele>913</ele>
        <time>2015-07-19T09:17:29Z</time>
      </trkpt>
      <trkpt lat="46.61412" lon="5.90276">
        <ele>914</ele>
        <time>2015-07-19T09:17:35Z</time>
      </trkpt>
      <trkpt lat="46.61412" lon="5.90273">
        <ele>915</ele>
        <time>2015-07-19T09:17:42Z</time>
      </trkpt>
      <trkpt lat="46.61415" lon="5.90272">
        <ele>916</ele>
        <time>2015-07-19T09:17:47Z</time>
      </trkpt>
      <trkpt lat="46.61417" lon="5.90274">
        <ele>917</ele>
        <time>2015-07-19T09:17:52Z</time>
      </trkpt>
      <trkpt lat="46.61422" lon="5.90277">
        <ele>918</ele>
        <time>2015-07-19T09:17:58Z</time>
      </trkpt>
      <trkpt lat="46.61426" lon="5.90278">
        <ele>919</ele>
        <time>2015-07-19T09:18:04Z</time>
      </trkpt>
      <trkpt lat="46.61428" lon="5.9028">
        <ele>921</ele>
        <time>2015-07-19T09:18:10Z</time>
      </trkpt>
      <trkpt lat="46.61432" lon="5.90282">
        <ele>921</ele>
        <time>2015-07-19T09:18:16Z</time>
      </trkpt>
      <trkpt lat="46.61434" lon="5.90282">
        <ele>923</ele>
        <time>2015-07-19T09:18:23Z</time>
      </trkpt>
      <trkpt lat="46.61435" lon="5.90282">
        <ele>923</ele>
        <time>2015-07-19T09:18:28Z</time>
      </trkpt>
      <trkpt lat="46.61436" lon="5.90279">
        <ele>925</ele>
        <time>2015-07-19T09:18:34Z</time>
      </trkpt>
      <trkpt lat="46.61436" lon="5.90279">
        <ele>926</ele>
        <time>2015-07-19T09:18:39Z</time>
      </trkpt>
      <trkpt lat="46.61434" lon="5.90278">
        <ele>926</ele>
        <time>2015-07-19T09:18:45Z</time>
      </trkpt>
      <trkpt lat="46.61433" lon="5.90275">
        <ele>926</ele>
        <time>2015-07-19T09:18:50Z</time>
      </trkpt>
      <trkpt lat="46.61432" lon="5.9027">
        <ele>926</ele>
        <time>2015-07-19T09:18:56Z</time>
      </trkpt>
      <trkpt lat="46.61431" lon="5.90265">
        <ele>927</ele>
        <time>2015-07-19T09:19:02Z</time>
      </trkpt>
      <trkpt lat="46.61431" lon="5.9026">
        <ele>927</ele>
        <time>2015-07-19T09:19:08Z</time>
      </trkpt>
      <trkpt lat="46.61431" lon="5.90257">
        <ele>928</ele>
        <time>2015-07-19T09:19:14Z</time>
      </trkpt>
      <trkpt lat="46.61432" lon="5.90256">
        <ele>929</ele>
        <time>2015-07-19T09:19:19Z</time>
      </trkpt>
      <trkpt lat="46.61433" lon="5.90257">
        <ele>929</ele>
        <time>2015-07-19T09:19:26Z</time>
      </trkpt>
      <trkpt lat="46.61435" lon="5.90258">
        <ele>929</ele>
        <time>2015-07-19T09:19:32Z</time>
      </trkpt>
      <trkpt lat="46.61436" lon="5.90262">
        <ele>929</ele>
        <time>2015-07-19T09:19:38Z</time>
      </trkpt>
      <trkpt lat="46.61439" lon="5.90264">
        <ele>929</ele>
        <time>2015-07-19T09:19:44Z</time>
      </trkpt>
      <trkpt lat="46.6144" lon="5.90264">
        <ele>929</ele>
        <time>2015-07-19T09:19:49Z</time>
      </trkpt>
      <trkpt lat="46.6144" lon="5.90265">
        <ele>929</ele>
        <time>2015-07-19T09:19:55Z</time>
      </trkpt>
      <trkpt lat="46.6144" lon="5.90265">
        <ele>929</ele>
        <time>2015-07-19T09:20:00Z</time>
      </trkpt>
      <trkpt lat="46.61439" lon="5.90265">
        <ele>929</ele>
        <time>2015-07-19T09:20:06Z</time>
      </trkpt>
      <trkpt lat="46.61438" lon="5.90265">
        <ele>929</ele>
        <time>2015-07-19T09:20:11Z</time>
      </trkpt>
      <trkpt lat="46.61438" lon="5.90265">
        <ele>929</ele>
        <time>2015-07-19T09:20:17Z</time>
      </trkpt>
      <trkpt lat="46.61439" lon="5.90265">
        <ele>929</ele>
        <time>2015-07-19T09:20:22Z</time>
      </trkpt>
      <trkpt lat="46.61439" lon="5.90263">
        <ele>929</ele>
        <time>2015-07-19T09:20:28Z</time>
      </trkpt>
      <trkpt lat="46.61439" lon="5.90258">
        <ele>930</ele>
        <time>2015-07-19T09:20:34Z</time>
      </trkpt>
      <trkpt lat="46.61439" lon="5.90257">
        <ele>931</ele>
        <time>2015-07-19T09:20:39Z</time>
      </trkpt>
      <trkpt lat="46.61439" lon="5.90255">
        <ele>931</ele>
        <time>2015-07-19T09:20:44Z</time>
      </trkpt>
      <trkpt lat="46.6144" lon="5.90254">
        <ele>931</ele>
        <time>2015-07-19T09:20:50Z</time>
      </trkpt>
      <trkpt lat="46.6144" lon="5.90253">
        <ele>932</ele>
        <time>2015-07-19T09:20:55Z</time>
      </trkpt>
      <trkpt lat="46.61441" lon="5.9025">
        <ele>932</ele>
        <time>2015-07-19T09:21:00Z</time>
      </trkpt>
      <trkpt lat="46.6144" lon="5.90248">
        <ele>933</ele>
        <time>2015-07-19T09:21:06Z</time>
      </trkpt>
      <trkpt lat="46.61441" lon="5.90249">
        <ele>932</ele>
        <time>2015-07-19T09:21:11Z</time>
      </trkpt>
      <trkpt lat="46.6144" lon="5.9025">
        <ele>933</ele>
        <time>2015-07-19T09:21:17Z</time>
      </trkpt>
      <trkpt lat="46.61441" lon="5.90252">
        <ele>932</ele>
        <time>2015-07-19T09:21:22Z</time>
      </trkpt>
      <trkpt lat="46.61441" lon="5.90253">
        <ele>932</ele>
        <time>2015-07-19T09:21:28Z</time>
      </trkpt>
      <trkpt lat="46.61442" lon="5.90251">
        <ele>932</ele>
        <time>2015-07-19T09:21:33Z</time>
      </trkpt>
      <trkpt lat="46.61442" lon="5.90248">
        <ele>933</ele>
        <time>2015-07-19T09:21:38Z</time>
      </trkpt>
      <trkpt lat="46.61442" lon="5.90246">
        <ele>933</ele>
        <time>2015-07-19T09:21:44Z</time>
      </trkpt>
      <trkpt lat="46.61442" lon="5.90243">
        <ele>934</ele>
        <time>2015-07-19T09:21:50Z</time>
      </trkpt>
      <trkpt lat="46.61442" lon="5.9024">
        <ele>934</ele>
        <time>2015-07-19T09:21:56Z</time>
      </trkpt>
      <trkpt lat="46.61443" lon="5.90238">
        <ele>935</ele>
        <time>2015-07-19T09:22:01Z</time>
      </trkpt>
      <trkpt lat="46.61445" lon="5.90236">
        <ele>935</ele>
        <time>2015-07-19T09:22:07Z</time>
      </trkpt>
      <trkpt lat="46.61445" lon="5.90234">
        <ele>936</ele>
        <time>2015-07-19T09:22:12Z</time>
      </trkpt>
      <trkpt lat="46.61446" lon="5.90232">
        <ele>936</ele>
        <time>2015-07-19T09:22:18Z</time>
      </trkpt>
      <trkpt lat="46.61448" lon="5.90229">
        <ele>937</ele>
        <time>2015-07-19T09:22:24Z</time>
      </trkpt>
      <trkpt lat="46.61449" lon="5.90227">
        <ele>938</ele>
        <time>2015-07-19T09:22:29Z</time>
      </trkpt>
      <trkpt lat="46.61449" lon="5.90226">
        <ele>938</ele>
        <time>2015-07-19T09:22:35Z</time>
      </trkpt>
      <trkpt lat="46.61449" lon="5.90227">
        <ele>939</ele>
        <time>2015-07-19T09:22:41Z</time>
      </trkpt>
      <trkpt lat="46.61449" lon="5.90226">
        <ele>939</ele>
        <time>2015-07-19T09:22:47Z</time>
      </trkpt>
      <trkpt lat="46.61451" lon="5.90224">
        <ele>939</ele>
        <time>2015-07-19T09:22:52Z</time>
      </trkpt>
      <trkpt lat="46.61451" lon="5.90224">
        <ele>939</ele>
        <time>2015-07-19T09:22:57Z</time>
      </trkpt>
      <trkpt lat="46.61453" lon="5.90222">
        <ele>940</ele>
        <time>2015-07-19T09:23:03Z</time>
      </trkpt>
      <trkpt lat="46.61454" lon="5.9022">
        <ele>941</ele>
        <time>2015-07-19T09:23:09Z</time>
      </trkpt>
      <trkpt lat="46.61455" lon="5.90218">
        <ele>943</ele>
        <time>2015-07-19T09:23:15Z</time>
      </trkpt>
      <trkpt lat="46.61455" lon="5.90219">
        <ele>943</ele>
        <time>2015-07-19T09:23:21Z</time>
      </trkpt>
      <trkpt lat="46.61457" lon="5.90219">
        <ele>943</ele>
        <time>2015-07-19T09:23:26Z</time>
      </trkpt>
      <trkpt lat="46.61459" lon="5.90218">
        <ele>944</ele>
        <time>2015-07-19T09:23:32Z</time>
      </trkpt>
      <trkpt lat="46.6146" lon="5.90216">
        <ele>946</ele>
        <time>2015-07-19T09:23:37Z</time>
      </trkpt>
      <trkpt lat="46.61463" lon="5.90215">
        <ele>947</ele>
        <time>2015-07-19T09:23:42Z</time>
      </trkpt>
      <trkpt lat="46.61464" lon="5.90211">
        <ele>948</ele>
        <time>2015-07-19T09:23:48Z</time>
      </trkpt>
      <trkpt lat="46.61464" lon="5.90208">
        <ele>950</ele>
        <time>2015-07-19T09:23:54Z</time>
      </trkpt>
      <trkpt lat="46.61463" lon="5.90204">
        <ele>950</ele>
        <time>2015-07-19T09:24:00Z</time>
      </trkpt>
      <trkpt lat="46.6146" lon="5.90202">
        <ele>951</ele>
        <time>2015-07-19T09:24:06Z</time>
      </trkpt>
      <trkpt lat="46.6146" lon="5.90201">
        <ele>950</ele>
        <time>2015-07-19T09:24:13Z</time>
      </trkpt>
      <trkpt lat="46.6146" lon="5.90202">
        <ele>951</ele>
        <time>2015-07-19T09:24:19Z</time>
      </trkpt>
      <trkpt lat="46.61459" lon="5.90202">
        <ele>951</ele>
        <time>2015-07-19T09:24:25Z</time>
      </trkpt>
      <trkpt lat="46.61459" lon="5.90202">
        <ele>950</ele>
        <time>2015-07-19T09:24:31Z</time>
      </trkpt>
      <trkpt lat="46.61461" lon="5.90203">
        <ele>950</ele>
        <time>2015-07-19T09:24:36Z</time>
      </trkpt>
      <trkpt lat="46.61462" lon="5.90204">
        <ele>951</ele>
        <time>2015-07-19T09:24:42Z</time>
      </trkpt>
      <trkpt lat="46.61464" lon="5.90207">
        <ele>950</ele>
        <time>2015-07-19T09:24:47Z</time>
      </trkpt>
      <trkpt lat="46.61468" lon="5.90209">
        <ele>950</ele>
        <time>2015-07-19T09:24:53Z</time>
      </trkpt>
      <trkpt lat="46.61475" lon="5.90212">
        <ele>951</ele>
        <time>2015-07-19T09:24:58Z</time>
      </trkpt>
      <trkpt lat="46.61479" lon="5.90215">
        <ele>952</ele>
        <time>2015-07-19T09:25:03Z</time>
      </trkpt>
      <trkpt lat="46.61483" lon="5.90216">
        <ele>953</ele>
        <time>2015-07-19T09:25:09Z</time>
      </trkpt>
      <trkpt lat="46.61485" lon="5.90219">
        <ele>954</ele>
        <time>2015-07-19T09:25:15Z</time>
      </trkpt>
      <trkpt lat="46.61487" lon="5.9022">
        <ele>954</ele>
        <time>2015-07-19T09:25:20Z</time>
      </trkpt>
      <trkpt lat="46.61488" lon="5.9022">
        <ele>955</ele>
        <time>2015-07-19T09:25:26Z</time>
      </trkpt>
      <trkpt lat="46.61489" lon="5.90221">
        <ele>955</ele>
        <time>2015-07-19T09:25:31Z</time>
      </trkpt>
      <trkpt lat="46.6149" lon="5.90218">
        <ele>955</ele>
        <time>2015-07-19T09:25:37Z</time>
      </trkpt>
      <trkpt lat="46.61488" lon="5.90214">
        <ele>954</ele>
        <time>2015-07-19T09:25:43Z</time>
      </trkpt>
      <trkpt lat="46.61487" lon="5.90214">
        <ele>953</ele>
        <time>2015-07-19T09:25:49Z</time>
      </trkpt>
      <trkpt lat="46.61487" lon="5.90213">
        <ele>953</ele>
        <time>2015-07-19T09:25:55Z</time>
      </trkpt>
      <trkpt lat="46.61488" lon="5.90215">
        <ele>953</ele>
        <time>2015-07-19T09:26:01Z</time>
      </trkpt>
      <trkpt lat="46.61487" lon="5.90216">
        <ele>953</ele>
        <time>2015-07-19T09:26:08Z</time>
      </trkpt>
      <trkpt lat="46.61486" lon="5.90217">
        <ele>953</ele>
        <time>2015-07-19T09:26:14Z</time>
      </trkpt>
      <trkpt lat="46.61485" lon="5.90217">
        <ele>954</ele>
        <time>2015-07-19T09:26:20Z</time>
      </trkpt>
      <trkpt lat="46.61485" lon="5.90216">
        <ele>954</ele>
        <time>2015-07-19T09:26:26Z</time>
      </trkpt>
      <trkpt lat="46.61486" lon="5.90216">
        <ele>953</ele>
        <time>2015-07-19T09:26:31Z</time>
      </trkpt>
      <trkpt lat="46.61486" lon="5.90216">
        <ele>954</ele>
        <time>2015-07-19T09:26:36Z</time>
      </trkpt>
      <trkpt lat="46.61485" lon="5.90216">
        <ele>954</ele>
        <time>2015-07-19T09:26:42Z</time>
      </trkpt>
      <trkpt lat="46.61485" lon="5.90215">
        <ele>953</ele>
        <time>2015-07-19T09:26:48Z</time>
      </trkpt>
      <trkpt lat="46.61484" lon="5.90215">
        <ele>953</ele>
        <time>2015-07-19T09:26:54Z</time>
      </trkpt>
      <trkpt lat="46.61484" lon="5.90216">
        <ele>953</ele>
        <time>2015-07-19T09:27:00Z</time>
      </trkpt>
      <trkpt lat="46.61483" lon="5.90218">
        <ele>953</ele>
        <time>2015-07-19T09:27:06Z</time>
      </trkpt>
      <trkpt lat="46.61484" lon="5.90218">
        <ele>953</ele>
        <time>2015-07-19T09:27:12Z</time>
      </trkpt>
      <trkpt lat="46.61484" lon="5.90219">
        <ele>954</ele>
        <time>2015-07-19T09:27:17Z</time>
      </trkpt>
      <trkpt lat="46.61486" lon="5.90221">
        <ele>954</ele>
        <time>2015-07-19T09:27:23Z</time>
      </trkpt>
      <trkpt lat="46.61488" lon="5.90223">
        <ele>954</ele>
        <time>2015-07-19T09:27:28Z</time>
      </trkpt>
      <trkpt lat="46.61488" lon="5.90223">
        <ele>954</ele>
        <time>2015-07-19T09:27:33Z</time>
      </trkpt>
      <trkpt lat="46.61489" lon="5.90225">
        <ele>954</ele>
        <time>2015-07-19T09:27:39Z</time>
      </trkpt>
      <trkpt lat="46.6149" lon="5.90224">
        <ele>954</ele>
        <time>2015-07-19T09:27:45Z</time>
      </trkpt>
      <trkpt lat="46.61491" lon="5.90225">
        <ele>955</ele>
        <time>2015-07-19T09:27:51Z</time>
      </trkpt>
      <trkpt lat="46.61492" lon="5.90225">
        <ele>954</ele>
        <time>2015-07-19T09:27:56Z</time>
      </trkpt>
      <trkpt lat="46.61491" lon="5.90225">
        <ele>954</ele>
        <time>2015-07-19T09:28:02Z</time>
      </trkpt>
      <trkpt lat="46.6149" lon="5.90225">
        <ele>953</ele>
        <time>2015-07-19T09:28:09Z</time>
      </trkpt>
      <trkpt lat="46.6149" lon="5.90225">
        <ele>953</ele>
        <time>2015-07-19T09:28:14Z</time>
      </trkpt>
      <trkpt lat="46.61489" lon="5.90225">
        <ele>953</ele>
        <time>2015-07-19T09:28:20Z</time>
      </trkpt>
      <trkpt lat="46.61488" lon="5.90224">
        <ele>953</ele>
        <time>2015-07-19T09:28:25Z</time>
      </trkpt>
      <trkpt lat="46.61488" lon="5.90224">
        <ele>954</ele>
        <time>2015-07-19T09:28:31Z</time>
      </trkpt>
      <trkpt lat="46.61487" lon="5.90223">
        <ele>953</ele>
        <time>2015-07-19T09:28:36Z</time>
      </trkpt>
      <trkpt lat="46.61487" lon="5.90223">
        <ele>953</ele>
        <time>2015-07-19T09:28:41Z</time>
      </trkpt>
      <trkpt lat="46.61486" lon="5.90222">
        <ele>953</ele>
        <time>2015-07-19T09:28:47Z</time>
      </trkpt>
      <trkpt lat="46.61486" lon="5.90222">
        <ele>953</ele>
        <time>2015-07-19T09:28:53Z</time>
      </trkpt>
      <trkpt lat="46.61486" lon="5.90221">
        <ele>953</ele>
        <time>2015-07-19T09:28:58Z</time>
      </trkpt>
      <trkpt lat="46.61485" lon="5.90221">
        <ele>953</ele>
        <time>2015-07-19T09:29:05Z</time>
      </trkpt>
      <trkpt lat="46.61485" lon="5.90221">
        <ele>952</ele>
        <time>2015-07-19T09:29:11Z</time>
      </trkpt>
      <trkpt lat="46.61485" lon="5.90221">
        <ele>953</ele>
        <time>2015-07-19T09:29:17Z</time>
      </trkpt>
      <trkpt lat="46.61484" lon="5.90221">
        <ele>953</ele>
        <time>2015-07-19T09:29:25Z</time>
      </trkpt>
      <trkpt lat="46.61484" lon="5.9022">
        <ele>953</ele>
        <time>2015-07-19T09:29:31Z</time>
      </trkpt>
      <trkpt lat="46.61484" lon="5.9022">
        <ele>953</ele>
        <time>2015-07-19T09:29:37Z</time>
      </trkpt>
      <trkpt lat="46.61484" lon="5.9022">
        <ele>953</ele>
        <time>2015-07-19T09:29:45Z</time>
      </trkpt>
      <trkpt lat="46.61484" lon="5.9022">
        <ele>953</ele>
        <time>2015-07-19T09:29:52Z</time>
      </trkpt>
      <trkpt lat="46.61485" lon="5.9022">
        <ele>953</ele>
        <time>2015-07-19T09:29:57Z</time>
      </trkpt>
      <trkpt lat="46.61486" lon="5.9022">
        <ele>953</ele>
        <time>2015-07-19T09:30:04Z</time>
      </trkpt>
      <trkpt lat="46.61485" lon="5.90221">
        <ele>953</ele>
        <time>2015-07-19T09:30:09Z</time>
      </trkpt>
      <trkpt lat="46.61485" lon="5.90221">
        <ele>953</ele>
        <time>2015-07-19T09:30:15Z</time>
      </trkpt>
      <trkpt lat="46.61485" lon="5.90223">
        <ele>953</ele>
        <time>2015-07-19T09:30:20Z</time>
      </trkpt>
      <trkpt lat="46.61484" lon="5.90223">
        <ele>953</ele>
        <time>2015-07-19T09:30:28Z</time>
      </trkpt>
      <trkpt lat="46.61485" lon="5.90223">
        <ele>953</ele>
        <time>2015-07-19T09:30:33Z</time>
      </trkpt>
      <trkpt lat="46.61485" lon="5.90223">
        <ele>953</ele>
        <time>2015-07-19T09:30:38Z</time>
      </trkpt>
      <trkpt lat="46.61485" lon="5.90223">
        <ele>954</ele>
        <time>2015-07-19T09:30:43Z</time>
      </trkpt>
      <trkpt lat="46.61484" lon="5.90224">
        <ele>954</ele>
        <time>2015-07-19T09:30:50Z</time>
      </trkpt>
      <trkpt lat="46.61484" lon="5.90223">
        <ele>953</ele>
        <time>2015-07-19T09:30:55Z</time>
      </trkpt>
      <trkpt lat="46.61485" lon="5.90222">
        <ele>953</ele>
        <time>2015-07-19T09:31:01Z</time>
      </trkpt>
      <trkpt lat="46.61486" lon="5.90223">
        <ele>953</ele>
        <time>2015-07-19T09:31:06Z</time>
      </trkpt>
      <trkpt lat="46.61486" lon="5.90222">
        <ele>953</ele>
        <time>2015-07-19T09:31:12Z</time>
      </trkpt>
      <trkpt lat="46.61487" lon="5.90223">
        <ele>953</ele>
        <time>2015-07-19T09:31:18Z</time>
      </trkpt>
      <trkpt lat="46.61487" lon="5.90223">
        <ele>954</ele>
        <time>2015-07-19T09:31:23Z</time>
      </trkpt>
      <trkpt lat="46.61486" lon="5.90223">
        <ele>954</ele>
        <time>2015-07-19T09:31:29Z</time>
      </trkpt>
      <trkpt lat="46.61486" lon="5.90223">
        <ele>953</ele>
        <time>2015-07-19T09:31:34Z</time>
      </trkpt>
      <trkpt lat="46.61487" lon="5.90223">
        <ele>953</ele>
        <time>2015-07-19T09:31:40Z</time>
      </trkpt>
      <trkpt lat="46.61488" lon="5.90223">
        <ele>953</ele>
        <time>2015-07-19T09:31:46Z</time>
      </trkpt>
      <trkpt lat="46.61488" lon="5.90223">
        <ele>953</ele>
        <time>2015-07-19T09:31:51Z</time>
      </trkpt>
      <trkpt lat="46.61488" lon="5.90221">
        <ele>954</ele>
        <time>2015-07-19T09:31:56Z</time>
      </trkpt>
      <trkpt lat="46.61488" lon="5.90221">
        <ele>953</ele>
        <time>2015-07-19T09:32:05Z</time>
      </trkpt>
      <trkpt lat="46.61488" lon="5.9022">
        <ele>953</ele>
        <time>2015-07-19T09:32:11Z</time>
      </trkpt>
      <trkpt lat="46.61487" lon="5.9022">
        <ele>953</ele>
        <time>2015-07-19T09:32:16Z</time>
      </trkpt>
      <trkpt lat="46.61487" lon="5.90219">
        <ele>953</ele>
        <time>2015-07-19T09:32:21Z</time>
      </trkpt>
      <trkpt lat="46.61487" lon="5.90218">
        <ele>953</ele>
        <time>2015-07-19T09:32:30Z</time>
      </trkpt>
      <trkpt lat="46.61486" lon="5.90217">
        <ele>953</ele>
        <time>2015-07-19T09:32:35Z</time>
      </trkpt>
      <trkpt lat="46.61487" lon="5.90217">
        <ele>953</ele>
        <time>2015-07-19T09:32:41Z</time>
      </trkpt>
      <trkpt lat="46.61488" lon="5.90216">
        <ele>953</ele>
        <time>2015-07-19T09:32:48Z</time>
      </trkpt>
      <trkpt lat="46.61487" lon="5.90216">
        <ele>953</ele>
        <time>2015-07-19T09:32:54Z</time>
      </trkpt>
      <trkpt lat="46.61487" lon="5.90219">
        <ele>953</ele>
        <time>2015-07-19T09:32:59Z</time>
      </trkpt>
      <trkpt lat="46.61487" lon="5.90223">
        <ele>953</ele>
        <time>2015-07-19T09:33:05Z</time>
      </trkpt>
      <trkpt lat="46.61486" lon="5.90224">
        <ele>953</ele>
        <time>2015-07-19T09:33:11Z</time>
      </trkpt>
      <trkpt lat="46.61485" lon="5.90223">
        <ele>953</ele>
        <time>2015-07-19T09:33:17Z</time>
      </trkpt>
      <trkpt lat="46.61485" lon="5.90223">
        <ele>953</ele>
        <time>2015-07-19T09:33:22Z</time>
      </trkpt>
      <trkpt lat="46.61485" lon="5.90222">
        <ele>953</ele>
        <time>2015-07-19T09:33:27Z</time>
      </trkpt>
      <trkpt lat="46.61484" lon="5.9022">
        <ele>953</ele>
        <time>2015-07-19T09:33:33Z</time>
      </trkpt>
      <trkpt lat="46.61482" lon="5.90219">
        <ele>953</ele>
        <time>2015-07-19T09:33:38Z</time>
      </trkpt>
      <trkpt lat="46.61483" lon="5.9022">
        <ele>953</ele>
        <time>2015-07-19T09:33:43Z</time>
      </trkpt>
      <trkpt lat="46.61483" lon="5.90222">
        <ele>953</ele>
        <time>2015-07-19T09:33:49Z</time>
      </trkpt>
      <trkpt lat="46.61481" lon="5.90225">
        <ele>953</ele>
        <time>2015-07-19T09:33:54Z</time>
      </trkpt>
      <trkpt lat="46.61483" lon="5.90228">
        <ele>953</ele>
        <time>2015-07-19T09:33:59Z</time>
      </trkpt>
      <trkpt lat="46.61484" lon="5.90229">
        <ele>953</ele>
        <time>2015-07-19T09:34:05Z</time>
      </trkpt>
      <trkpt lat="46.61484" lon="5.90229">
        <ele>953</ele>
        <time>2015-07-19T09:34:10Z</time>
      </trkpt>
      <trkpt lat="46.61484" lon="5.90229">
        <ele>953</ele>
        <time>2015-07-19T09:34:16Z</time>
      </trkpt>
      <trkpt lat="46.61485" lon="5.90226">
        <ele>953</ele>
        <time>2015-07-19T09:34:21Z</time>
      </trkpt>
      <trkpt lat="46.61487" lon="5.90225">
        <ele>953</ele>
        <time>2015-07-19T09:34:26Z</time>
      </trkpt>
      <trkpt lat="46.61488" lon="5.90224">
        <ele>952</ele>
        <time>2015-07-19T09:34:31Z</time>
      </trkpt>
      <trkpt lat="46.61489" lon="5.90223">
        <ele>952</ele>
        <time>2015-07-19T09:34:37Z</time>
      </trkpt>
      <trkpt lat="46.61493" lon="5.90224">
        <ele>953</ele>
        <time>2015-07-19T09:34:43Z</time>
      </trkpt>
      <trkpt lat="46.61493" lon="5.90223">
        <ele>953</ele>
        <time>2015-07-19T09:34:48Z</time>
      </trkpt>
      <trkpt lat="46.61493" lon="5.90223">
        <ele>953</ele>
        <time>2015-07-19T09:34:54Z</time>
      </trkpt>
      <trkpt lat="46.61493" lon="5.90223">
        <ele>953</ele>
        <time>2015-07-19T09:35:00Z</time>
      </trkpt>
      <trkpt lat="46.61492" lon="5.90223">
        <ele>954</ele>
        <time>2015-07-19T09:35:06Z</time>
      </trkpt>
      <trkpt lat="46.6149" lon="5.90223">
        <ele>953</ele>
        <time>2015-07-19T09:35:12Z</time>
      </trkpt>
      <trkpt lat="46.61488" lon="5.90222">
        <ele>953</ele>
        <time>2015-07-19T09:35:18Z</time>
      </trkpt>
      <trkpt lat="46.61489" lon="5.9022">
        <ele>953</ele>
        <time>2015-07-19T09:35:23Z</time>
      </trkpt>
      <trkpt lat="46.61489" lon="5.90221">
        <ele>954</ele>
        <time>2015-07-19T09:35:28Z</time>
      </trkpt>
      <trkpt lat="46.61488" lon="5.9022">
        <ele>954</ele>
        <time>2015-07-19T09:35:34Z</time>
      </trkpt>
      <trkpt lat="46.61488" lon="5.9022">
        <ele>953</ele>
        <time>2015-07-19T09:35:40Z</time>
      </trkpt>
      <trkpt lat="46.61489" lon="5.90218">
        <ele>954</ele>
        <time>2015-07-19T09:35:46Z</time>
      </trkpt>
      <trkpt lat="46.6149" lon="5.90217">
        <ele>954</ele>
        <time>2015-07-19T09:35:51Z</time>
      </trkpt>
      <trkpt lat="46.6149" lon="5.90218">
        <ele>954</ele>
        <time>2015-07-19T09:35:59Z</time>
      </trkpt>
      <trkpt lat="46.61493" lon="5.90216">
        <ele>954</ele>
        <time>2015-07-19T09:36:05Z</time>
      </trkpt>
      <trkpt lat="46.61494" lon="5.90215">
        <ele>954</ele>
        <time>2015-07-19T09:36:11Z</time>
      </trkpt>
      <trkpt lat="46.61493" lon="5.90215">
        <ele>954</ele>
        <time>2015-07-19T09:36:16Z</time>
      </trkpt>
      <trkpt lat="46.61491" lon="5.90214">
        <ele>954</ele>
        <time>2015-07-19T09:36:21Z</time>
      </trkpt>
      <trkpt lat="46.6149" lon="5.90215">
        <ele>954</ele>
        <time>2015-07-19T09:36:26Z</time>
      </trkpt>
      <trkpt lat="46.61489" lon="5.90216">
        <ele>953</ele>
        <time>2015-07-19T09:36:32Z</time>
      </trkpt>
      <trkpt lat="46.61488" lon="5.90217">
        <ele>953</ele>
        <time>2015-07-19T09:36:38Z</time>
      </trkpt>
      <trkpt lat="46.61488" lon="5.90216">
        <ele>953</ele>
        <time>2015-07-19T09:36:44Z</time>
      </trkpt>
      <trkpt lat="46.61487" lon="5.90216">
        <ele>953</ele>
        <time>2015-07-19T09:36:50Z</time>
      </trkpt>
      <trkpt lat="46.61487" lon="5.90215">
        <ele>953</ele>
        <time>2015-07-19T09:36:55Z</time>
      </trkpt>
      <trkpt lat="46.61487" lon="5.90214">
        <ele>953</ele>
        <time>2015-07-19T09:37:00Z</time>
      </trkpt>
      <trkpt lat="46.61487" lon="5.90214">
        <ele>954</ele>
        <time>2015-07-19T09:37:06Z</time>
      </trkpt>
      <trkpt lat="46.61487" lon="5.90213">
        <ele>953</ele>
        <time>2015-07-19T09:37:11Z</time>
      </trkpt>
      <trkpt lat="46.61487" lon="5.90213">
        <ele>953</ele>
        <time>2015-07-19T09:37:17Z</time>
      </trkpt>
      <trkpt lat="46.61487" lon="5.90213">
        <ele>953</ele>
        <time>2015-07-19T09:37:23Z</time>
      </trkpt>
      <trkpt lat="46.61487" lon="5.90213">
        <ele>954</ele>
        <time>2015-07-19T09:37:30Z</time>
      </trkpt>
      <trkpt lat="46.61486" lon="5.90212">
        <ele>954</ele>
        <time>2015-07-19T09:37:36Z</time>
      </trkpt>
      <trkpt lat="46.61486" lon="5.90213">
        <ele>954</ele>
        <time>2015-07-19T09:37:41Z</time>
      </trkpt>
      <trkpt lat="46.61485" lon="5.90213">
        <ele>953</ele>
        <time>2015-07-19T09:37:47Z</time>
      </trkpt>
      <trkpt lat="46.61485" lon="5.90213">
        <ele>954</ele>
        <time>2015-07-19T09:37:53Z</time>
      </trkpt>
      <trkpt lat="46.61484" lon="5.90214">
        <ele>954</ele>
        <time>2015-07-19T09:37:59Z</time>
      </trkpt>
      <trkpt lat="46.61483" lon="5.90214">
        <ele>954</ele>
        <time>2015-07-19T09:38:04Z</time>
      </trkpt>
      <trkpt lat="46.61484" lon="5.90214">
        <ele>954</ele>
        <time>2015-07-19T09:38:09Z</time>
      </trkpt>
      <trkpt lat="46.61485" lon="5.90214">
        <ele>954</ele>
        <time>2015-07-19T09:38:15Z</time>
      </trkpt>
      <trkpt lat="46.61486" lon="5.90216">
        <ele>954</ele>
        <time>2015-07-19T09:38:20Z</time>
      </trkpt>
      <trkpt lat="46.61486" lon="5.90217">
        <ele>954</ele>
        <time>2015-07-19T09:38:25Z</time>
      </trkpt>
      <trkpt lat="46.61486" lon="5.90217">
        <ele>954</ele>
        <time>2015-07-19T09:38:31Z</time>
      </trkpt>
      <trkpt lat="46.61486" lon="5.90217">
        <ele>953</ele>
        <time>2015-07-19T09:38:38Z</time>
      </trkpt>
      <trkpt lat="46.61486" lon="5.90218">
        <ele>953</ele>
        <time>2015-07-19T09:38:45Z</time>
      </trkpt>
      <trkpt lat="46.61485" lon="5.90218">
        <ele>953</ele>
        <time>2015-07-19T09:38:51Z</time>
      </trkpt>
      <trkpt lat="46.61485" lon="5.90217">
        <ele>954</ele>
        <time>2015-07-19T09:38:57Z</time>
      </trkpt>
      <trkpt lat="46.61484" lon="5.90217">
        <ele>953</ele>
        <time>2015-07-19T09:39:02Z</time>
      </trkpt>
      <trkpt lat="46.61484" lon="5.90217">
        <ele>953</ele>
        <time>2015-07-19T09:39:10Z</time>
      </trkpt>
      <trkpt lat="46.61484" lon="5.90217">
        <ele>953</ele>
        <time>2015-07-19T09:39:17Z</time>
      </trkpt>
      <trkpt lat="46.61484" lon="5.90218">
        <ele>953</ele>
        <time>2015-07-19T09:39:22Z</time>
      </trkpt>
      <trkpt lat="46.61485" lon="5.90219">
        <ele>954</ele>
        <time>2015-07-19T09:39:28Z</time>
      </trkpt>
      <trkpt lat="46.61486" lon="5.9022">
        <ele>953</ele>
        <time>2015-07-19T09:39:34Z</time>
      </trkpt>
      <trkpt lat="46.61487" lon="5.9022">
        <ele>953</ele>
        <time>2015-07-19T09:39:40Z</time>
      </trkpt>
      <trkpt lat="46.61487" lon="5.90219">
        <ele>954</ele>
        <time>2015-07-19T09:39:45Z</time>
      </trkpt>
      <trkpt lat="46.61488" lon="5.9022">
        <ele>953</ele>
        <time>2015-07-19T09:39:51Z</time>
      </trkpt>
      <trkpt lat="46.61488" lon="5.90219">
        <ele>953</ele>
        <time>2015-07-19T09:39:58Z</time>
      </trkpt>
      <trkpt lat="46.61488" lon="5.90219">
        <ele>953</ele>
        <time>2015-07-19T09:40:05Z</time>
      </trkpt>
      <trkpt lat="46.61488" lon="5.90219">
        <ele>953</ele>
        <time>2015-07-19T09:40:12Z</time>
      </trkpt>
      <trkpt lat="46.61489" lon="5.90219">
        <ele>953</ele>
        <time>2015-07-19T09:40:18Z</time>
      </trkpt>
      <trkpt lat="46.61489" lon="5.90218">
        <ele>954</ele>
        <time>2015-07-19T09:40:24Z</time>
      </trkpt>
      <trkpt lat="46.6149" lon="5.90218">
        <ele>954</ele>
        <time>2015-07-19T09:40:33Z</time>
      </trkpt>
      <trkpt lat="46.6149" lon="5.90218">
        <ele>954</ele>
        <time>2015-07-19T09:40:38Z</time>
      </trkpt>
      <trkpt lat="46.6149" lon="5.90218">
        <ele>953</ele>
        <time>2015-07-19T09:40:44Z</time>
      </trkpt>
      <trkpt lat="46.6149" lon="5.90217">
        <ele>953</ele>
        <time>2015-07-19T09:40:50Z</time>
      </trkpt>
      <trkpt lat="46.61489" lon="5.90217">
        <ele>953</ele>
        <time>2015-07-19T09:40:55Z</time>
      </trkpt>
      <trkpt lat="46.61489" lon="5.90217">
        <ele>953</ele>
        <time>2015-07-19T09:41:01Z</time>
      </trkpt>
      <trkpt lat="46.61489" lon="5.90217">
        <ele>953</ele>
        <time>2015-07-19T09:41:07Z</time>
      </trkpt>
      <trkpt lat="46.61489" lon="5.90217">
        <ele>953</ele>
        <time>2015-07-19T09:41:12Z</time>
      </trkpt>
      <trkpt lat="46.61489" lon="5.90216">
        <ele>954</ele>
        <time>2015-07-19T09:41:18Z</time>
      </trkpt>
      <trkpt lat="46.6149" lon="5.90215">
        <ele>953</ele>
        <time>2015-07-19T09:41:24Z</time>
      </trkpt>
      <trkpt lat="46.6149" lon="5.90215">
        <ele>953</ele>
        <time>2015-07-19T09:41:29Z</time>
      </trkpt>
      <trkpt lat="46.6149" lon="5.90216">
        <ele>953</ele>
        <time>2015-07-19T09:41:35Z</time>
      </trkpt>
      <trkpt lat="46.6149" lon="5.90217">
        <ele>953</ele>
        <time>2015-07-19T09:41:41Z</time>
      </trkpt>
      <trkpt lat="46.6149" lon="5.90217">
        <ele>953</ele>
        <time>2015-07-19T09:41:47Z</time>
      </trkpt>
      <trkpt lat="46.61489" lon="5.90216">
        <ele>953</ele>
        <time>2015-07-19T09:41:52Z</time>
      </trkpt>
      <trkpt lat="46.61489" lon="5.90215">
        <ele>953</ele>
        <time>2015-07-19T09:41:58Z</time>
      </trkpt>
      <trkpt lat="46.6149" lon="5.90215">
        <ele>952</ele>
        <time>2015-07-19T09:42:04Z</time>
      </trkpt>
      <trkpt lat="46.6149" lon="5.90215">
        <ele>953</ele>
        <time>2015-07-19T09:42:09Z</time>
      </trkpt>
      <trkpt lat="46.6149" lon="5.90215">
        <ele>953</ele>
        <time>2015-07-19T09:42:18Z</time>
      </trkpt>
      <trkpt lat="46.6149" lon="5.90215">
        <ele>953</ele>
        <time>2015-07-19T09:42:23Z</time>
      </trkpt>
      <trkpt lat="46.6149" lon="5.90215">
        <ele>954</ele>
        <time>2015-07-19T09:42:30Z</time>
      </trkpt>
      <trkpt lat="46.6149" lon="5.90215">
        <ele>953</ele>
        <time>2015-07-19T09:42:36Z</time>
      </trkpt>
      <trkpt lat="46.6149" lon="5.90216">
        <ele>953</ele>
        <time>2015-07-19T09:42:42Z</time>
      </trkpt>
      <trkpt lat="46.6149" lon="5.90216">
        <ele>953</ele>
        <time>2015-07-19T09:42:50Z</time>
      </trkpt>
      <trkpt lat="46.6149" lon="5.90218">
        <ele>954</ele>
        <time>2015-07-19T09:42:56Z</time>
      </trkpt>
      <trkpt lat="46.6149" lon="5.90218">
        <ele>954</ele>
        <time>2015-07-19T09:43:02Z</time>
      </trkpt>
      <trkpt lat="46.6149" lon="5.90218">
        <ele>953</ele>
        <time>2015-07-19T09:43:08Z</time>
      </trkpt>
      <trkpt lat="46.61488" lon="5.90219">
        <ele>953</ele>
        <time>2015-07-19T09:43:13Z</time>
      </trkpt>
      <trkpt lat="46.61488" lon="5.90221">
        <ele>954</ele>
        <time>2015-07-19T09:43:19Z</time>
      </trkpt>
      <trkpt lat="46.61487" lon="5.90221">
        <ele>954</ele>
        <time>2015-07-19T09:43:24Z</time>
      </trkpt>
      <trkpt lat="46.61486" lon="5.90222">
        <ele>954</ele>
        <time>2015-07-19T09:43:30Z</time>
      </trkpt>
      <trkpt lat="46.61486" lon="5.90222">
        <ele>953</ele>
        <time>2015-07-19T09:43:36Z</time>
      </trkpt>
      <trkpt lat="46.61486" lon="5.90223">
        <ele>953</ele>
        <time>2015-07-19T09:43:41Z</time>
      </trkpt>
      <trkpt lat="46.61486" lon="5.90223">
        <ele>953</ele>
        <time>2015-07-19T09:43:47Z</time>
      </trkpt>
      <trkpt lat="46.61486" lon="5.90223">
        <ele>953</ele>
        <time>2015-07-19T09:43:53Z</time>
      </trkpt>
      <trkpt lat="46.61487" lon="5.90223">
        <ele>953</ele>
        <time>2015-07-19T09:43:59Z</time>
      </trkpt>
      <trkpt lat="46.61487" lon="5.90224">
        <ele>953</ele>
        <time>2015-07-19T09:44:05Z</time>
      </trkpt>
      <trkpt lat="46.61487" lon="5.90224">
        <ele>953</ele>
        <time>2015-07-19T09:44:10Z</time>
      </trkpt>
      <trkpt lat="46.61487" lon="5.90223">
        <ele>953</ele>
        <time>2015-07-19T09:44:16Z</time>
      </trkpt>
      <trkpt lat="46.61488" lon="5.90223">
        <ele>953</ele>
        <time>2015-07-19T09:44:22Z</time>
      </trkpt>
      <trkpt lat="46.61488" lon="5.90223">
        <ele>953</ele>
        <time>2015-07-19T09:44:28Z</time>
      </trkpt>
      <trkpt lat="46.61488" lon="5.90222">
        <ele>953</ele>
        <time>2015-07-19T09:44:33Z</time>
      </trkpt>
      <trkpt lat="46.61488" lon="5.90222">
        <ele>952</ele>
        <time>2015-07-19T09:44:39Z</time>
      </trkpt>
      <trkpt lat="46.61488" lon="5.90222">
        <ele>952</ele>
        <time>2015-07-19T09:44:46Z</time>
      </trkpt>
      <trkpt lat="46.61488" lon="5.90222">
        <ele>952</ele>
        <time>2015-07-19T09:44:52Z</time>
      </trkpt>
      <trkpt lat="46.61488" lon="5.90222">
        <ele>953</ele>
        <time>2015-07-19T09:45:01Z</time>
      </trkpt>
      <trkpt lat="46.61488" lon="5.90221">
        <ele>952</ele>
        <time>2015-07-19T09:45:07Z</time>
      </trkpt>
      <trkpt lat="46.61488" lon="5.90221">
        <ele>953</ele>
        <time>2015-07-19T09:45:12Z</time>
      </trkpt>
      <trkpt lat="46.61488" lon="5.90221">
        <ele>953</ele>
        <time>2015-07-19T09:45:22Z</time>
      </trkpt>
      <trkpt lat="46.61488" lon="5.90222">
        <ele>954</ele>
        <time>2015-07-19T09:45:27Z</time>
      </trkpt>
      <trkpt lat="46.61488" lon="5.90222">
        <ele>954</ele>
        <time>2015-07-19T09:45:34Z</time>
      </trkpt>
      <trkpt lat="46.61489" lon="5.90222">
        <ele>954</ele>
        <time>2015-07-19T09:45:39Z</time>
      </trkpt>
      <trkpt lat="46.61489" lon="5.90222">
        <ele>953</ele>
        <time>2015-07-19T09:45:47Z</time>
      </trkpt>
      <trkpt lat="46.61489" lon="5.90222">
        <ele>953</ele>
        <time>2015-07-19T09:45:53Z</time>
      </trkpt>
      <trkpt lat="46.61488" lon="5.90222">
        <ele>953</ele>
        <time>2015-07-19T09:45:59Z</time>
      </trkpt>
      <trkpt lat="46.61488" lon="5.90222">
        <ele>953</ele>
        <time>2015-07-19T09:46:07Z</time>
      </trkpt>
      <trkpt lat="46.61488" lon="5.90223">
        <ele>954</ele>
        <time>2015-07-19T09:46:13Z</time>
      </trkpt>
      <trkpt lat="46.61489" lon="5.90224">
        <ele>955</ele>
        <time>2015-07-19T09:46:19Z</time>
      </trkpt>
      <trkpt lat="46.61489" lon="5.90225">
        <ele>955</ele>
        <time>2015-07-19T09:46:24Z</time>
      </trkpt>
      <trkpt lat="46.61489" lon="5.90226">
        <ele>955</ele>
        <time>2015-07-19T09:46:30Z</time>
      </trkpt>
      <trkpt lat="46.61489" lon="5.90226">
        <ele>955</ele>
        <time>2015-07-19T09:46:35Z</time>
      </trkpt>
      <trkpt lat="46.61489" lon="5.90226">
        <ele>955</ele>
        <time>2015-07-19T09:46:41Z</time>
      </trkpt>
      <trkpt lat="46.61489" lon="5.90225">
        <ele>955</ele>
        <time>2015-07-19T09:46:47Z</time>
      </trkpt>
      <trkpt lat="46.61489" lon="5.90224">
        <ele>955</ele>
        <time>2015-07-19T09:46:53Z</time>
      </trkpt>
      <trkpt lat="46.61489" lon="5.90224">
        <ele>954</ele>
        <time>2015-07-19T09:46:59Z</time>
      </trkpt>
      <trkpt lat="46.61488" lon="5.90224">
        <ele>954</ele>
        <time>2015-07-19T09:47:04Z</time>
      </trkpt>
      <trkpt lat="46.61488" lon="5.90225">
        <ele>954</ele>
        <time>2015-07-19T09:47:10Z</time>
      </trkpt>
      <trkpt lat="46.61487" lon="5.90225">
        <ele>954</ele>
        <time>2015-07-19T09:47:16Z</time>
      </trkpt>
      <trkpt lat="46.61486" lon="5.90226">
        <ele>954</ele>
        <time>2015-07-19T09:47:22Z</time>
      </trkpt>
      <trkpt lat="46.61487" lon="5.90225">
        <ele>954</ele>
        <time>2015-07-19T09:47:27Z</time>
      </trkpt>
      <trkpt lat="46.61487" lon="5.90225">
        <ele>954</ele>
        <time>2015-07-19T09:47:35Z</time>
      </trkpt>
      <trkpt lat="46.61488" lon="5.90225">
        <ele>954</ele>
        <time>2015-07-19T09:47:40Z</time>
      </trkpt>
      <trkpt lat="46.6149" lon="5.90224">
        <ele>954</ele>
        <time>2015-07-19T09:47:46Z</time>
      </trkpt>
      <trkpt lat="46.6149" lon="5.90225">
        <ele>954</ele>
        <time>2015-07-19T09:47:51Z</time>
      </trkpt>
      <trkpt lat="46.61489" lon="5.90225">
        <ele>954</ele>
        <time>2015-07-19T09:47:57Z</time>
      </trkpt>
      <trkpt lat="46.61489" lon="5.90226">
        <ele>954</ele>
        <time>2015-07-19T09:48:03Z</time>
      </trkpt>
      <trkpt lat="46.61488" lon="5.90227">
        <ele>954</ele>
        <time>2015-07-19T09:48:09Z</time>
      </trkpt>
      <trkpt lat="46.61488" lon="5.90227">
        <ele>954</ele>
        <time>2015-07-19T09:48:14Z</time>
      </trkpt>
      <trkpt lat="46.61488" lon="5.90225">
        <ele>954</ele>
        <time>2015-07-19T09:48:19Z</time>
      </trkpt>
      <trkpt lat="46.61489" lon="5.90225">
        <ele>955</ele>
        <time>2015-07-19T09:48:25Z</time>
      </trkpt>
      <trkpt lat="46.61489" lon="5.90224">
        <ele>955</ele>
        <time>2015-07-19T09:48:30Z</time>
      </trkpt>
      <trkpt lat="46.61488" lon="5.90223">
        <ele>955</ele>
        <time>2015-07-19T09:48:35Z</time>
      </trkpt>
      <trkpt lat="46.61488" lon="5.90224">
        <ele>955</ele>
        <time>2015-07-19T09:48:41Z</time>
      </trkpt>
      <trkpt lat="46.61488" lon="5.90226">
        <ele>955</ele>
        <time>2015-07-19T09:48:47Z</time>
      </trkpt>
      <trkpt lat="46.61489" lon="5.9023">
        <ele>955</ele>
        <time>2015-07-19T09:48:52Z</time>
      </trkpt>
      <trkpt lat="46.6149" lon="5.90233">
        <ele>955</ele>
        <time>2015-07-19T09:48:57Z</time>
      </trkpt>
      <trkpt lat="46.61491" lon="5.90239">
        <ele>956</ele>
        <time>2015-07-19T09:49:02Z</time>
      </trkpt>
      <trkpt lat="46.61494" lon="5.90242">
        <ele>957</ele>
        <time>2015-07-19T09:49:08Z</time>
      </trkpt>
      <trkpt lat="46.61497" lon="5.90244">
        <ele>958</ele>
        <time>2015-07-19T09:49:14Z</time>
      </trkpt>
      <trkpt lat="46.615" lon="5.90248">
        <ele>959</ele>
        <time>2015-07-19T09:49:20Z</time>
      </trkpt>
      <trkpt lat="46.61502" lon="5.90251">
        <ele>959</ele>
        <time>2015-07-19T09:49:25Z</time>
      </trkpt>
      <trkpt lat="46.61505" lon="5.90254">
        <ele>959</ele>
        <time>2015-07-19T09:49:31Z</time>
      </trkpt>
      <trkpt lat="46.61507" lon="5.90256">
        <ele>959</ele>
        <time>2015-07-19T09:49:36Z</time>
      </trkpt>
      <trkpt lat="46.61507" lon="5.90259">
        <ele>958</ele>
        <time>2015-07-19T09:49:41Z</time>
      </trkpt>
      <trkpt lat="46.61507" lon="5.90264">
        <ele>958</ele>
        <time>2015-07-19T09:49:47Z</time>
      </trkpt>
      <trkpt lat="46.6151" lon="5.90266">
        <ele>956</ele>
        <time>2015-07-19T09:49:53Z</time>
      </trkpt>
      <trkpt lat="46.61514" lon="5.90267">
        <ele>955</ele>
        <time>2015-07-19T09:49:59Z</time>
      </trkpt>
      <trkpt lat="46.61516" lon="5.90269">
        <ele>955</ele>
        <time>2015-07-19T09:50:04Z</time>
      </trkpt>
      <trkpt lat="46.61517" lon="5.90272">
        <ele>955</ele>
        <time>2015-07-19T09:50:10Z</time>
      </trkpt>
      <trkpt lat="46.6152" lon="5.90276">
        <ele>956</ele>
        <time>2015-07-19T09:50:16Z</time>
      </trkpt>
      <trkpt lat="46.61525" lon="5.9028">
        <ele>957</ele>
        <time>2015-07-19T09:50:22Z</time>
      </trkpt>
      <trkpt lat="46.61529" lon="5.90282">
        <ele>958</ele>
        <time>2015-07-19T09:50:28Z</time>
      </trkpt>
      <trkpt lat="46.61532" lon="5.90286">
        <ele>959</ele>
        <time>2015-07-19T09:50:34Z</time>
      </trkpt>
      <trkpt lat="46.61533" lon="5.9029">
        <ele>960</ele>
        <time>2015-07-19T09:50:39Z</time>
      </trkpt>
      <trkpt lat="46.61534" lon="5.90294">
        <ele>960</ele>
        <time>2015-07-19T09:50:44Z</time>
      </trkpt>
      <trkpt lat="46.61534" lon="5.90296">
        <ele>960</ele>
        <time>2015-07-19T09:50:49Z</time>
      </trkpt>
      <trkpt lat="46.61535" lon="5.90295">
        <ele>960</ele>
        <time>2015-07-19T09:50:55Z</time>
      </trkpt>
      <trkpt lat="46.61535" lon="5.90296">
        <ele>960</ele>
        <time>2015-07-19T09:51:00Z</time>
      </trkpt>
      <trkpt lat="46.61535" lon="5.90298">
        <ele>960</ele>
        <time>2015-07-19T09:51:06Z</time>
      </trkpt>
      <trkpt lat="46.61538" lon="5.903">
        <ele>960</ele>
        <time>2015-07-19T09:51:11Z</time>
      </trkpt>
      <trkpt lat="46.6154" lon="5.90304">
        <ele>960</ele>
        <time>2015-07-19T09:51:16Z</time>
      </trkpt>
      <trkpt lat="46.61541" lon="5.90309">
        <ele>960</ele>
        <time>2015-07-19T09:51:22Z</time>
      </trkpt>
      <trkpt lat="46.61544" lon="5.90313">
        <ele>959</ele>
        <time>2015-07-19T09:51:28Z</time>
      </trkpt>
      <trkpt lat="46.61548" lon="5.90318">
        <ele>958</ele>
        <time>2015-07-19T09:51:34Z</time>
      </trkpt>
      <trkpt lat="46.61552" lon="5.90321">
        <ele>958</ele>
        <time>2015-07-19T09:51:39Z</time>
      </trkpt>
      <trkpt lat="46.61555" lon="5.90326">
        <ele>956</ele>
        <time>2015-07-19T09:51:44Z</time>
      </trkpt>
      <trkpt lat="46.61559" lon="5.90329">
        <ele>956</ele>
        <time>2015-07-19T09:51:50Z</time>
      </trkpt>
      <trkpt lat="46.61562" lon="5.90333">
        <ele>955</ele>
        <time>2015-07-19T09:51:56Z</time>
      </trkpt>
      <trkpt lat="46.61565" lon="5.90337">
        <ele>954</ele>
        <time>2015-07-19T09:52:02Z</time>
      </trkpt>
      <trkpt lat="46.61568" lon="5.9034">
        <ele>954</ele>
        <time>2015-07-19T09:52:08Z</time>
      </trkpt>
      <trkpt lat="46.61572" lon="5.90342">
        <ele>953</ele>
        <time>2015-07-19T09:52:14Z</time>
      </trkpt>
      <trkpt lat="46.61576" lon="5.90347">
        <ele>953</ele>
        <time>2015-07-19T09:52:20Z</time>
      </trkpt>
      <trkpt lat="46.61578" lon="5.90352">
        <ele>953</ele>
        <time>2015-07-19T09:52:25Z</time>
      </trkpt>
      <trkpt lat="46.61583" lon="5.90356">
        <ele>953</ele>
        <time>2015-07-19T09:52:31Z</time>
      </trkpt>
      <trkpt lat="46.61586" lon="5.90358">
        <ele>953</ele>
        <time>2015-07-19T09:52:37Z</time>
      </trkpt>
      <trkpt lat="46.61588" lon="5.90363">
        <ele>953</ele>
        <time>2015-07-19T09:52:42Z</time>
      </trkpt>
      <trkpt lat="46.61591" lon="5.90369">
        <ele>952</ele>
        <time>2015-07-19T09:52:48Z</time>
      </trkpt>
      <trkpt lat="46.61594" lon="5.90373">
        <ele>952</ele>
        <time>2015-07-19T09:52:53Z</time>
      </trkpt>
      <trkpt lat="46.61597" lon="5.9038">
        <ele>952</ele>
        <time>2015-07-19T09:52:59Z</time>
      </trkpt>
      <trkpt lat="46.616" lon="5.90386">
        <ele>952</ele>
        <time>2015-07-19T09:53:05Z</time>
      </trkpt>
      <trkpt lat="46.61603" lon="5.9039">
        <ele>951</ele>
        <time>2015-07-19T09:53:11Z</time>
      </trkpt>
      <trkpt lat="46.61606" lon="5.90392">
        <ele>950</ele>
        <time>2015-07-19T09:53:17Z</time>
      </trkpt>
      <trkpt lat="46.61609" lon="5.90396">
        <ele>950</ele>
        <time>2015-07-19T09:53:23Z</time>
      </trkpt>
      <trkpt lat="46.61611" lon="5.90398">
        <ele>950</ele>
        <time>2015-07-19T09:53:29Z</time>
      </trkpt>
      <trkpt lat="46.61611" lon="5.90399">
        <ele>949</ele>
        <time>2015-07-19T09:53:35Z</time>
      </trkpt>
      <trkpt lat="46.61612" lon="5.904">
        <ele>949</ele>
        <time>2015-07-19T09:53:40Z</time>
      </trkpt>
      <trkpt lat="46.61613" lon="5.90401">
        <ele>949</ele>
        <time>2015-07-19T09:53:46Z</time>
      </trkpt>
      <trkpt lat="46.61612" lon="5.90403">
        <ele>949</ele>
        <time>2015-07-19T09:53:52Z</time>
      </trkpt>
      <trkpt lat="46.61611" lon="5.90405">
        <ele>949</ele>
        <time>2015-07-19T09:53:57Z</time>
      </trkpt>
      <trkpt lat="46.61612" lon="5.90408">
        <ele>949</ele>
        <time>2015-07-19T09:54:03Z</time>
      </trkpt>
      <trkpt lat="46.61613" lon="5.90411">
        <ele>949</ele>
        <time>2015-07-19T09:54:08Z</time>
      </trkpt>
      <trkpt lat="46.61613" lon="5.90412">
        <ele>948</ele>
        <time>2015-07-19T09:54:14Z</time>
      </trkpt>
      <trkpt lat="46.61614" lon="5.90414">
        <ele>948</ele>
        <time>2015-07-19T09:54:19Z</time>
      </trkpt>
      <trkpt lat="46.61617" lon="5.90416">
        <ele>947</ele>
        <time>2015-07-19T09:54:25Z</time>
      </trkpt>
      <trkpt lat="46.61618" lon="5.90415">
        <ele>947</ele>
        <time>2015-07-19T09:54:30Z</time>
      </trkpt>
      <trkpt lat="46.61619" lon="5.90414">
        <ele>947</ele>
        <time>2015-07-19T09:54:35Z</time>
      </trkpt>
      <trkpt lat="46.6162" lon="5.90413">
        <ele>947</ele>
        <time>2015-07-19T09:54:40Z</time>
      </trkpt>
      <trkpt lat="46.61621" lon="5.90413">
        <ele>946</ele>
        <time>2015-07-19T09:54:46Z</time>
      </trkpt>
      <trkpt lat="46.61621" lon="5.90414">
        <ele>947</ele>
        <time>2015-07-19T09:54:52Z</time>
      </trkpt>
      <trkpt lat="46.61623" lon="5.90416">
        <ele>947</ele>
        <time>2015-07-19T09:54:57Z</time>
      </trkpt>
      <trkpt lat="46.61626" lon="5.90418">
        <ele>947</ele>
        <time>2015-07-19T09:55:02Z</time>
      </trkpt>
      <trkpt lat="46.61629" lon="5.90418">
        <ele>947</ele>
        <time>2015-07-19T09:55:08Z</time>
      </trkpt>
      <trkpt lat="46.6163" lon="5.90421">
        <ele>947</ele>
        <time>2015-07-19T09:55:13Z</time>
      </trkpt>
      <trkpt lat="46.61631" lon="5.90422">
        <ele>946</ele>
        <time>2015-07-19T09:55:19Z</time>
      </trkpt>
      <trkpt lat="46.61634" lon="5.90424">
        <ele>946</ele>
        <time>2015-07-19T09:55:24Z</time>
      </trkpt>
      <trkpt lat="46.61636" lon="5.90426">
        <ele>945</ele>
        <time>2015-07-19T09:55:29Z</time>
      </trkpt>
      <trkpt lat="46.61639" lon="5.9043">
        <ele>945</ele>
        <time>2015-07-19T09:55:35Z</time>
      </trkpt>
      <trkpt lat="46.6164" lon="5.90429">
        <ele>945</ele>
        <time>2015-07-19T09:55:40Z</time>
      </trkpt>
      <trkpt lat="46.61641" lon="5.90428">
        <ele>945</ele>
        <time>2015-07-19T09:55:46Z</time>
      </trkpt>
      <trkpt lat="46.61645" lon="5.90427">
        <ele>945</ele>
        <time>2015-07-19T09:55:52Z</time>
      </trkpt>
      <trkpt lat="46.61647" lon="5.90429">
        <ele>945</ele>
        <time>2015-07-19T09:55:58Z</time>
      </trkpt>
      <trkpt lat="46.61652" lon="5.90433">
        <ele>946</ele>
        <time>2015-07-19T09:56:04Z</time>
      </trkpt>
      <trkpt lat="46.61656" lon="5.90439">
        <ele>946</ele>
        <time>2015-07-19T09:56:09Z</time>
      </trkpt>
      <trkpt lat="46.61659" lon="5.90443">
        <ele>946</ele>
        <time>2015-07-19T09:56:14Z</time>
      </trkpt>
      <trkpt lat="46.61663" lon="5.90448">
        <ele>947</ele>
        <time>2015-07-19T09:56:20Z</time>
      </trkpt>
      <trkpt lat="46.61669" lon="5.90453">
        <ele>946</ele>
        <time>2015-07-19T09:56:26Z</time>
      </trkpt>
      <trkpt lat="46.61671" lon="5.90456">
        <ele>946</ele>
        <time>2015-07-19T09:56:31Z</time>
      </trkpt>
      <trkpt lat="46.61673" lon="5.90456">
        <ele>947</ele>
        <time>2015-07-19T09:56:36Z</time>
      </trkpt>
      <trkpt lat="46.61676" lon="5.90454">
        <ele>947</ele>
        <time>2015-07-19T09:56:41Z</time>
      </trkpt>
      <trkpt lat="46.61679" lon="5.90452">
        <ele>946</ele>
        <time>2015-07-19T09:56:47Z</time>
      </trkpt>
      <trkpt lat="46.61683" lon="5.9045">
        <ele>946</ele>
        <time>2015-07-19T09:56:52Z</time>
      </trkpt>
      <trkpt lat="46.61685" lon="5.90446">
        <ele>945</ele>
        <time>2015-07-19T09:56:57Z</time>
      </trkpt>
      <trkpt lat="46.61687" lon="5.90443">
        <ele>945</ele>
        <time>2015-07-19T09:57:03Z</time>
      </trkpt>
      <trkpt lat="46.61688" lon="5.9044">
        <ele>944</ele>
        <time>2015-07-19T09:57:09Z</time>
      </trkpt>
      <trkpt lat="46.6169" lon="5.90436">
        <ele>944</ele>
        <time>2015-07-19T09:57:15Z</time>
      </trkpt>
      <trkpt lat="46.61692" lon="5.90433">
        <ele>944</ele>
        <time>2015-07-19T09:57:20Z</time>
      </trkpt>
      <trkpt lat="46.61695" lon="5.9043">
        <ele>943</ele>
        <time>2015-07-19T09:57:25Z</time>
      </trkpt>
      <trkpt lat="46.61699" lon="5.90425">
        <ele>942</ele>
        <time>2015-07-19T09:57:31Z</time>
      </trkpt>
      <trkpt lat="46.61702" lon="5.90421">
        <ele>941</ele>
        <time>2015-07-19T09:57:37Z</time>
      </trkpt>
      <trkpt lat="46.61705" lon="5.90417">
        <ele>941</ele>
        <time>2015-07-19T09:57:42Z</time>
      </trkpt>
      <trkpt lat="46.61707" lon="5.90414">
        <ele>940</ele>
        <time>2015-07-19T09:57:47Z</time>
      </trkpt>
      <trkpt lat="46.61711" lon="5.90411">
        <ele>940</ele>
        <time>2015-07-19T09:57:53Z</time>
      </trkpt>
      <trkpt lat="46.61712" lon="5.90409">
        <ele>939</ele>
        <time>2015-07-19T09:57:59Z</time>
      </trkpt>
      <trkpt lat="46.61714" lon="5.90407">
        <ele>939</ele>
        <time>2015-07-19T09:58:05Z</time>
      </trkpt>
      <trkpt lat="46.61717" lon="5.90405">
        <ele>938</ele>
        <time>2015-07-19T09:58:10Z</time>
      </trkpt>
      <trkpt lat="46.61721" lon="5.90403">
        <ele>938</ele>
        <time>2015-07-19T09:58:15Z</time>
      </trkpt>
      <trkpt lat="46.61725" lon="5.904">
        <ele>937</ele>
        <time>2015-07-19T09:58:20Z</time>
      </trkpt>
      <trkpt lat="46.61727" lon="5.904">
        <ele>937</ele>
        <time>2015-07-19T09:58:25Z</time>
      </trkpt>
      <trkpt lat="46.61728" lon="5.904">
        <ele>936</ele>
        <time>2015-07-19T09:58:31Z</time>
      </trkpt>
      <trkpt lat="46.61729" lon="5.90401">
        <ele>937</ele>
        <time>2015-07-19T09:58:36Z</time>
      </trkpt>
      <trkpt lat="46.61731" lon="5.904">
        <ele>936</ele>
        <time>2015-07-19T09:58:41Z</time>
      </trkpt>
      <trkpt lat="46.61732" lon="5.90399">
        <ele>936</ele>
        <time>2015-07-19T09:58:47Z</time>
      </trkpt>
      <trkpt lat="46.61733" lon="5.90401">
        <ele>936</ele>
        <time>2015-07-19T09:58:53Z</time>
      </trkpt>
      <trkpt lat="46.61734" lon="5.90403">
        <ele>937</ele>
        <time>2015-07-19T09:58:59Z</time>
      </trkpt>
      <trkpt lat="46.61734" lon="5.90405">
        <ele>937</ele>
        <time>2015-07-19T09:59:05Z</time>
      </trkpt>
      <trkpt lat="46.61735" lon="5.90406">
        <ele>937</ele>
        <time>2015-07-19T09:59:10Z</time>
      </trkpt>
      <trkpt lat="46.61736" lon="5.90407">
        <ele>937</ele>
        <time>2015-07-19T09:59:16Z</time>
      </trkpt>
      <trkpt lat="46.61735" lon="5.90408">
        <ele>937</ele>
        <time>2015-07-19T09:59:21Z</time>
      </trkpt>
      <trkpt lat="46.61733" lon="5.90408">
        <ele>937</ele>
        <time>2015-07-19T09:59:28Z</time>
      </trkpt>
      <trkpt lat="46.61732" lon="5.90408">
        <ele>938</ele>
        <time>2015-07-19T09:59:34Z</time>
      </trkpt>
      <trkpt lat="46.6173" lon="5.90408">
        <ele>939</ele>
        <time>2015-07-19T09:59:39Z</time>
      </trkpt>
      <trkpt lat="46.61727" lon="5.90406">
        <ele>938</ele>
        <time>2015-07-19T09:59:45Z</time>
      </trkpt>
      <trkpt lat="46.61726" lon="5.90405">
        <ele>938</ele>
        <time>2015-07-19T09:59:50Z</time>
      </trkpt>
      <trkpt lat="46.61726" lon="5.90405">
        <ele>938</ele>
        <time>2015-07-19T09:59:55Z</time>
      </trkpt>
      <trkpt lat="46.61726" lon="5.90403">
        <ele>938</ele>
        <time>2015-07-19T10:00:01Z</time>
      </trkpt>
      <trkpt lat="46.61726" lon="5.90402">
        <ele>937</ele>
        <time>2015-07-19T10:00:06Z</time>
      </trkpt>
      <trkpt lat="46.61727" lon="5.90401">
        <ele>937</ele>
        <time>2015-07-19T10:00:11Z</time>
      </trkpt>
      <trkpt lat="46.61728" lon="5.90402">
        <ele>937</ele>
        <time>2015-07-19T10:00:16Z</time>
      </trkpt>
      <trkpt lat="46.61727" lon="5.90401">
        <ele>937</ele>
        <time>2015-07-19T10:00:21Z</time>
      </trkpt>
      <trkpt lat="46.61726" lon="5.904">
        <ele>937</ele>
        <time>2015-07-19T10:00:27Z</time>
      </trkpt>
      <trkpt lat="46.61725" lon="5.90399">
        <ele>936</ele>
        <time>2015-07-19T10:00:33Z</time>
      </trkpt>
      <trkpt lat="46.61726" lon="5.90398">
        <ele>936</ele>
        <time>2015-07-19T10:00:38Z</time>
      </trkpt>
      <trkpt lat="46.61728" lon="5.90396">
        <ele>937</ele>
        <time>2015-07-19T10:00:43Z</time>
      </trkpt>
      <trkpt lat="46.61731" lon="5.90396">
        <ele>937</ele>
        <time>2015-07-19T10:00:49Z</time>
      </trkpt>
      <trkpt lat="46.61736" lon="5.90395">
        <ele>937</ele>
        <time>2015-07-19T10:00:54Z</time>
      </trkpt>
      <trkpt lat="46.61741" lon="5.90396">
        <ele>937</ele>
        <time>2015-07-19T10:01:00Z</time>
      </trkpt>
      <trkpt lat="46.61743" lon="5.90398">
        <ele>938</ele>
        <time>2015-07-19T10:01:05Z</time>
      </trkpt>
      <trkpt lat="46.61747" lon="5.904">
        <ele>939</ele>
        <time>2015-07-19T10:01:11Z</time>
      </trkpt>
      <trkpt lat="46.6175" lon="5.90402">
        <ele>939</ele>
        <time>2015-07-19T10:01:16Z</time>
      </trkpt>
      <trkpt lat="46.61754" lon="5.90404">
        <ele>940</ele>
        <time>2015-07-19T10:01:21Z</time>
      </trkpt>
      <trkpt lat="46.6176" lon="5.90406">
        <ele>940</ele>
        <time>2015-07-19T10:01:27Z</time>
      </trkpt>
      <trkpt lat="46.61765" lon="5.9041">
        <ele>940</ele>
        <time>2015-07-19T10:01:33Z</time>
      </trkpt>
      <trkpt lat="46.61771" lon="5.90412">
        <ele>940</ele>
        <time>2015-07-19T10:01:38Z</time>
      </trkpt>
      <trkpt lat="46.61776" lon="5.90415">
        <ele>941</ele>
        <time>2015-07-19T10:01:43Z</time>
      </trkpt>
      <trkpt lat="46.6178" lon="5.90417">
        <ele>941</ele>
        <time>2015-07-19T10:01:49Z</time>
      </trkpt>
      <trkpt lat="46.61784" lon="5.9042">
        <ele>941</ele>
        <time>2015-07-19T10:01:54Z</time>
      </trkpt>
      <trkpt lat="46.61789" lon="5.90423">
        <ele>941</ele>
        <time>2015-07-19T10:02:00Z</time>
      </trkpt>
      <trkpt lat="46.61795" lon="5.90426">
        <ele>941</ele>
        <time>2015-07-19T10:02:06Z</time>
      </trkpt>
      <trkpt lat="46.61804" lon="5.90429">
        <ele>941</ele>
        <time>2015-07-19T10:02:12Z</time>
      </trkpt>
      <trkpt lat="46.61809" lon="5.90435">
        <ele>941</ele>
        <time>2015-07-19T10:02:18Z</time>
      </trkpt>
      <trkpt lat="46.61814" lon="5.90439">
        <ele>941</ele>
        <time>2015-07-19T10:02:23Z</time>
      </trkpt>
      <trkpt lat="46.61818" lon="5.90443">
        <ele>941</ele>
        <time>2015-07-19T10:02:29Z</time>
      </trkpt>
      <trkpt lat="46.61825" lon="5.90448">
        <ele>941</ele>
        <time>2015-07-19T10:02:35Z</time>
      </trkpt>
      <trkpt lat="46.61831" lon="5.90455">
        <ele>941</ele>
        <time>2015-07-19T10:02:41Z</time>
      </trkpt>
      <trkpt lat="46.61835" lon="5.90461">
        <ele>941</ele>
        <time>2015-07-19T10:02:47Z</time>
      </trkpt>
      <trkpt lat="46.61839" lon="5.90466">
        <ele>940</ele>
        <time>2015-07-19T10:02:53Z</time>
      </trkpt>
      <trkpt lat="46.61843" lon="5.90472">
        <ele>938</ele>
        <time>2015-07-19T10:02:59Z</time>
      </trkpt>
      <trkpt lat="46.61845" lon="5.90477">
        <ele>938</ele>
        <time>2015-07-19T10:03:04Z</time>
      </trkpt>
      <trkpt lat="46.61848" lon="5.90484">
        <ele>937</ele>
        <time>2015-07-19T10:03:09Z</time>
      </trkpt>
      <trkpt lat="46.6185" lon="5.90491">
        <ele>935</ele>
        <time>2015-07-19T10:03:15Z</time>
      </trkpt>
      <trkpt lat="46.61853" lon="5.90494">
        <ele>934</ele>
        <time>2015-07-19T10:03:20Z</time>
      </trkpt>
      <trkpt lat="46.61856" lon="5.90498">
        <ele>934</ele>
        <time>2015-07-19T10:03:25Z</time>
      </trkpt>
      <trkpt lat="46.61858" lon="5.90503">
        <ele>932</ele>
        <time>2015-07-19T10:03:30Z</time>
      </trkpt>
      <trkpt lat="46.61859" lon="5.90507">
        <ele>931</ele>
        <time>2015-07-19T10:03:35Z</time>
      </trkpt>
      <trkpt lat="46.6186" lon="5.90513">
        <ele>931</ele>
        <time>2015-07-19T10:03:41Z</time>
      </trkpt>
      <trkpt lat="46.61863" lon="5.9052">
        <ele>930</ele>
        <time>2015-07-19T10:03:47Z</time>
      </trkpt>
      <trkpt lat="46.61866" lon="5.90523">
        <ele>929</ele>
        <time>2015-07-19T10:03:52Z</time>
      </trkpt>
      <trkpt lat="46.61872" lon="5.90525">
        <ele>928</ele>
        <time>2015-07-19T10:03:58Z</time>
      </trkpt>
      <trkpt lat="46.61876" lon="5.90528">
        <ele>928</ele>
        <time>2015-07-19T10:04:04Z</time>
      </trkpt>
      <trkpt lat="46.61881" lon="5.90531">
        <ele>928</ele>
        <time>2015-07-19T10:04:10Z</time>
      </trkpt>
      <trkpt lat="46.61884" lon="5.90536">
        <ele>928</ele>
        <time>2015-07-19T10:04:15Z</time>
      </trkpt>
      <trkpt lat="46.61889" lon="5.90542">
        <ele>927</ele>
        <time>2015-07-19T10:04:21Z</time>
      </trkpt>
      <trkpt lat="46.61892" lon="5.90547">
        <ele>928</ele>
        <time>2015-07-19T10:04:26Z</time>
      </trkpt>
      <trkpt lat="46.61893" lon="5.90551">
        <ele>928</ele>
        <time>2015-07-19T10:04:31Z</time>
      </trkpt>
      <trkpt lat="46.61896" lon="5.90556">
        <ele>928</ele>
        <time>2015-07-19T10:04:37Z</time>
      </trkpt>
      <trkpt lat="46.61902" lon="5.90561">
        <ele>929</ele>
        <time>2015-07-19T10:04:43Z</time>
      </trkpt>
      <trkpt lat="46.61907" lon="5.90566">
        <ele>929</ele>
        <time>2015-07-19T10:04:49Z</time>
      </trkpt>
      <trkpt lat="46.61911" lon="5.90572">
        <ele>929</ele>
        <time>2015-07-19T10:04:54Z</time>
      </trkpt>
      <trkpt lat="46.61917" lon="5.90576">
        <ele>929</ele>
        <time>2015-07-19T10:05:00Z</time>
      </trkpt>
      <trkpt lat="46.61921" lon="5.90578">
        <ele>929</ele>
        <time>2015-07-19T10:05:05Z</time>
      </trkpt>
      <trkpt lat="46.61926" lon="5.90581">
        <ele>929</ele>
        <time>2015-07-19T10:05:11Z</time>
      </trkpt>
      <trkpt lat="46.6193" lon="5.90585">
        <ele>930</ele>
        <time>2015-07-19T10:05:16Z</time>
      </trkpt>
      <trkpt lat="46.61932" lon="5.90591">
        <ele>930</ele>
        <time>2015-07-19T10:05:21Z</time>
      </trkpt>
      <trkpt lat="46.61936" lon="5.90596">
        <ele>931</ele>
        <time>2015-07-19T10:05:26Z</time>
      </trkpt>
      <trkpt lat="46.6194" lon="5.90601">
        <ele>931</ele>
        <time>2015-07-19T10:05:32Z</time>
      </trkpt>
      <trkpt lat="46.61943" lon="5.90607">
        <ele>930</ele>
        <time>2015-07-19T10:05:37Z</time>
      </trkpt>
      <trkpt lat="46.61946" lon="5.90614">
        <ele>930</ele>
        <time>2015-07-19T10:05:43Z</time>
      </trkpt>
      <trkpt lat="46.61949" lon="5.90618">
        <ele>930</ele>
        <time>2015-07-19T10:05:48Z</time>
      </trkpt>
      <trkpt lat="46.61953" lon="5.90625">
        <ele>929</ele>
        <time>2015-07-19T10:05:54Z</time>
      </trkpt>
      <trkpt lat="46.61958" lon="5.9063">
        <ele>928</ele>
        <time>2015-07-19T10:05:59Z</time>
      </trkpt>
      <trkpt lat="46.61963" lon="5.90633">
        <ele>927</ele>
        <time>2015-07-19T10:06:05Z</time>
      </trkpt>
      <trkpt lat="46.61967" lon="5.90637">
        <ele>927</ele>
        <time>2015-07-19T10:06:10Z</time>
      </trkpt>
      <trkpt lat="46.61971" lon="5.9064">
        <ele>926</ele>
        <time>2015-07-19T10:06:16Z</time>
      </trkpt>
      <trkpt lat="46.61973" lon="5.90645">
        <ele>925</ele>
        <time>2015-07-19T10:06:21Z</time>
      </trkpt>
      <trkpt lat="46.61978" lon="5.90648">
        <ele>924</ele>
        <time>2015-07-19T10:06:26Z</time>
      </trkpt>
      <trkpt lat="46.61983" lon="5.90652">
        <ele>924</ele>
        <time>2015-07-19T10:06:32Z</time>
      </trkpt>
      <trkpt lat="46.61988" lon="5.90655">
        <ele>924</ele>
        <time>2015-07-19T10:06:38Z</time>
      </trkpt>
      <trkpt lat="46.61994" lon="5.9066">
        <ele>923</ele>
        <time>2015-07-19T10:06:44Z</time>
      </trkpt>
      <trkpt lat="46.61998" lon="5.90663">
        <ele>923</ele>
        <time>2015-07-19T10:06:49Z</time>
      </trkpt>
      <trkpt lat="46.62005" lon="5.90667">
        <ele>924</ele>
        <time>2015-07-19T10:06:55Z</time>
      </trkpt>
      <trkpt lat="46.6201" lon="5.9067">
        <ele>925</ele>
        <time>2015-07-19T10:07:01Z</time>
      </trkpt>
      <trkpt lat="46.62013" lon="5.90673">
        <ele>925</ele>
        <time>2015-07-19T10:07:06Z</time>
      </trkpt>
      <trkpt lat="46.62019" lon="5.90676">
        <ele>925</ele>
        <time>2015-07-19T10:07:12Z</time>
      </trkpt>
      <trkpt lat="46.62025" lon="5.90679">
        <ele>926</ele>
        <time>2015-07-19T10:07:18Z</time>
      </trkpt>
      <trkpt lat="46.6203" lon="5.90683">
        <ele>926</ele>
        <time>2015-07-19T10:07:24Z</time>
      </trkpt>
      <trkpt lat="46.62033" lon="5.90684">
        <ele>926</ele>
        <time>2015-07-19T10:07:29Z</time>
      </trkpt>
      <trkpt lat="46.62036" lon="5.90682">
        <ele>927</ele>
        <time>2015-07-19T10:07:34Z</time>
      </trkpt>
      <trkpt lat="46.62038" lon="5.90678">
        <ele>927</ele>
        <time>2015-07-19T10:07:39Z</time>
      </trkpt>
      <trkpt lat="46.62041" lon="5.90675">
        <ele>928</ele>
        <time>2015-07-19T10:07:45Z</time>
      </trkpt>
      <trkpt lat="46.62043" lon="5.9067">
        <ele>930</ele>
        <time>2015-07-19T10:07:51Z</time>
      </trkpt>
      <trkpt lat="46.62044" lon="5.90669">
        <ele>930</ele>
        <time>2015-07-19T10:07:57Z</time>
      </trkpt>
      <trkpt lat="46.62047" lon="5.90668">
        <ele>931</ele>
        <time>2015-07-19T10:08:03Z</time>
      </trkpt>
      <trkpt lat="46.62048" lon="5.90669">
        <ele>930</ele>
        <time>2015-07-19T10:08:08Z</time>
      </trkpt>
      <trkpt lat="46.62049" lon="5.90671">
        <ele>929</ele>
        <time>2015-07-19T10:08:14Z</time>
      </trkpt>
      <trkpt lat="46.62048" lon="5.90673">
        <ele>928</ele>
        <time>2015-07-19T10:08:19Z</time>
      </trkpt>
      <trkpt lat="46.62048" lon="5.90677">
        <ele>927</ele>
        <time>2015-07-19T10:08:24Z</time>
      </trkpt>
      <trkpt lat="46.62046" lon="5.90683">
        <ele>927</ele>
        <time>2015-07-19T10:08:29Z</time>
      </trkpt>
      <trkpt lat="46.62046" lon="5.9069">
        <ele>926</ele>
        <time>2015-07-19T10:08:34Z</time>
      </trkpt>
      <trkpt lat="46.62047" lon="5.90698">
        <ele>925</ele>
        <time>2015-07-19T10:08:40Z</time>
      </trkpt>
      <trkpt lat="46.62046" lon="5.90703">
        <ele>925</ele>
        <time>2015-07-19T10:08:45Z</time>
      </trkpt>
      <trkpt lat="46.62045" lon="5.90711">
        <ele>925</ele>
        <time>2015-07-19T10:08:51Z</time>
      </trkpt>
      <trkpt lat="46.62046" lon="5.90719">
        <ele>924</ele>
        <time>2015-07-19T10:08:57Z</time>
      </trkpt>
      <trkpt lat="46.6205" lon="5.90725">
        <ele>924</ele>
        <time>2015-07-19T10:09:02Z</time>
      </trkpt>
      <trkpt lat="46.62053" lon="5.90732">
        <ele>924</ele>
        <time>2015-07-19T10:09:08Z</time>
      </trkpt>
      <trkpt lat="46.62056" lon="5.90739">
        <ele>923</ele>
        <time>2015-07-19T10:09:13Z</time>
      </trkpt>
      <trkpt lat="46.62058" lon="5.90748">
        <ele>923</ele>
        <time>2015-07-19T10:09:19Z</time>
      </trkpt>
      <trkpt lat="46.6206" lon="5.90757">
        <ele>923</ele>
        <time>2015-07-19T10:09:25Z</time>
      </trkpt>
      <trkpt lat="46.62061" lon="5.90763">
        <ele>923</ele>
        <time>2015-07-19T10:09:30Z</time>
      </trkpt>
      <trkpt lat="46.6206" lon="5.9077">
        <ele>923</ele>
        <time>2015-07-19T10:09:36Z</time>
      </trkpt>
      <trkpt lat="46.6206" lon="5.90776">
        <ele>922</ele>
        <time>2015-07-19T10:09:42Z</time>
      </trkpt>
      <trkpt lat="46.62059" lon="5.90781">
        <ele>921</ele>
        <time>2015-07-19T10:09:47Z</time>
      </trkpt>
      <trkpt lat="46.62058" lon="5.90786">
        <ele>920</ele>
        <time>2015-07-19T10:09:52Z</time>
      </trkpt>
      <trkpt lat="46.62059" lon="5.90792">
        <ele>919</ele>
        <time>2015-07-19T10:09:58Z</time>
      </trkpt>
      <trkpt lat="46.62058" lon="5.90798">
        <ele>919</ele>
        <time>2015-07-19T10:10:03Z</time>
      </trkpt>
      <trkpt lat="46.62057" lon="5.90804">
        <ele>918</ele>
        <time>2015-07-19T10:10:09Z</time>
      </trkpt>
      <trkpt lat="46.62055" lon="5.9081">
        <ele>916</ele>
        <time>2015-07-19T10:10:14Z</time>
      </trkpt>
      <trkpt lat="46.62054" lon="5.90817">
        <ele>915</ele>
        <time>2015-07-19T10:10:19Z</time>
      </trkpt>
      <trkpt lat="46.6205" lon="5.90825">
        <ele>914</ele>
        <time>2015-07-19T10:10:25Z</time>
      </trkpt>
      <trkpt lat="46.62048" lon="5.90833">
        <ele>913</ele>
        <time>2015-07-19T10:10:30Z</time>
      </trkpt>
      <trkpt lat="46.62046" lon="5.9084">
        <ele>913</ele>
        <time>2015-07-19T10:10:36Z</time>
      </trkpt>
      <trkpt lat="46.62046" lon="5.90846">
        <ele>914</ele>
        <time>2015-07-19T10:10:41Z</time>
      </trkpt>
      <trkpt lat="46.62044" lon="5.90854">
        <ele>914</ele>
        <time>2015-07-19T10:10:47Z</time>
      </trkpt>
      <trkpt lat="46.62041" lon="5.90861">
        <ele>915</ele>
        <time>2015-07-19T10:10:52Z</time>
      </trkpt>
      <trkpt lat="46.62038" lon="5.90865">
        <ele>915</ele>
        <time>2015-07-19T10:10:57Z</time>
      </trkpt>
      <trkpt lat="46.62035" lon="5.9087">
        <ele>915</ele>
        <time>2015-07-19T10:11:03Z</time>
      </trkpt>
      <trkpt lat="46.62032" lon="5.90875">
        <ele>915</ele>
        <time>2015-07-19T10:11:08Z</time>
      </trkpt>
      <trkpt lat="46.6203" lon="5.9088">
        <ele>914</ele>
        <time>2015-07-19T10:11:13Z</time>
      </trkpt>
      <trkpt lat="46.62027" lon="5.90884">
        <ele>913</ele>
        <time>2015-07-19T10:11:19Z</time>
      </trkpt>
      <trkpt lat="46.62024" lon="5.9089">
        <ele>913</ele>
        <time>2015-07-19T10:11:24Z</time>
      </trkpt>
      <trkpt lat="46.62022" lon="5.90896">
        <ele>912</ele>
        <time>2015-07-19T10:11:29Z</time>
      </trkpt>
      <trkpt lat="46.62019" lon="5.90901">
        <ele>911</ele>
        <time>2015-07-19T10:11:34Z</time>
      </trkpt>
      <trkpt lat="46.62013" lon="5.90907">
        <ele>911</ele>
        <time>2015-07-19T10:11:39Z</time>
      </trkpt>
      <trkpt lat="46.62009" lon="5.90911">
        <ele>911</ele>
        <time>2015-07-19T10:11:45Z</time>
      </trkpt>
      <trkpt lat="46.62008" lon="5.90911">
        <ele>911</ele>
        <time>2015-07-19T10:11:51Z</time>
      </trkpt>
      <trkpt lat="46.62009" lon="5.9091">
        <ele>911</ele>
        <time>2015-07-19T10:11:58Z</time>
      </trkpt>
      <trkpt lat="46.62008" lon="5.9091">
        <ele>911</ele>
        <time>2015-07-19T10:12:03Z</time>
      </trkpt>
      <trkpt lat="46.62007" lon="5.90913">
        <ele>911</ele>
        <time>2015-07-19T10:12:08Z</time>
      </trkpt>
      <trkpt lat="46.62005" lon="5.90915">
        <ele>910</ele>
        <time>2015-07-19T10:12:14Z</time>
      </trkpt>
      <trkpt lat="46.62002" lon="5.90919">
        <ele>910</ele>
        <time>2015-07-19T10:12:19Z</time>
      </trkpt>
      <trkpt lat="46.61999" lon="5.90924">
        <ele>910</ele>
        <time>2015-07-19T10:12:25Z</time>
      </trkpt>
      <trkpt lat="46.61995" lon="5.90929">
        <ele>910</ele>
        <time>2015-07-19T10:12:30Z</time>
      </trkpt>
      <trkpt lat="46.61991" lon="5.90933">
        <ele>909</ele>
        <time>2015-07-19T10:12:35Z</time>
      </trkpt>
      <trkpt lat="46.61989" lon="5.90938">
        <ele>908</ele>
        <time>2015-07-19T10:12:40Z</time>
      </trkpt>
      <trkpt lat="46.61987" lon="5.90942">
        <ele>908</ele>
        <time>2015-07-19T10:12:46Z</time>
      </trkpt>
      <trkpt lat="46.61985" lon="5.90946">
        <ele>907</ele>
        <time>2015-07-19T10:12:52Z</time>
      </trkpt>
      <trkpt lat="46.61985" lon="5.9095">
        <ele>906</ele>
        <time>2015-07-19T10:12:58Z</time>
      </trkpt>
      <trkpt lat="46.61987" lon="5.90954">
        <ele>905</ele>
        <time>2015-07-19T10:13:04Z</time>
      </trkpt>
      <trkpt lat="46.61988" lon="5.90956">
        <ele>904</ele>
        <time>2015-07-19T10:13:09Z</time>
      </trkpt>
      <trkpt lat="46.6199" lon="5.90959">
        <ele>904</ele>
        <time>2015-07-19T10:13:15Z</time>
      </trkpt>
      <trkpt lat="46.61991" lon="5.90963">
        <ele>903</ele>
        <time>2015-07-19T10:13:20Z</time>
      </trkpt>
      <trkpt lat="46.61992" lon="5.90965">
        <ele>903</ele>
        <time>2015-07-19T10:13:25Z</time>
      </trkpt>
      <trkpt lat="46.61993" lon="5.90966">
        <ele>902</ele>
        <time>2015-07-19T10:13:30Z</time>
      </trkpt>
      <trkpt lat="46.61994" lon="5.90968">
        <ele>902</ele>
        <time>2015-07-19T10:13:36Z</time>
      </trkpt>
      <trkpt lat="46.62" lon="5.90971">
        <ele>902</ele>
        <time>2015-07-19T10:13:42Z</time>
      </trkpt>
      <trkpt lat="46.62006" lon="5.90973">
        <ele>901</ele>
        <time>2015-07-19T10:13:48Z</time>
      </trkpt>
      <trkpt lat="46.62009" lon="5.90977">
        <ele>901</ele>
        <time>2015-07-19T10:13:53Z</time>
      </trkpt>
      <trkpt lat="46.62014" lon="5.9098">
        <ele>900</ele>
        <time>2015-07-19T10:13:58Z</time>
      </trkpt>
      <trkpt lat="46.62018" lon="5.9098">
        <ele>900</ele>
        <time>2015-07-19T10:14:03Z</time>
      </trkpt>
      <trkpt lat="46.62025" lon="5.90981">
        <ele>901</ele>
        <time>2015-07-19T10:14:09Z</time>
      </trkpt>
      <trkpt lat="46.62028" lon="5.90979">
        <ele>901</ele>
        <time>2015-07-19T10:14:14Z</time>
      </trkpt>
      <trkpt lat="46.62033" lon="5.90977">
        <ele>903</ele>
        <time>2015-07-19T10:14:20Z</time>
      </trkpt>
      <trkpt lat="46.62037" lon="5.90975">
        <ele>903</ele>
        <time>2015-07-19T10:14:26Z</time>
      </trkpt>
      <trkpt lat="46.62039" lon="5.90973">
        <ele>903</ele>
        <time>2015-07-19T10:14:31Z</time>
      </trkpt>
      <trkpt lat="46.62042" lon="5.90973">
        <ele>903</ele>
        <time>2015-07-19T10:14:37Z</time>
      </trkpt>
      <trkpt lat="46.62046" lon="5.90974">
        <ele>903</ele>
        <time>2015-07-19T10:14:43Z</time>
      </trkpt>
      <trkpt lat="46.62053" lon="5.90973">
        <ele>903</ele>
        <time>2015-07-19T10:14:49Z</time>
      </trkpt>
      <trkpt lat="46.62056" lon="5.90969">
        <ele>902</ele>
        <time>2015-07-19T10:14:55Z</time>
      </trkpt>
      <trkpt lat="46.62059" lon="5.90967">
        <ele>901</ele>
        <time>2015-07-19T10:15:00Z</time>
      </trkpt>
      <trkpt lat="46.62063" lon="5.90962">
        <ele>901</ele>
        <time>2015-07-19T10:15:06Z</time>
      </trkpt>
      <trkpt lat="46.62069" lon="5.90958">
        <ele>901</ele>
        <time>2015-07-19T10:15:12Z</time>
      </trkpt>
      <trkpt lat="46.6207" lon="5.90955">
        <ele>900</ele>
        <time>2015-07-19T10:15:18Z</time>
      </trkpt>
      <trkpt lat="46.62074" lon="5.90951">
        <ele>901</ele>
        <time>2015-07-19T10:15:23Z</time>
      </trkpt>
      <trkpt lat="46.62078" lon="5.90948">
        <ele>900</ele>
        <time>2015-07-19T10:15:28Z</time>
      </trkpt>
      <trkpt lat="46.62082" lon="5.90943">
        <ele>899</ele>
        <time>2015-07-19T10:15:34Z</time>
      </trkpt>
      <trkpt lat="46.62088" lon="5.90939">
        <ele>898</ele>
        <time>2015-07-19T10:15:40Z</time>
      </trkpt>
      <trkpt lat="46.62091" lon="5.90934">
        <ele>898</ele>
        <time>2015-07-19T10:15:45Z</time>
      </trkpt>
      <trkpt lat="46.62096" lon="5.90927">
        <ele>897</ele>
        <time>2015-07-19T10:15:51Z</time>
      </trkpt>
      <trkpt lat="46.62099" lon="5.90925">
        <ele>896</ele>
        <time>2015-07-19T10:15:56Z</time>
      </trkpt>
      <trkpt lat="46.62103" lon="5.90922">
        <ele>896</ele>
        <time>2015-07-19T10:16:02Z</time>
      </trkpt>
      <trkpt lat="46.62107" lon="5.90918">
        <ele>895</ele>
        <time>2015-07-19T10:16:07Z</time>
      </trkpt>
      <trkpt lat="46.62112" lon="5.90915">
        <ele>895</ele>
        <time>2015-07-19T10:16:12Z</time>
      </trkpt>
      <trkpt lat="46.62118" lon="5.9091">
        <ele>895</ele>
        <time>2015-07-19T10:16:18Z</time>
      </trkpt>
      <trkpt lat="46.62124" lon="5.90906">
        <ele>894</ele>
        <time>2015-07-19T10:16:24Z</time>
      </trkpt>
      <trkpt lat="46.62129" lon="5.90902">
        <ele>893</ele>
        <time>2015-07-19T10:16:30Z</time>
      </trkpt>
      <trkpt lat="46.62133" lon="5.90895">
        <ele>892</ele>
        <time>2015-07-19T10:16:36Z</time>
      </trkpt>
      <trkpt lat="46.62137" lon="5.90891">
        <ele>891</ele>
        <time>2015-07-19T10:16:41Z</time>
      </trkpt>
      <trkpt lat="46.62143" lon="5.90885">
        <ele>891</ele>
        <time>2015-07-19T10:16:47Z</time>
      </trkpt>
      <trkpt lat="46.62147" lon="5.90882">
        <ele>890</ele>
        <time>2015-07-19T10:16:52Z</time>
      </trkpt>
      <trkpt lat="46.62152" lon="5.9088">
        <ele>890</ele>
        <time>2015-07-19T10:16:58Z</time>
      </trkpt>
      <trkpt lat="46.62159" lon="5.9088">
        <ele>889</ele>
        <time>2015-07-19T10:17:04Z</time>
      </trkpt>
      <trkpt lat="46.62165" lon="5.90882">
        <ele>889</ele>
        <time>2015-07-19T10:17:09Z</time>
      </trkpt>
      <trkpt lat="46.6217" lon="5.90885">
        <ele>888</ele>
        <time>2015-07-19T10:17:14Z</time>
      </trkpt>
      <trkpt lat="46.62177" lon="5.90886">
        <ele>888</ele>
        <time>2015-07-19T10:17:20Z</time>
      </trkpt>
      <trkpt lat="46.62179" lon="5.90887">
        <ele>888</ele>
        <time>2015-07-19T10:17:25Z</time>
      </trkpt>
      <trkpt lat="46.62182" lon="5.90886">
        <ele>889</ele>
        <time>2015-07-19T10:17:31Z</time>
      </trkpt>
      <trkpt lat="46.62186" lon="5.90885">
        <ele>889</ele>
        <time>2015-07-19T10:17:36Z</time>
      </trkpt>
      <trkpt lat="46.62191" lon="5.90884">
        <ele>890</ele>
        <time>2015-07-19T10:17:42Z</time>
      </trkpt>
      <trkpt lat="46.62194" lon="5.90883">
        <ele>890</ele>
        <time>2015-07-19T10:17:48Z</time>
      </trkpt>
      <trkpt lat="46.62199" lon="5.90883">
        <ele>890</ele>
        <time>2015-07-19T10:17:54Z</time>
      </trkpt>
      <trkpt lat="46.62202" lon="5.90884">
        <ele>890</ele>
        <time>2015-07-19T10:18:00Z</time>
      </trkpt>
      <trkpt lat="46.62206" lon="5.90886">
        <ele>890</ele>
        <time>2015-07-19T10:18:05Z</time>
      </trkpt>
      <trkpt lat="46.62213" lon="5.90891">
        <ele>890</ele>
        <time>2015-07-19T10:18:11Z</time>
      </trkpt>
      <trkpt lat="46.62218" lon="5.90896">
        <ele>890</ele>
        <time>2015-07-19T10:18:17Z</time>
      </trkpt>
      <trkpt lat="46.6222" lon="5.90902">
        <ele>890</ele>
        <time>2015-07-19T10:18:22Z</time>
      </trkpt>
      <trkpt lat="46.62219" lon="5.90903">
        <ele>890</ele>
        <time>2015-07-19T10:18:27Z</time>
      </trkpt>
      <trkpt lat="46.62218" lon="5.90905">
        <ele>890</ele>
        <time>2015-07-19T10:18:33Z</time>
      </trkpt>
      <trkpt lat="46.6222" lon="5.90905">
        <ele>890</ele>
        <time>2015-07-19T10:18:39Z</time>
      </trkpt>
      <trkpt lat="46.6222" lon="5.90909">
        <ele>890</ele>
        <time>2015-07-19T10:18:44Z</time>
      </trkpt>
      <trkpt lat="46.6222" lon="5.90914">
        <ele>890</ele>
        <time>2015-07-19T10:18:50Z</time>
      </trkpt>
      <trkpt lat="46.62221" lon="5.9092">
        <ele>889</ele>
        <time>2015-07-19T10:18:55Z</time>
      </trkpt>
      <trkpt lat="46.62221" lon="5.90926">
        <ele>890</ele>
        <time>2015-07-19T10:19:01Z</time>
      </trkpt>
      <trkpt lat="46.62221" lon="5.9093">
        <ele>890</ele>
        <time>2015-07-19T10:19:06Z</time>
      </trkpt>
      <trkpt lat="46.62222" lon="5.90935">
        <ele>890</ele>
        <time>2015-07-19T10:19:12Z</time>
      </trkpt>
      <trkpt lat="46.62223" lon="5.90939">
        <ele>891</ele>
        <time>2015-07-19T10:19:17Z</time>
      </trkpt>
      <trkpt lat="46.62225" lon="5.90941">
        <ele>891</ele>
        <time>2015-07-19T10:19:22Z</time>
      </trkpt>
      <trkpt lat="46.62229" lon="5.90946">
        <ele>892</ele>
        <time>2015-07-19T10:19:28Z</time>
      </trkpt>
      <trkpt lat="46.62234" lon="5.90948">
        <ele>893</ele>
        <time>2015-07-19T10:19:33Z</time>
      </trkpt>
      <trkpt lat="46.62235" lon="5.90949">
        <ele>894</ele>
        <time>2015-07-19T10:19:39Z</time>
      </trkpt>
      <trkpt lat="46.62239" lon="5.90949">
        <ele>895</ele>
        <time>2015-07-19T10:19:44Z</time>
      </trkpt>
      <trkpt lat="46.62244" lon="5.90949">
        <ele>895</ele>
        <time>2015-07-19T10:19:50Z</time>
      </trkpt>
      <trkpt lat="46.62246" lon="5.90948">
        <ele>896</ele>
        <time>2015-07-19T10:19:55Z</time>
      </trkpt>
      <trkpt lat="46.6225" lon="5.90949">
        <ele>897</ele>
        <time>2015-07-19T10:20:00Z</time>
      </trkpt>
      <trkpt lat="46.62254" lon="5.90951">
        <ele>897</ele>
        <time>2015-07-19T10:20:06Z</time>
      </trkpt>
      <trkpt lat="46.6226" lon="5.90955">
        <ele>897</ele>
        <time>2015-07-19T10:20:12Z</time>
      </trkpt>
      <trkpt lat="46.62266" lon="5.90957">
        <ele>897</ele>
        <time>2015-07-19T10:20:18Z</time>
      </trkpt>
      <trkpt lat="46.6227" lon="5.9096">
        <ele>898</ele>
        <time>2015-07-19T10:20:23Z</time>
      </trkpt>
      <trkpt lat="46.62275" lon="5.90964">
        <ele>897</ele>
        <time>2015-07-19T10:20:29Z</time>
      </trkpt>
      <trkpt lat="46.6228" lon="5.90965">
        <ele>897</ele>
        <time>2015-07-19T10:20:35Z</time>
      </trkpt>
      <trkpt lat="46.62283" lon="5.90969">
        <ele>896</ele>
        <time>2015-07-19T10:20:40Z</time>
      </trkpt>
      <trkpt lat="46.62288" lon="5.90973">
        <ele>895</ele>
        <time>2015-07-19T10:20:45Z</time>
      </trkpt>
      <trkpt lat="46.62293" lon="5.90977">
        <ele>896</ele>
        <time>2015-07-19T10:20:51Z</time>
      </trkpt>
      <trkpt lat="46.62299" lon="5.9098">
        <ele>895</ele>
        <time>2015-07-19T10:20:57Z</time>
      </trkpt>
      <trkpt lat="46.62302" lon="5.90984">
        <ele>896</ele>
        <time>2015-07-19T10:21:03Z</time>
      </trkpt>
      <trkpt lat="46.62307" lon="5.90985">
        <ele>897</ele>
        <time>2015-07-19T10:21:09Z</time>
      </trkpt>
      <trkpt lat="46.62311" lon="5.90987">
        <ele>898</ele>
        <time>2015-07-19T10:21:15Z</time>
      </trkpt>
      <trkpt lat="46.62316" lon="5.90988">
        <ele>899</ele>
        <time>2015-07-19T10:21:21Z</time>
      </trkpt>
      <trkpt lat="46.6232" lon="5.90988">
        <ele>900</ele>
        <time>2015-07-19T10:21:27Z</time>
      </trkpt>
      <trkpt lat="46.62326" lon="5.9099">
        <ele>901</ele>
        <time>2015-07-19T10:21:33Z</time>
      </trkpt>
      <trkpt lat="46.6233" lon="5.9099">
        <ele>901</ele>
        <time>2015-07-19T10:21:38Z</time>
      </trkpt>
      <trkpt lat="46.62333" lon="5.90988">
        <ele>901</ele>
        <time>2015-07-19T10:21:43Z</time>
      </trkpt>
      <trkpt lat="46.62337" lon="5.90986">
        <ele>901</ele>
        <time>2015-07-19T10:21:49Z</time>
      </trkpt>
      <trkpt lat="46.62339" lon="5.90986">
        <ele>901</ele>
        <time>2015-07-19T10:21:54Z</time>
      </trkpt>
      <trkpt lat="46.62339" lon="5.90984">
        <ele>901</ele>
        <time>2015-07-19T10:21:59Z</time>
      </trkpt>
      <trkpt lat="46.6234" lon="5.90982">
        <ele>901</ele>
        <time>2015-07-19T10:22:04Z</time>
      </trkpt>
      <trkpt lat="46.62339" lon="5.9098">
        <ele>901</ele>
        <time>2015-07-19T10:22:09Z</time>
      </trkpt>
      <trkpt lat="46.62339" lon="5.90978">
        <ele>902</ele>
        <time>2015-07-19T10:22:15Z</time>
      </trkpt>
      <trkpt lat="46.6234" lon="5.90977">
        <ele>901</ele>
        <time>2015-07-19T10:22:20Z</time>
      </trkpt>
      <trkpt lat="46.62341" lon="5.90976">
        <ele>900</ele>
        <time>2015-07-19T10:22:26Z</time>
      </trkpt>
      <trkpt lat="46.62341" lon="5.90975">
        <ele>901</ele>
        <time>2015-07-19T10:22:33Z</time>
      </trkpt>
      <trkpt lat="46.62342" lon="5.90974">
        <ele>900</ele>
        <time>2015-07-19T10:22:38Z</time>
      </trkpt>
      <trkpt lat="46.62342" lon="5.90975">
        <ele>901</ele>
        <time>2015-07-19T10:22:46Z</time>
      </trkpt>
      <trkpt lat="46.62342" lon="5.90976">
        <ele>901</ele>
        <time>2015-07-19T10:22:52Z</time>
      </trkpt>
      <trkpt lat="46.62343" lon="5.90977">
        <ele>901</ele>
        <time>2015-07-19T10:22:58Z</time>
      </trkpt>
      <trkpt lat="46.62342" lon="5.90977">
        <ele>901</ele>
        <time>2015-07-19T10:23:03Z</time>
      </trkpt>
      <trkpt lat="46.62342" lon="5.90976">
        <ele>901</ele>
        <time>2015-07-19T10:23:09Z</time>
      </trkpt>
      <trkpt lat="46.62342" lon="5.90978">
        <ele>901</ele>
        <time>2015-07-19T10:23:14Z</time>
      </trkpt>
      <trkpt lat="46.62342" lon="5.90975">
        <ele>901</ele>
        <time>2015-07-19T10:23:20Z</time>
      </trkpt>
      <trkpt lat="46.62341" lon="5.90975">
        <ele>900</ele>
        <time>2015-07-19T10:23:25Z</time>
      </trkpt>
      <trkpt lat="46.6234" lon="5.90976">
        <ele>901</ele>
        <time>2015-07-19T10:23:30Z</time>
      </trkpt>
      <trkpt lat="46.62339" lon="5.90977">
        <ele>900</ele>
        <time>2015-07-19T10:23:36Z</time>
      </trkpt>
      <trkpt lat="46.6234" lon="5.90977">
        <ele>900</ele>
        <time>2015-07-19T10:23:41Z</time>
      </trkpt>
      <trkpt lat="46.62341" lon="5.90977">
        <ele>900</ele>
        <time>2015-07-19T10:23:47Z</time>
      </trkpt>
      <trkpt lat="46.62343" lon="5.90975">
        <ele>899</ele>
        <time>2015-07-19T10:23:52Z</time>
      </trkpt>
      <trkpt lat="46.62346" lon="5.90974">
        <ele>898</ele>
        <time>2015-07-19T10:23:58Z</time>
      </trkpt>
      <trkpt lat="46.62347" lon="5.90974">
        <ele>898</ele>
        <time>2015-07-19T10:24:04Z</time>
      </trkpt>
      <trkpt lat="46.62348" lon="5.90972">
        <ele>899</ele>
        <time>2015-07-19T10:24:09Z</time>
      </trkpt>
      <trkpt lat="46.62349" lon="5.90973">
        <ele>899</ele>
        <time>2015-07-19T10:24:15Z</time>
      </trkpt>
      <trkpt lat="46.62351" lon="5.90976">
        <ele>898</ele>
        <time>2015-07-19T10:24:20Z</time>
      </trkpt>
      <trkpt lat="46.62353" lon="5.90977">
        <ele>898</ele>
        <time>2015-07-19T10:24:26Z</time>
      </trkpt>
      <trkpt lat="46.62353" lon="5.90977">
        <ele>898</ele>
        <time>2015-07-19T10:24:32Z</time>
      </trkpt>
      <trkpt lat="46.62354" lon="5.90976">
        <ele>898</ele>
        <time>2015-07-19T10:24:37Z</time>
      </trkpt>
      <trkpt lat="46.62354" lon="5.90977">
        <ele>898</ele>
        <time>2015-07-19T10:24:43Z</time>
      </trkpt>
      <trkpt lat="46.62354" lon="5.90977">
        <ele>898</ele>
        <time>2015-07-19T10:24:49Z</time>
      </trkpt>
      <trkpt lat="46.62357" lon="5.90978">
        <ele>899</ele>
        <time>2015-07-19T10:24:54Z</time>
      </trkpt>
      <trkpt lat="46.62357" lon="5.90978">
        <ele>898</ele>
        <time>2015-07-19T10:24:59Z</time>
      </trkpt>
      <trkpt lat="46.62358" lon="5.90979">
        <ele>898</ele>
        <time>2015-07-19T10:25:05Z</time>
      </trkpt>
      <trkpt lat="46.62359" lon="5.9098">
        <ele>899</ele>
        <time>2015-07-19T10:25:11Z</time>
      </trkpt>
      <trkpt lat="46.62357" lon="5.90979">
        <ele>899</ele>
        <time>2015-07-19T10:25:17Z</time>
      </trkpt>
      <trkpt lat="46.62356" lon="5.90977">
        <ele>899</ele>
        <time>2015-07-19T10:25:22Z</time>
      </trkpt>
      <trkpt lat="46.62358" lon="5.90977">
        <ele>898</ele>
        <time>2015-07-19T10:25:28Z</time>
      </trkpt>
      <trkpt lat="46.62359" lon="5.90974">
        <ele>899</ele>
        <time>2015-07-19T10:25:34Z</time>
      </trkpt>
      <trkpt lat="46.62358" lon="5.90973">
        <ele>899</ele>
        <time>2015-07-19T10:25:40Z</time>
      </trkpt>
      <trkpt lat="46.62357" lon="5.90973">
        <ele>899</ele>
        <time>2015-07-19T10:25:45Z</time>
      </trkpt>
      <trkpt lat="46.62355" lon="5.90972">
        <ele>898</ele>
        <time>2015-07-19T10:25:51Z</time>
      </trkpt>
      <trkpt lat="46.62352" lon="5.90972">
        <ele>898</ele>
        <time>2015-07-19T10:25:56Z</time>
      </trkpt>
      <trkpt lat="46.62352" lon="5.90973">
        <ele>898</ele>
        <time>2015-07-19T10:26:01Z</time>
      </trkpt>
      <trkpt lat="46.6235" lon="5.90973">
        <ele>899</ele>
        <time>2015-07-19T10:26:06Z</time>
      </trkpt>
      <trkpt lat="46.62349" lon="5.90974">
        <ele>898</ele>
        <time>2015-07-19T10:26:12Z</time>
      </trkpt>
      <trkpt lat="46.62347" lon="5.90974">
        <ele>898</ele>
        <time>2015-07-19T10:26:18Z</time>
      </trkpt>
      <trkpt lat="46.62348" lon="5.90974">
        <ele>899</ele>
        <time>2015-07-19T10:26:25Z</time>
      </trkpt>
      <trkpt lat="46.62348" lon="5.90973">
        <ele>898</ele>
        <time>2015-07-19T10:26:30Z</time>
      </trkpt>
      <trkpt lat="46.62347" lon="5.90973">
        <ele>898</ele>
        <time>2015-07-19T10:26:35Z</time>
      </trkpt>
      <trkpt lat="46.62345" lon="5.90973">
        <ele>899</ele>
        <time>2015-07-19T10:26:41Z</time>
      </trkpt>
      <trkpt lat="46.62344" lon="5.90969">
        <ele>898</ele>
        <time>2015-07-19T10:26:47Z</time>
      </trkpt>
      <trkpt lat="46.62343" lon="5.90967">
        <ele>898</ele>
        <time>2015-07-19T10:26:52Z</time>
      </trkpt>
      <trkpt lat="46.62344" lon="5.90971">
        <ele>898</ele>
        <time>2015-07-19T10:26:58Z</time>
      </trkpt>
      <trkpt lat="46.62346" lon="5.90972">
        <ele>899</ele>
        <time>2015-07-19T10:27:04Z</time>
      </trkpt>
      <trkpt lat="46.62346" lon="5.90972">
        <ele>898</ele>
        <time>2015-07-19T10:27:09Z</time>
      </trkpt>
      <trkpt lat="46.62347" lon="5.90973">
        <ele>898</ele>
        <time>2015-07-19T10:27:15Z</time>
      </trkpt>
      <trkpt lat="46.62347" lon="5.90976">
        <ele>898</ele>
        <time>2015-07-19T10:27:20Z</time>
      </trkpt>
      <trkpt lat="46.62347" lon="5.90977">
        <ele>898</ele>
        <time>2015-07-19T10:27:25Z</time>
      </trkpt>
      <trkpt lat="46.62348" lon="5.90978">
        <ele>898</ele>
        <time>2015-07-19T10:27:30Z</time>
      </trkpt>
      <trkpt lat="46.62349" lon="5.90979">
        <ele>898</ele>
        <time>2015-07-19T10:27:36Z</time>
      </trkpt>
      <trkpt lat="46.62351" lon="5.90978">
        <ele>897</ele>
        <time>2015-07-19T10:27:42Z</time>
      </trkpt>
      <trkpt lat="46.62351" lon="5.90975">
        <ele>897</ele>
        <time>2015-07-19T10:27:47Z</time>
      </trkpt>
      <trkpt lat="46.62349" lon="5.90973">
        <ele>898</ele>
        <time>2015-07-19T10:27:53Z</time>
      </trkpt>
      <trkpt lat="46.62349" lon="5.90973">
        <ele>898</ele>
        <time>2015-07-19T10:27:58Z</time>
      </trkpt>
      <trkpt lat="46.62349" lon="5.90972">
        <ele>898</ele>
        <time>2015-07-19T10:28:04Z</time>
      </trkpt>
      <trkpt lat="46.62351" lon="5.90972">
        <ele>898</ele>
        <time>2015-07-19T10:28:09Z</time>
      </trkpt>
      <trkpt lat="46.62353" lon="5.90972">
        <ele>898</ele>
        <time>2015-07-19T10:28:14Z</time>
      </trkpt>
      <trkpt lat="46.62354" lon="5.90971">
        <ele>898</ele>
        <time>2015-07-19T10:28:20Z</time>
      </trkpt>
      <trkpt lat="46.62353" lon="5.90971">
        <ele>898</ele>
        <time>2015-07-19T10:28:25Z</time>
      </trkpt>
      <trkpt lat="46.62354" lon="5.90971">
        <ele>898</ele>
        <time>2015-07-19T10:28:31Z</time>
      </trkpt>
      <trkpt lat="46.62355" lon="5.9097">
        <ele>898</ele>
        <time>2015-07-19T10:28:36Z</time>
      </trkpt>
      <trkpt lat="46.62357" lon="5.90969">
        <ele>897</ele>
        <time>2015-07-19T10:28:42Z</time>
      </trkpt>
      <trkpt lat="46.62358" lon="5.90968">
        <ele>897</ele>
        <time>2015-07-19T10:28:48Z</time>
      </trkpt>
      <trkpt lat="46.62359" lon="5.90968">
        <ele>897</ele>
        <time>2015-07-19T10:28:53Z</time>
      </trkpt>
      <trkpt lat="46.62358" lon="5.90969">
        <ele>897</ele>
        <time>2015-07-19T10:28:59Z</time>
      </trkpt>
      <trkpt lat="46.62357" lon="5.90969">
        <ele>897</ele>
        <time>2015-07-19T10:29:05Z</time>
      </trkpt>
      <trkpt lat="46.62355" lon="5.90969">
        <ele>898</ele>
        <time>2015-07-19T10:29:10Z</time>
      </trkpt>
      <trkpt lat="46.62354" lon="5.90971">
        <ele>898</ele>
        <time>2015-07-19T10:29:15Z</time>
      </trkpt>
      <trkpt lat="46.62353" lon="5.90971">
        <ele>898</ele>
        <time>2015-07-19T10:29:21Z</time>
      </trkpt>
      <trkpt lat="46.62351" lon="5.90972">
        <ele>898</ele>
        <time>2015-07-19T10:29:26Z</time>
      </trkpt>
      <trkpt lat="46.62351" lon="5.90974">
        <ele>898</ele>
        <time>2015-07-19T10:29:32Z</time>
      </trkpt>
      <trkpt lat="46.6235" lon="5.90975">
        <ele>897</ele>
        <time>2015-07-19T10:29:37Z</time>
      </trkpt>
      <trkpt lat="46.62348" lon="5.90978">
        <ele>897</ele>
        <time>2015-07-19T10:29:43Z</time>
      </trkpt>
      <trkpt lat="46.62347" lon="5.90979">
        <ele>898</ele>
        <time>2015-07-19T10:29:48Z</time>
      </trkpt>
      <trkpt lat="46.62347" lon="5.90981">
        <ele>898</ele>
        <time>2015-07-19T10:29:53Z</time>
      </trkpt>
      <trkpt lat="46.62346" lon="5.90981">
        <ele>898</ele>
        <time>2015-07-19T10:29:58Z</time>
      </trkpt>
      <trkpt lat="46.62348" lon="5.90982">
        <ele>899</ele>
        <time>2015-07-19T10:30:03Z</time>
      </trkpt>
      <trkpt lat="46.62348" lon="5.90982">
        <ele>899</ele>
        <time>2015-07-19T10:30:09Z</time>
      </trkpt>
      <trkpt lat="46.62349" lon="5.90982">
        <ele>899</ele>
        <time>2015-07-19T10:30:14Z</time>
      </trkpt>
      <trkpt lat="46.6235" lon="5.90982">
        <ele>899</ele>
        <time>2015-07-19T10:30:20Z</time>
      </trkpt>
      <trkpt lat="46.62351" lon="5.90981">
        <ele>898</ele>
        <time>2015-07-19T10:30:26Z</time>
      </trkpt>
      <trkpt lat="46.62355" lon="5.90983">
        <ele>899</ele>
        <time>2015-07-19T10:30:32Z</time>
      </trkpt>
      <trkpt lat="46.62357" lon="5.90986">
        <ele>899</ele>
        <time>2015-07-19T10:30:38Z</time>
      </trkpt>
      <trkpt lat="46.6236" lon="5.90988">
        <ele>899</ele>
        <time>2015-07-19T10:30:43Z</time>
      </trkpt>
      <trkpt lat="46.6236" lon="5.90988">
        <ele>899</ele>
        <time>2015-07-19T10:30:49Z</time>
      </trkpt>
      <trkpt lat="46.62361" lon="5.9099">
        <ele>900</ele>
        <time>2015-07-19T10:30:55Z</time>
      </trkpt>
      <trkpt lat="46.62365" lon="5.90992">
        <ele>899</ele>
        <time>2015-07-19T10:31:01Z</time>
      </trkpt>
      <trkpt lat="46.62369" lon="5.90991">
        <ele>899</ele>
        <time>2015-07-19T10:31:07Z</time>
      </trkpt>
      <trkpt lat="46.6237" lon="5.90993">
        <ele>899</ele>
        <time>2015-07-19T10:31:13Z</time>
      </trkpt>
      <trkpt lat="46.62371" lon="5.90995">
        <ele>899</ele>
        <time>2015-07-19T10:31:19Z</time>
      </trkpt>
      <trkpt lat="46.62373" lon="5.90995">
        <ele>899</ele>
        <time>2015-07-19T10:31:24Z</time>
      </trkpt>
      <trkpt lat="46.62373" lon="5.90996">
        <ele>899</ele>
        <time>2015-07-19T10:31:30Z</time>
      </trkpt>
      <trkpt lat="46.62374" lon="5.90996">
        <ele>899</ele>
        <time>2015-07-19T10:31:35Z</time>
      </trkpt>
      <trkpt lat="46.62374" lon="5.90996">
        <ele>899</ele>
        <time>2015-07-19T10:31:40Z</time>
      </trkpt>
      <trkpt lat="46.62374" lon="5.90995">
        <ele>899</ele>
        <time>2015-07-19T10:31:45Z</time>
      </trkpt>
      <trkpt lat="46.62373" lon="5.90995">
        <ele>899</ele>
        <time>2015-07-19T10:31:51Z</time>
      </trkpt>
      <trkpt lat="46.62371" lon="5.90995">
        <ele>899</ele>
        <time>2015-07-19T10:31:57Z</time>
      </trkpt>
      <trkpt lat="46.62371" lon="5.90995">
        <ele>899</ele>
        <time>2015-07-19T10:32:02Z</time>
      </trkpt>
      <trkpt lat="46.6237" lon="5.90995">
        <ele>899</ele>
        <time>2015-07-19T10:32:08Z</time>
      </trkpt>
      <trkpt lat="46.62373" lon="5.90997">
        <ele>899</ele>
        <time>2015-07-19T10:32:14Z</time>
      </trkpt>
      <trkpt lat="46.62373" lon="5.91002">
        <ele>898</ele>
        <time>2015-07-19T10:32:20Z</time>
      </trkpt>
      <trkpt lat="46.62373" lon="5.91007">
        <ele>898</ele>
        <time>2015-07-19T10:32:25Z</time>
      </trkpt>
      <trkpt lat="46.62377" lon="5.91011">
        <ele>898</ele>
        <time>2015-07-19T10:32:30Z</time>
      </trkpt>
      <trkpt lat="46.6238" lon="5.91016">
        <ele>897</ele>
        <time>2015-07-19T10:32:36Z</time>
      </trkpt>
      <trkpt lat="46.62381" lon="5.91022">
        <ele>897</ele>
        <time>2015-07-19T10:32:42Z</time>
      </trkpt>
      <trkpt lat="46.62382" lon="5.91025">
        <ele>897</ele>
        <time>2015-07-19T10:32:48Z</time>
      </trkpt>
      <trkpt lat="46.62383" lon="5.91029">
        <ele>897</ele>
        <time>2015-07-19T10:32:54Z</time>
      </trkpt>
      <trkpt lat="46.62386" lon="5.91032">
        <ele>897</ele>
        <time>2015-07-19T10:33:00Z</time>
      </trkpt>
      <trkpt lat="46.62393" lon="5.91036">
        <ele>897</ele>
        <time>2015-07-19T10:33:05Z</time>
      </trkpt>
      <trkpt lat="46.62397" lon="5.91039">
        <ele>897</ele>
        <time>2015-07-19T10:33:11Z</time>
      </trkpt>
      <trkpt lat="46.624" lon="5.91042">
        <ele>897</ele>
        <time>2015-07-19T10:33:16Z</time>
      </trkpt>
      <trkpt lat="46.62404" lon="5.91046">
        <ele>898</ele>
        <time>2015-07-19T10:33:22Z</time>
      </trkpt>
      <trkpt lat="46.62405" lon="5.91049">
        <ele>898</ele>
        <time>2015-07-19T10:33:27Z</time>
      </trkpt>
      <trkpt lat="46.62405" lon="5.91053">
        <ele>898</ele>
        <time>2015-07-19T10:33:33Z</time>
      </trkpt>
      <trkpt lat="46.6241" lon="5.91057">
        <ele>899</ele>
        <time>2015-07-19T10:33:38Z</time>
      </trkpt>
      <trkpt lat="46.62414" lon="5.91061">
        <ele>900</ele>
        <time>2015-07-19T10:33:44Z</time>
      </trkpt>
      <trkpt lat="46.62418" lon="5.91064">
        <ele>899</ele>
        <time>2015-07-19T10:33:49Z</time>
      </trkpt>
      <trkpt lat="46.62422" lon="5.91066">
        <ele>899</ele>
        <time>2015-07-19T10:33:54Z</time>
      </trkpt>
      <trkpt lat="46.62428" lon="5.9107">
        <ele>899</ele>
        <time>2015-07-19T10:34:00Z</time>
      </trkpt>
      <trkpt lat="46.62431" lon="5.91074">
        <ele>900</ele>
        <time>2015-07-19T10:34:05Z</time>
      </trkpt>
      <trkpt lat="46.62434" lon="5.91079">
        <ele>900</ele>
        <time>2015-07-19T10:34:11Z</time>
      </trkpt>
      <trkpt lat="46.62437" lon="5.91081">
        <ele>900</ele>
        <time>2015-07-19T10:34:16Z</time>
      </trkpt>
      <trkpt lat="46.62438" lon="5.91082">
        <ele>899</ele>
        <time>2015-07-19T10:34:22Z</time>
      </trkpt>
      <trkpt lat="46.62439" lon="5.91082">
        <ele>899</ele>
        <time>2015-07-19T10:34:27Z</time>
      </trkpt>
      <trkpt lat="46.62444" lon="5.91083">
        <ele>898</ele>
        <time>2015-07-19T10:34:32Z</time>
      </trkpt>
      <trkpt lat="46.62447" lon="5.91085">
        <ele>897</ele>
        <time>2015-07-19T10:34:38Z</time>
      </trkpt>
      <trkpt lat="46.62447" lon="5.91087">
        <ele>897</ele>
        <time>2015-07-19T10:34:43Z</time>
      </trkpt>
      <trkpt lat="46.62449" lon="5.91089">
        <ele>897</ele>
        <time>2015-07-19T10:34:49Z</time>
      </trkpt>
      <trkpt lat="46.62452" lon="5.9109">
        <ele>896</ele>
        <time>2015-07-19T10:34:54Z</time>
      </trkpt>
      <trkpt lat="46.62455" lon="5.91092">
        <ele>896</ele>
        <time>2015-07-19T10:34:59Z</time>
      </trkpt>
      <trkpt lat="46.62457" lon="5.91095">
        <ele>895</ele>
        <time>2015-07-19T10:35:05Z</time>
      </trkpt>
      <trkpt lat="46.62459" lon="5.911">
        <ele>894</ele>
        <time>2015-07-19T10:35:10Z</time>
      </trkpt>
      <trkpt lat="46.62464" lon="5.91105">
        <ele>894</ele>
        <time>2015-07-19T10:35:16Z</time>
      </trkpt>
      <trkpt lat="46.62468" lon="5.91111">
        <ele>894</ele>
        <time>2015-07-19T10:35:22Z</time>
      </trkpt>
      <trkpt lat="46.62469" lon="5.91115">
        <ele>893</ele>
        <time>2015-07-19T10:35:27Z</time>
      </trkpt>
      <trkpt lat="46.62472" lon="5.9112">
        <ele>892</ele>
        <time>2015-07-19T10:35:33Z</time>
      </trkpt>
      <trkpt lat="46.62475" lon="5.91124">
        <ele>892</ele>
        <time>2015-07-19T10:35:39Z</time>
      </trkpt>
      <trkpt lat="46.62476" lon="5.91127">
        <ele>892</ele>
        <time>2015-07-19T10:35:44Z</time>
      </trkpt>
      <trkpt lat="46.6248" lon="5.9113">
        <ele>892</ele>
        <time>2015-07-19T10:35:50Z</time>
      </trkpt>
      <trkpt lat="46.62482" lon="5.91132">
        <ele>891</ele>
        <time>2015-07-19T10:35:56Z</time>
      </trkpt>
      <trkpt lat="46.62483" lon="5.91135">
        <ele>891</ele>
        <time>2015-07-19T10:36:01Z</time>
      </trkpt>
      <trkpt lat="46.62485" lon="5.91139">
        <ele>890</ele>
        <time>2015-07-19T10:36:06Z</time>
      </trkpt>
      <trkpt lat="46.62486" lon="5.91144">
        <ele>889</ele>
        <time>2015-07-19T10:36:12Z</time>
      </trkpt>
      <trkpt lat="46.62488" lon="5.91148">
        <ele>889</ele>
        <time>2015-07-19T10:36:18Z</time>
      </trkpt>
      <trkpt lat="46.62488" lon="5.9115">
        <ele>889</ele>
        <time>2015-07-19T10:36:23Z</time>
      </trkpt>
      <trkpt lat="46.62492" lon="5.91152">
        <ele>889</ele>
        <time>2015-07-19T10:36:28Z</time>
      </trkpt>
      <trkpt lat="46.62499" lon="5.91157">
        <ele>890</ele>
        <time>2015-07-19T10:36:33Z</time>
      </trkpt>
      <trkpt lat="46.62503" lon="5.91164">
        <ele>890</ele>
        <time>2015-07-19T10:36:39Z</time>
      </trkpt>
      <trkpt lat="46.62506" lon="5.91169">
        <ele>890</ele>
        <time>2015-07-19T10:36:44Z</time>
      </trkpt>
      <trkpt lat="46.6251" lon="5.91175">
        <ele>890</ele>
        <time>2015-07-19T10:36:50Z</time>
      </trkpt>
      <trkpt lat="46.62514" lon="5.91179">
        <ele>890</ele>
        <time>2015-07-19T10:36:55Z</time>
      </trkpt>
      <trkpt lat="46.62518" lon="5.91183">
        <ele>891</ele>
        <time>2015-07-19T10:37:00Z</time>
      </trkpt>
      <trkpt lat="46.62521" lon="5.91187">
        <ele>891</ele>
        <time>2015-07-19T10:37:06Z</time>
      </trkpt>
      <trkpt lat="46.62525" lon="5.91188">
        <ele>890</ele>
        <time>2015-07-19T10:37:12Z</time>
      </trkpt>
      <trkpt lat="46.62528" lon="5.9119">
        <ele>890</ele>
        <time>2015-07-19T10:37:17Z</time>
      </trkpt>
      <trkpt lat="46.62527" lon="5.9119">
        <ele>891</ele>
        <time>2015-07-19T10:37:22Z</time>
      </trkpt>
      <trkpt lat="46.62526" lon="5.91189">
        <ele>891</ele>
        <time>2015-07-19T10:37:28Z</time>
      </trkpt>
      <trkpt lat="46.62528" lon="5.9119">
        <ele>891</ele>
        <time>2015-07-19T10:37:34Z</time>
      </trkpt>
      <trkpt lat="46.62529" lon="5.91194">
        <ele>890</ele>
        <time>2015-07-19T10:37:39Z</time>
      </trkpt>
      <trkpt lat="46.6253" lon="5.91197">
        <ele>890</ele>
        <time>2015-07-19T10:37:44Z</time>
      </trkpt>
      <trkpt lat="46.62528" lon="5.91196">
        <ele>890</ele>
        <time>2015-07-19T10:37:50Z</time>
      </trkpt>
      <trkpt lat="46.62528" lon="5.91197">
        <ele>890</ele>
        <time>2015-07-19T10:37:55Z</time>
      </trkpt>
      <trkpt lat="46.62529" lon="5.91201">
        <ele>889</ele>
        <time>2015-07-19T10:38:01Z</time>
      </trkpt>
      <trkpt lat="46.6253" lon="5.91203">
        <ele>888</ele>
        <time>2015-07-19T10:38:07Z</time>
      </trkpt>
      <trkpt lat="46.62532" lon="5.91206">
        <ele>888</ele>
        <time>2015-07-19T10:38:12Z</time>
      </trkpt>
      <trkpt lat="46.62533" lon="5.91208">
        <ele>887</ele>
        <time>2015-07-19T10:38:17Z</time>
      </trkpt>
      <trkpt lat="46.62536" lon="5.91208">
        <ele>887</ele>
        <time>2015-07-19T10:38:23Z</time>
      </trkpt>
      <trkpt lat="46.62539" lon="5.91209">
        <ele>888</ele>
        <time>2015-07-19T10:38:28Z</time>
      </trkpt>
      <trkpt lat="46.62542" lon="5.91209">
        <ele>887</ele>
        <time>2015-07-19T10:38:33Z</time>
      </trkpt>
      <trkpt lat="46.62543" lon="5.91213">
        <ele>886</ele>
        <time>2015-07-19T10:38:39Z</time>
      </trkpt>
      <trkpt lat="46.62545" lon="5.91218">
        <ele>885</ele>
        <time>2015-07-19T10:38:44Z</time>
      </trkpt>
      <trkpt lat="46.62547" lon="5.91222">
        <ele>884</ele>
        <time>2015-07-19T10:38:49Z</time>
      </trkpt>
      <trkpt lat="46.62547" lon="5.91227">
        <ele>883</ele>
        <time>2015-07-19T10:38:55Z</time>
      </trkpt>
      <trkpt lat="46.62546" lon="5.91231">
        <ele>882</ele>
        <time>2015-07-19T10:39:00Z</time>
      </trkpt>
      <trkpt lat="46.62545" lon="5.91237">
        <ele>881</ele>
        <time>2015-07-19T10:39:06Z</time>
      </trkpt>
      <trkpt lat="46.62547" lon="5.9124">
        <ele>880</ele>
        <time>2015-07-19T10:39:11Z</time>
      </trkpt>
      <trkpt lat="46.6255" lon="5.91244">
        <ele>880</ele>
        <time>2015-07-19T10:39:17Z</time>
      </trkpt>
      <trkpt lat="46.62553" lon="5.91249">
        <ele>879</ele>
        <time>2015-07-19T10:39:23Z</time>
      </trkpt>
      <trkpt lat="46.62557" lon="5.91253">
        <ele>878</ele>
        <time>2015-07-19T10:39:29Z</time>
      </trkpt>
      <trkpt lat="46.62562" lon="5.91258">
        <ele>877</ele>
        <time>2015-07-19T10:39:35Z</time>
      </trkpt>
      <trkpt lat="46.62567" lon="5.91261">
        <ele>877</ele>
        <time>2015-07-19T10:39:41Z</time>
      </trkpt>
      <trkpt lat="46.62569" lon="5.91262">
        <ele>877</ele>
        <time>2015-07-19T10:39:46Z</time>
      </trkpt>
      <trkpt lat="46.62574" lon="5.91266">
        <ele>877</ele>
        <time>2015-07-19T10:39:51Z</time>
      </trkpt>
      <trkpt lat="46.62582" lon="5.91269">
        <ele>878</ele>
        <time>2015-07-19T10:39:57Z</time>
      </trkpt>
      <trkpt lat="46.62588" lon="5.91272">
        <ele>878</ele>
        <time>2015-07-19T10:40:03Z</time>
      </trkpt>
      <trkpt lat="46.62597" lon="5.91277">
        <ele>878</ele>
        <time>2015-07-19T10:40:09Z</time>
      </trkpt>
      <trkpt lat="46.62598" lon="5.91283">
        <ele>878</ele>
        <time>2015-07-19T10:40:14Z</time>
      </trkpt>
      <trkpt lat="46.62601" lon="5.91285">
        <ele>877</ele>
        <time>2015-07-19T10:40:20Z</time>
      </trkpt>
      <trkpt lat="46.626" lon="5.91287">
        <ele>877</ele>
        <time>2015-07-19T10:40:26Z</time>
      </trkpt>
      <trkpt lat="46.62601" lon="5.91286">
        <ele>877</ele>
        <time>2015-07-19T10:40:32Z</time>
      </trkpt>
      <trkpt lat="46.62608" lon="5.91288">
        <ele>878</ele>
        <time>2015-07-19T10:40:38Z</time>
      </trkpt>
      <trkpt lat="46.62612" lon="5.91291">
        <ele>878</ele>
        <time>2015-07-19T10:40:44Z</time>
      </trkpt>
      <trkpt lat="46.62617" lon="5.91293">
        <ele>879</ele>
        <time>2015-07-19T10:40:49Z</time>
      </trkpt>
      <trkpt lat="46.62618" lon="5.91295">
        <ele>879</ele>
        <time>2015-07-19T10:40:55Z</time>
      </trkpt>
      <trkpt lat="46.62618" lon="5.91296">
        <ele>880</ele>
        <time>2015-07-19T10:41:00Z</time>
      </trkpt>
      <trkpt lat="46.62617" lon="5.91297">
        <ele>880</ele>
        <time>2015-07-19T10:41:06Z</time>
      </trkpt>
      <trkpt lat="46.62617" lon="5.913">
        <ele>881</ele>
        <time>2015-07-19T10:41:12Z</time>
      </trkpt>
      <trkpt lat="46.62616" lon="5.91303">
        <ele>882</ele>
        <time>2015-07-19T10:41:18Z</time>
      </trkpt>
      <trkpt lat="46.62616" lon="5.91305">
        <ele>883</ele>
        <time>2015-07-19T10:41:23Z</time>
      </trkpt>
      <trkpt lat="46.6262" lon="5.91306">
        <ele>884</ele>
        <time>2015-07-19T10:41:28Z</time>
      </trkpt>
      <trkpt lat="46.62623" lon="5.91306">
        <ele>884</ele>
        <time>2015-07-19T10:41:33Z</time>
      </trkpt>
      <trkpt lat="46.62624" lon="5.91307">
        <ele>884</ele>
        <time>2015-07-19T10:41:39Z</time>
      </trkpt>
      <trkpt lat="46.62624" lon="5.91307">
        <ele>884</ele>
        <time>2015-07-19T10:41:44Z</time>
      </trkpt>
      <trkpt lat="46.62626" lon="5.91307">
        <ele>884</ele>
        <time>2015-07-19T10:41:49Z</time>
      </trkpt>
      <trkpt lat="46.62627" lon="5.9131">
        <ele>884</ele>
        <time>2015-07-19T10:41:55Z</time>
      </trkpt>
      <trkpt lat="46.62626" lon="5.91312">
        <ele>884</ele>
        <time>2015-07-19T10:42:01Z</time>
      </trkpt>
      <trkpt lat="46.62625" lon="5.9131">
        <ele>883</ele>
        <time>2015-07-19T10:42:07Z</time>
      </trkpt>
      <trkpt lat="46.62625" lon="5.91308">
        <ele>883</ele>
        <time>2015-07-19T10:42:13Z</time>
      </trkpt>
      <trkpt lat="46.62625" lon="5.91305">
        <ele>883</ele>
        <time>2015-07-19T10:42:18Z</time>
      </trkpt>
      <trkpt lat="46.62628" lon="5.91303">
        <ele>883</ele>
        <time>2015-07-19T10:42:23Z</time>
      </trkpt>
      <trkpt lat="46.6263" lon="5.91301">
        <ele>883</ele>
        <time>2015-07-19T10:42:29Z</time>
      </trkpt>
      <trkpt lat="46.6263" lon="5.91301">
        <ele>884</ele>
        <time>2015-07-19T10:42:34Z</time>
      </trkpt>
      <trkpt lat="46.6263" lon="5.913">
        <ele>884</ele>
        <time>2015-07-19T10:42:40Z</time>
      </trkpt>
      <trkpt lat="46.62632" lon="5.91301">
        <ele>884</ele>
        <time>2015-07-19T10:42:46Z</time>
      </trkpt>
      <trkpt lat="46.62631" lon="5.91302">
        <ele>884</ele>
        <time>2015-07-19T10:42:51Z</time>
      </trkpt>
      <trkpt lat="46.62632" lon="5.91303">
        <ele>884</ele>
        <time>2015-07-19T10:42:56Z</time>
      </trkpt>
      <trkpt lat="46.62631" lon="5.91304">
        <ele>884</ele>
        <time>2015-07-19T10:43:02Z</time>
      </trkpt>
      <trkpt lat="46.6263" lon="5.91306">
        <ele>884</ele>
        <time>2015-07-19T10:43:08Z</time>
      </trkpt>
      <trkpt lat="46.62629" lon="5.91306">
        <ele>884</ele>
        <time>2015-07-19T10:43:14Z</time>
      </trkpt>
      <trkpt lat="46.62627" lon="5.91307">
        <ele>884</ele>
        <time>2015-07-19T10:43:20Z</time>
      </trkpt>
      <trkpt lat="46.62627" lon="5.91307">
        <ele>884</ele>
        <time>2015-07-19T10:43:26Z</time>
      </trkpt>
      <trkpt lat="46.62626" lon="5.91307">
        <ele>884</ele>
        <time>2015-07-19T10:43:32Z</time>
      </trkpt>
      <trkpt lat="46.62626" lon="5.91307">
        <ele>884</ele>
        <time>2015-07-19T10:43:37Z</time>
      </trkpt>
      <trkpt lat="46.62627" lon="5.91307">
        <ele>884</ele>
        <time>2015-07-19T10:43:42Z</time>
      </trkpt>
      <trkpt lat="46.62626" lon="5.91305">
        <ele>884</ele>
        <time>2015-07-19T10:43:48Z</time>
      </trkpt>
      <trkpt lat="46.62625" lon="5.91305">
        <ele>884</ele>
        <time>2015-07-19T10:43:54Z</time>
      </trkpt>
      <trkpt lat="46.62625" lon="5.91308">
        <ele>884</ele>
        <time>2015-07-19T10:43:59Z</time>
      </trkpt>
      <trkpt lat="46.62625" lon="5.91309">
        <ele>884</ele>
        <time>2015-07-19T10:44:04Z</time>
      </trkpt>
      <trkpt lat="46.62622" lon="5.91306">
        <ele>884</ele>
        <time>2015-07-19T10:44:10Z</time>
      </trkpt>
      <trkpt lat="46.62621" lon="5.91304">
        <ele>884</ele>
        <time>2015-07-19T10:44:15Z</time>
      </trkpt>
      <trkpt lat="46.62621" lon="5.91302">
        <ele>884</ele>
        <time>2015-07-19T10:44:20Z</time>
      </trkpt>
      <trkpt lat="46.6262" lon="5.913">
        <ele>884</ele>
        <time>2015-07-19T10:44:26Z</time>
      </trkpt>
      <trkpt lat="46.62618" lon="5.91298">
        <ele>884</ele>
        <time>2015-07-19T10:44:31Z</time>
      </trkpt>
      <trkpt lat="46.62619" lon="5.91296">
        <ele>884</ele>
        <time>2015-07-19T10:44:37Z</time>
      </trkpt>
      <trkpt lat="46.62621" lon="5.91296">
        <ele>884</ele>
        <time>2015-07-19T10:44:42Z</time>
      </trkpt>
      <trkpt lat="46.62622" lon="5.91295">
        <ele>884</ele>
        <time>2015-07-19T10:44:47Z</time>
      </trkpt>
      <trkpt lat="46.62623" lon="5.91298">
        <ele>884</ele>
        <time>2015-07-19T10:44:53Z</time>
      </trkpt>
      <trkpt lat="46.62622" lon="5.913">
        <ele>884</ele>
        <time>2015-07-19T10:44:58Z</time>
      </trkpt>
      <trkpt lat="46.62624" lon="5.913">
        <ele>884</ele>
        <time>2015-07-19T10:45:04Z</time>
      </trkpt>
      <trkpt lat="46.62627" lon="5.91301">
        <ele>884</ele>
        <time>2015-07-19T10:45:09Z</time>
      </trkpt>
      <trkpt lat="46.62627" lon="5.91302">
        <ele>884</ele>
        <time>2015-07-19T10:45:14Z</time>
      </trkpt>
      <trkpt lat="46.62624" lon="5.91302">
        <ele>884</ele>
        <time>2015-07-19T10:45:19Z</time>
      </trkpt>
      <trkpt lat="46.62625" lon="5.91303">
        <ele>884</ele>
        <time>2015-07-19T10:45:24Z</time>
      </trkpt>
      <trkpt lat="46.62623" lon="5.91304">
        <ele>884</ele>
        <time>2015-07-19T10:45:30Z</time>
      </trkpt>
      <trkpt lat="46.62621" lon="5.91304">
        <ele>884</ele>
        <time>2015-07-19T10:45:35Z</time>
      </trkpt>
      <trkpt lat="46.62619" lon="5.91304">
        <ele>884</ele>
        <time>2015-07-19T10:45:40Z</time>
      </trkpt>
      <trkpt lat="46.62618" lon="5.91305">
        <ele>884</ele>
        <time>2015-07-19T10:45:45Z</time>
      </trkpt>
      <trkpt lat="46.62617" lon="5.91305">
        <ele>884</ele>
        <time>2015-07-19T10:45:50Z</time>
      </trkpt>
      <trkpt lat="46.62617" lon="5.91308">
        <ele>884</ele>
        <time>2015-07-19T10:45:56Z</time>
      </trkpt>
      <trkpt lat="46.62618" lon="5.9131">
        <ele>884</ele>
        <time>2015-07-19T10:46:01Z</time>
      </trkpt>
      <trkpt lat="46.62618" lon="5.9131">
        <ele>884</ele>
        <time>2015-07-19T10:46:06Z</time>
      </trkpt>
      <trkpt lat="46.62616" lon="5.91311">
        <ele>884</ele>
        <time>2015-07-19T10:46:12Z</time>
      </trkpt>
      <trkpt lat="46.62619" lon="5.91311">
        <ele>884</ele>
        <time>2015-07-19T10:46:18Z</time>
      </trkpt>
      <trkpt lat="46.62619" lon="5.9131">
        <ele>884</ele>
        <time>2015-07-19T10:46:23Z</time>
      </trkpt>
      <trkpt lat="46.62619" lon="5.91309">
        <ele>884</ele>
        <time>2015-07-19T10:46:28Z</time>
      </trkpt>
      <trkpt lat="46.6262" lon="5.91307">
        <ele>885</ele>
        <time>2015-07-19T10:46:34Z</time>
      </trkpt>
      <trkpt lat="46.6262" lon="5.91308">
        <ele>885</ele>
        <time>2015-07-19T10:46:39Z</time>
      </trkpt>
      <trkpt lat="46.62618" lon="5.91308">
        <ele>885</ele>
        <time>2015-07-19T10:46:45Z</time>
      </trkpt>
      <trkpt lat="46.62618" lon="5.91308">
        <ele>885</ele>
        <time>2015-07-19T10:46:50Z</time>
      </trkpt>
      <trkpt lat="46.62616" lon="5.91307">
        <ele>885</ele>
        <time>2015-07-19T10:46:55Z</time>
      </trkpt>
      <trkpt lat="46.62617" lon="5.91306">
        <ele>885</ele>
        <time>2015-07-19T10:47:01Z</time>
      </trkpt>
      <trkpt lat="46.62617" lon="5.91305">
        <ele>885</ele>
        <time>2015-07-19T10:47:07Z</time>
      </trkpt>
      <trkpt lat="46.62617" lon="5.91305">
        <ele>885</ele>
        <time>2015-07-19T10:47:15Z</time>
      </trkpt>
      <trkpt lat="46.62616" lon="5.91304">
        <ele>885</ele>
        <time>2015-07-19T10:47:21Z</time>
      </trkpt>
      <trkpt lat="46.62616" lon="5.91303">
        <ele>885</ele>
        <time>2015-07-19T10:47:26Z</time>
      </trkpt>
      <trkpt lat="46.62614" lon="5.91302">
        <ele>884</ele>
        <time>2015-07-19T10:47:32Z</time>
      </trkpt>
      <trkpt lat="46.62614" lon="5.91303">
        <ele>884</ele>
        <time>2015-07-19T10:47:38Z</time>
      </trkpt>
      <trkpt lat="46.62621" lon="5.91304">
        <ele>885</ele>
        <time>2015-07-19T10:47:44Z</time>
      </trkpt>
      <trkpt lat="46.62616" lon="5.91302">
        <ele>884</ele>
        <time>2015-07-19T10:47:50Z</time>
      </trkpt>
      <trkpt lat="46.62614" lon="5.91301">
        <ele>884</ele>
        <time>2015-07-19T10:47:56Z</time>
      </trkpt>
      <trkpt lat="46.62612" lon="5.91302">
        <ele>884</ele>
        <time>2015-07-19T10:48:02Z</time>
      </trkpt>
      <trkpt lat="46.62607" lon="5.91302">
        <ele>885</ele>
        <time>2015-07-19T10:48:08Z</time>
      </trkpt>
      <trkpt lat="46.62606" lon="5.91303">
        <ele>884</ele>
        <time>2015-07-19T10:48:14Z</time>
      </trkpt>
      <trkpt lat="46.62602" lon="5.91301">
        <ele>884</ele>
        <time>2015-07-19T10:48:20Z</time>
      </trkpt>
      <trkpt lat="46.62602" lon="5.91303">
        <ele>885</ele>
        <time>2015-07-19T10:48:28Z</time>
      </trkpt>
      <trkpt lat="46.62603" lon="5.91303">
        <ele>885</ele>
        <time>2015-07-19T10:48:34Z</time>
      </trkpt>
      <trkpt lat="46.62608" lon="5.91305">
        <ele>885</ele>
        <time>2015-07-19T10:48:39Z</time>
      </trkpt>
      <trkpt lat="46.62614" lon="5.91306">
        <ele>885</ele>
        <time>2015-07-19T10:48:44Z</time>
      </trkpt>
      <trkpt lat="46.62614" lon="5.91305">
        <ele>884</ele>
        <time>2015-07-19T10:48:50Z</time>
      </trkpt>
      <trkpt lat="46.62612" lon="5.91306">
        <ele>885</ele>
        <time>2015-07-19T10:48:55Z</time>
      </trkpt>
      <trkpt lat="46.62611" lon="5.91306">
        <ele>885</ele>
        <time>2015-07-19T10:49:01Z</time>
      </trkpt>
      <trkpt lat="46.62611" lon="5.91308">
        <ele>885</ele>
        <time>2015-07-19T10:49:06Z</time>
      </trkpt>
      <trkpt lat="46.62614" lon="5.9131">
        <ele>885</ele>
        <time>2015-07-19T10:49:12Z</time>
      </trkpt>
      <trkpt lat="46.62615" lon="5.9131">
        <ele>885</ele>
        <time>2015-07-19T10:49:17Z</time>
      </trkpt>
      <trkpt lat="46.62616" lon="5.91311">
        <ele>885</ele>
        <time>2015-07-19T10:49:23Z</time>
      </trkpt>
      <trkpt lat="46.62619" lon="5.91313">
        <ele>884</ele>
        <time>2015-07-19T10:49:29Z</time>
      </trkpt>
      <trkpt lat="46.62623" lon="5.91316">
        <ele>884</ele>
        <time>2015-07-19T10:49:34Z</time>
      </trkpt>
      <trkpt lat="46.62631" lon="5.9132">
        <ele>884</ele>
        <time>2015-07-19T10:49:40Z</time>
      </trkpt>
      <trkpt lat="46.62634" lon="5.91321">
        <ele>885</ele>
        <time>2015-07-19T10:49:45Z</time>
      </trkpt>
      <trkpt lat="46.62635" lon="5.91323">
        <ele>885</ele>
        <time>2015-07-19T10:49:51Z</time>
      </trkpt>
      <trkpt lat="46.62635" lon="5.91323">
        <ele>884</ele>
        <time>2015-07-19T10:49:56Z</time>
      </trkpt>
      <trkpt lat="46.62635" lon="5.91324">
        <ele>884</ele>
        <time>2015-07-19T10:50:01Z</time>
      </trkpt>
      <trkpt lat="46.62631" lon="5.91322">
        <ele>884</ele>
        <time>2015-07-19T10:50:07Z</time>
      </trkpt>
      <trkpt lat="46.6263" lon="5.91321">
        <ele>884</ele>
        <time>2015-07-19T10:50:12Z</time>
      </trkpt>
      <trkpt lat="46.62631" lon="5.91322">
        <ele>885</ele>
        <time>2015-07-19T10:50:17Z</time>
      </trkpt>
      <trkpt lat="46.62628" lon="5.91321">
        <ele>884</ele>
        <time>2015-07-19T10:50:23Z</time>
      </trkpt>
      <trkpt lat="46.62625" lon="5.9132">
        <ele>884</ele>
        <time>2015-07-19T10:50:28Z</time>
      </trkpt>
      <trkpt lat="46.62618" lon="5.9132">
        <ele>884</ele>
        <time>2015-07-19T10:50:34Z</time>
      </trkpt>
      <trkpt lat="46.62615" lon="5.91319">
        <ele>884</ele>
        <time>2015-07-19T10:50:40Z</time>
      </trkpt>
      <trkpt lat="46.62614" lon="5.91319">
        <ele>884</ele>
        <time>2015-07-19T10:50:46Z</time>
      </trkpt>
      <trkpt lat="46.62613" lon="5.91319">
        <ele>884</ele>
        <time>2015-07-19T10:50:53Z</time>
      </trkpt>
      <trkpt lat="46.62617" lon="5.91318">
        <ele>884</ele>
        <time>2015-07-19T10:50:58Z</time>
      </trkpt>
      <trkpt lat="46.62623" lon="5.91316">
        <ele>884</ele>
        <time>2015-07-19T10:51:03Z</time>
      </trkpt>
      <trkpt lat="46.62626" lon="5.91315">
        <ele>886</ele>
        <time>2015-07-19T10:51:09Z</time>
      </trkpt>
      <trkpt lat="46.62624" lon="5.91314">
        <ele>886</ele>
        <time>2015-07-19T10:51:14Z</time>
      </trkpt>
      <trkpt lat="46.62624" lon="5.91314">
        <ele>885</ele>
        <time>2015-07-19T10:51:20Z</time>
      </trkpt>
      <trkpt lat="46.62624" lon="5.91314">
        <ele>886</ele>
        <time>2015-07-19T10:51:25Z</time>
      </trkpt>
      <trkpt lat="46.62626" lon="5.91315">
        <ele>886</ele>
        <time>2015-07-19T10:51:30Z</time>
      </trkpt>
      <trkpt lat="46.62627" lon="5.91315">
        <ele>886</ele>
        <time>2015-07-19T10:51:36Z</time>
      </trkpt>
      <trkpt lat="46.62629" lon="5.91317">
        <ele>886</ele>
        <time>2015-07-19T10:51:41Z</time>
      </trkpt>
      <trkpt lat="46.62627" lon="5.91317">
        <ele>886</ele>
        <time>2015-07-19T10:51:47Z</time>
      </trkpt>
      <trkpt lat="46.62622" lon="5.91318">
        <ele>888</ele>
        <time>2015-07-19T10:51:52Z</time>
      </trkpt>
      <trkpt lat="46.6262" lon="5.91318">
        <ele>889</ele>
        <time>2015-07-19T10:51:57Z</time>
      </trkpt>
      <trkpt lat="46.6262" lon="5.9132">
        <ele>890</ele>
        <time>2015-07-19T10:52:02Z</time>
      </trkpt>
      <trkpt lat="46.62621" lon="5.91323">
        <ele>891</ele>
        <time>2015-07-19T10:52:07Z</time>
      </trkpt>
      <trkpt lat="46.62619" lon="5.91327">
        <ele>891</ele>
        <time>2015-07-19T10:52:13Z</time>
      </trkpt>
      <trkpt lat="46.62616" lon="5.91329">
        <ele>892</ele>
        <time>2015-07-19T10:52:18Z</time>
      </trkpt>
      <trkpt lat="46.62614" lon="5.91333">
        <ele>893</ele>
        <time>2015-07-19T10:52:23Z</time>
      </trkpt>
      <trkpt lat="46.62614" lon="5.91337">
        <ele>893</ele>
        <time>2015-07-19T10:52:29Z</time>
      </trkpt>
      <trkpt lat="46.62616" lon="5.9134">
        <ele>894</ele>
        <time>2015-07-19T10:52:35Z</time>
      </trkpt>
      <trkpt lat="46.62617" lon="5.91341">
        <ele>894</ele>
        <time>2015-07-19T10:52:40Z</time>
      </trkpt>
      <trkpt lat="46.62616" lon="5.91343">
        <ele>894</ele>
        <time>2015-07-19T10:52:46Z</time>
      </trkpt>
      <trkpt lat="46.62615" lon="5.91343">
        <ele>894</ele>
        <time>2015-07-19T10:52:51Z</time>
      </trkpt>
      <trkpt lat="46.62615" lon="5.91344">
        <ele>894</ele>
        <time>2015-07-19T10:52:56Z</time>
      </trkpt>
      <trkpt lat="46.62616" lon="5.91345">
        <ele>894</ele>
        <time>2015-07-19T10:53:02Z</time>
      </trkpt>
      <trkpt lat="46.62617" lon="5.91346">
        <ele>894</ele>
        <time>2015-07-19T10:53:08Z</time>
      </trkpt>
      <trkpt lat="46.62617" lon="5.91347">
        <ele>894</ele>
        <time>2015-07-19T10:53:13Z</time>
      </trkpt>
      <trkpt lat="46.62616" lon="5.91349">
        <ele>895</ele>
        <time>2015-07-19T10:53:19Z</time>
      </trkpt>
      <trkpt lat="46.62621" lon="5.91351">
        <ele>895</ele>
        <time>2015-07-19T10:53:25Z</time>
      </trkpt>
      <trkpt lat="46.62617" lon="5.9135">
        <ele>894</ele>
        <time>2015-07-19T10:53:31Z</time>
      </trkpt>
      <trkpt lat="46.62615" lon="5.91348">
        <ele>894</ele>
        <time>2015-07-19T10:53:37Z</time>
      </trkpt>
      <trkpt lat="46.62614" lon="5.91347">
        <ele>894</ele>
        <time>2015-07-19T10:53:43Z</time>
      </trkpt>
      <trkpt lat="46.62612" lon="5.91347">
        <ele>894</ele>
        <time>2015-07-19T10:53:49Z</time>
      </trkpt>
      <trkpt lat="46.6261" lon="5.9135">
        <ele>894</ele>
        <time>2015-07-19T10:53:55Z</time>
      </trkpt>
      <trkpt lat="46.62608" lon="5.91352">
        <ele>894</ele>
        <time>2015-07-19T10:54:00Z</time>
      </trkpt>
      <trkpt lat="46.62608" lon="5.91357">
        <ele>894</ele>
        <time>2015-07-19T10:54:05Z</time>
      </trkpt>
      <trkpt lat="46.62611" lon="5.91362">
        <ele>894</ele>
        <time>2015-07-19T10:54:11Z</time>
      </trkpt>
      <trkpt lat="46.62612" lon="5.91366">
        <ele>893</ele>
        <time>2015-07-19T10:54:16Z</time>
      </trkpt>
      <trkpt lat="46.62612" lon="5.9137">
        <ele>892</ele>
        <time>2015-07-19T10:54:21Z</time>
      </trkpt>
      <trkpt lat="46.62616" lon="5.9138">
        <ele>891</ele>
        <time>2015-07-19T10:54:27Z</time>
      </trkpt>
      <trkpt lat="46.62616" lon="5.91387">
        <ele>892</ele>
        <time>2015-07-19T10:54:32Z</time>
      </trkpt>
      <trkpt lat="46.62615" lon="5.91395">
        <ele>892</ele>
        <time>2015-07-19T10:54:37Z</time>
      </trkpt>
      <trkpt lat="46.62612" lon="5.91401">
        <ele>893</ele>
        <time>2015-07-19T10:54:43Z</time>
      </trkpt>
      <trkpt lat="46.62609" lon="5.91407">
        <ele>893</ele>
        <time>2015-07-19T10:54:48Z</time>
      </trkpt>
      <trkpt lat="46.62605" lon="5.91413">
        <ele>895</ele>
        <time>2015-07-19T10:54:54Z</time>
      </trkpt>
      <trkpt lat="46.62602" lon="5.91419">
        <ele>895</ele>
        <time>2015-07-19T10:54:59Z</time>
      </trkpt>
      <trkpt lat="46.62598" lon="5.91426">
        <ele>895</ele>
        <time>2015-07-19T10:55:05Z</time>
      </trkpt>
      <trkpt lat="46.62594" lon="5.91432">
        <ele>896</ele>
        <time>2015-07-19T10:55:10Z</time>
      </trkpt>
      <trkpt lat="46.62591" lon="5.91438">
        <ele>896</ele>
        <time>2015-07-19T10:55:15Z</time>
      </trkpt>
      <trkpt lat="46.62588" lon="5.91443">
        <ele>897</ele>
        <time>2015-07-19T10:55:21Z</time>
      </trkpt>
      <trkpt lat="46.62583" lon="5.91447">
        <ele>897</ele>
        <time>2015-07-19T10:55:27Z</time>
      </trkpt>
      <trkpt lat="46.6258" lon="5.91452">
        <ele>897</ele>
        <time>2015-07-19T10:55:32Z</time>
      </trkpt>
      <trkpt lat="46.62574" lon="5.91458">
        <ele>898</ele>
        <time>2015-07-19T10:55:38Z</time>
      </trkpt>
      <trkpt lat="46.6257" lon="5.91465">
        <ele>899</ele>
        <time>2015-07-19T10:55:44Z</time>
      </trkpt>
      <trkpt lat="46.62566" lon="5.9147">
        <ele>899</ele>
        <time>2015-07-19T10:55:49Z</time>
      </trkpt>
      <trkpt lat="46.62561" lon="5.91477">
        <ele>900</ele>
        <time>2015-07-19T10:55:55Z</time>
      </trkpt>
      <trkpt lat="46.62556" lon="5.91483">
        <ele>901</ele>
        <time>2015-07-19T10:56:01Z</time>
      </trkpt>
      <trkpt lat="46.62551" lon="5.91485">
        <ele>901</ele>
        <time>2015-07-19T10:56:06Z</time>
      </trkpt>
      <trkpt lat="46.62546" lon="5.91487">
        <ele>901</ele>
        <time>2015-07-19T10:56:12Z</time>
      </trkpt>
      <trkpt lat="46.62543" lon="5.91489">
        <ele>902</ele>
        <time>2015-07-19T10:56:18Z</time>
      </trkpt>
      <trkpt lat="46.62537" lon="5.91488">
        <ele>901</ele>
        <time>2015-07-19T10:56:24Z</time>
      </trkpt>
      <trkpt lat="46.62536" lon="5.91483">
        <ele>901</ele>
        <time>2015-07-19T10:56:30Z</time>
      </trkpt>
      <trkpt lat="46.62534" lon="5.91478">
        <ele>901</ele>
        <time>2015-07-19T10:56:36Z</time>
      </trkpt>
      <trkpt lat="46.62532" lon="5.91468">
        <ele>901</ele>
        <time>2015-07-19T10:56:42Z</time>
      </trkpt>
      <trkpt lat="46.62527" lon="5.91461">
        <ele>902</ele>
        <time>2015-07-19T10:56:47Z</time>
      </trkpt>
      <trkpt lat="46.62518" lon="5.91453">
        <ele>902</ele>
        <time>2015-07-19T10:56:52Z</time>
      </trkpt>
      <trkpt lat="46.62513" lon="5.91446">
        <ele>902</ele>
        <time>2015-07-19T10:56:57Z</time>
      </trkpt>
      <trkpt lat="46.6251" lon="5.9144">
        <ele>903</ele>
        <time>2015-07-19T10:57:03Z</time>
      </trkpt>
      <trkpt lat="46.62511" lon="5.91434">
        <ele>903</ele>
        <time>2015-07-19T10:57:08Z</time>
      </trkpt>
      <trkpt lat="46.62511" lon="5.9143">
        <ele>902</ele>
        <time>2015-07-19T10:57:14Z</time>
      </trkpt>
      <trkpt lat="46.62508" lon="5.91423">
        <ele>902</ele>
        <time>2015-07-19T10:57:20Z</time>
      </trkpt>
      <trkpt lat="46.62505" lon="5.91416">
        <ele>902</ele>
        <time>2015-07-19T10:57:26Z</time>
      </trkpt>
      <trkpt lat="46.62499" lon="5.91409">
        <ele>902</ele>
        <time>2015-07-19T10:57:32Z</time>
      </trkpt>
      <trkpt lat="46.62494" lon="5.91403">
        <ele>903</ele>
        <time>2015-07-19T10:57:38Z</time>
      </trkpt>
      <trkpt lat="46.62492" lon="5.91398">
        <ele>902</ele>
        <time>2015-07-19T10:57:43Z</time>
      </trkpt>
      <trkpt lat="46.6249" lon="5.91393">
        <ele>902</ele>
        <time>2015-07-19T10:57:48Z</time>
      </trkpt>
      <trkpt lat="46.62488" lon="5.91388">
        <ele>902</ele>
        <time>2015-07-19T10:57:54Z</time>
      </trkpt>
      <trkpt lat="46.62484" lon="5.91385">
        <ele>902</ele>
        <time>2015-07-19T10:58:00Z</time>
      </trkpt>
      <trkpt lat="46.62481" lon="5.91383">
        <ele>902</ele>
        <time>2015-07-19T10:58:06Z</time>
      </trkpt>
      <trkpt lat="46.62477" lon="5.9138">
        <ele>901</ele>
        <time>2015-07-19T10:58:11Z</time>
      </trkpt>
      <trkpt lat="46.62471" lon="5.91377">
        <ele>901</ele>
        <time>2015-07-19T10:58:16Z</time>
      </trkpt>
      <trkpt lat="46.6247" lon="5.91376">
        <ele>901</ele>
        <time>2015-07-19T10:58:22Z</time>
      </trkpt>
      <trkpt lat="46.62465" lon="5.91374">
        <ele>901</ele>
        <time>2015-07-19T10:58:27Z</time>
      </trkpt>
      <trkpt lat="46.62458" lon="5.91372">
        <ele>900</ele>
        <time>2015-07-19T10:58:32Z</time>
      </trkpt>
      <trkpt lat="46.62453" lon="5.91372">
        <ele>900</ele>
        <time>2015-07-19T10:58:38Z</time>
      </trkpt>
      <trkpt lat="46.62448" lon="5.9137">
        <ele>899</ele>
        <time>2015-07-19T10:58:45Z</time>
      </trkpt>
      <trkpt lat="46.62444" lon="5.9137">
        <ele>900</ele>
        <time>2015-07-19T10:58:51Z</time>
      </trkpt>
      <trkpt lat="46.62439" lon="5.91371">
        <ele>899</ele>
        <time>2015-07-19T10:58:56Z</time>
      </trkpt>
      <trkpt lat="46.62435" lon="5.91372">
        <ele>899</ele>
        <time>2015-07-19T10:59:02Z</time>
      </trkpt>
      <trkpt lat="46.62426" lon="5.91371">
        <ele>899</ele>
        <time>2015-07-19T10:59:07Z</time>
      </trkpt>
      <trkpt lat="46.62417" lon="5.91369">
        <ele>900</ele>
        <time>2015-07-19T10:59:13Z</time>
      </trkpt>
      <trkpt lat="46.62414" lon="5.91363">
        <ele>900</ele>
        <time>2015-07-19T10:59:18Z</time>
      </trkpt>
      <trkpt lat="46.62411" lon="5.91354">
        <ele>900</ele>
        <time>2015-07-19T10:59:24Z</time>
      </trkpt>
      <trkpt lat="46.62407" lon="5.91353">
        <ele>900</ele>
        <time>2015-07-19T10:59:29Z</time>
      </trkpt>
      <trkpt lat="46.62402" lon="5.91349">
        <ele>899</ele>
        <time>2015-07-19T10:59:34Z</time>
      </trkpt>
      <trkpt lat="46.62399" lon="5.91345">
        <ele>899</ele>
        <time>2015-07-19T10:59:39Z</time>
      </trkpt>
      <trkpt lat="46.62394" lon="5.91342">
        <ele>900</ele>
        <time>2015-07-19T10:59:45Z</time>
      </trkpt>
      <trkpt lat="46.62392" lon="5.91338">
        <ele>900</ele>
        <time>2015-07-19T10:59:51Z</time>
      </trkpt>
      <trkpt lat="46.62391" lon="5.91337">
        <ele>899</ele>
        <time>2015-07-19T10:59:56Z</time>
      </trkpt>
      <trkpt lat="46.62395" lon="5.91342">
        <ele>900</ele>
        <time>2015-07-19T11:00:02Z</time>
      </trkpt>
      <trkpt lat="46.62395" lon="5.91349">
        <ele>899</ele>
        <time>2015-07-19T11:00:08Z</time>
      </trkpt>
      <trkpt lat="46.62394" lon="5.91356">
        <ele>899</ele>
        <time>2015-07-19T11:00:14Z</time>
      </trkpt>
      <trkpt lat="46.62394" lon="5.9136">
        <ele>900</ele>
        <time>2015-07-19T11:00:19Z</time>
      </trkpt>
      <trkpt lat="46.62395" lon="5.91364">
        <ele>900</ele>
        <time>2015-07-19T11:00:24Z</time>
      </trkpt>
      <trkpt lat="46.62399" lon="5.91371">
        <ele>900</ele>
        <time>2015-07-19T11:00:29Z</time>
      </trkpt>
      <trkpt lat="46.62406" lon="5.9138">
        <ele>900</ele>
        <time>2015-07-19T11:00:35Z</time>
      </trkpt>
      <trkpt lat="46.62403" lon="5.91384">
        <ele>901</ele>
        <time>2015-07-19T11:00:40Z</time>
      </trkpt>
      <trkpt lat="46.62397" lon="5.91384">
        <ele>901</ele>
        <time>2015-07-19T11:00:45Z</time>
      </trkpt>
      <trkpt lat="46.62383" lon="5.91385">
        <ele>902</ele>
        <time>2015-07-19T11:00:50Z</time>
      </trkpt>
      <trkpt lat="46.62372" lon="5.91388">
        <ele>903</ele>
        <time>2015-07-19T11:00:56Z</time>
      </trkpt>
      <trkpt lat="46.62368" lon="5.91392">
        <ele>904</ele>
        <time>2015-07-19T11:01:01Z</time>
      </trkpt>
      <trkpt lat="46.62368" lon="5.91397">
        <ele>904</ele>
        <time>2015-07-19T11:01:07Z</time>
      </trkpt>
      <trkpt lat="46.62368" lon="5.91401">
        <ele>905</ele>
        <time>2015-07-19T11:01:12Z</time>
      </trkpt>
      <trkpt lat="46.62364" lon="5.91406">
        <ele>906</ele>
        <time>2015-07-19T11:01:17Z</time>
      </trkpt>
      <trkpt lat="46.62358" lon="5.91412">
        <ele>907</ele>
        <time>2015-07-19T11:01:23Z</time>
      </trkpt>
      <trkpt lat="46.62353" lon="5.91419">
        <ele>907</ele>
        <time>2015-07-19T11:01:29Z</time>
      </trkpt>
      <trkpt lat="46.62348" lon="5.91424">
        <ele>907</ele>
        <time>2015-07-19T11:01:35Z</time>
      </trkpt>
      <trkpt lat="46.62343" lon="5.91428">
        <ele>907</ele>
        <time>2015-07-19T11:01:40Z</time>
      </trkpt>
      <trkpt lat="46.62344" lon="5.91434">
        <ele>908</ele>
        <time>2015-07-19T11:01:46Z</time>
      </trkpt>
      <trkpt lat="46.62344" lon="5.91437">
        <ele>908</ele>
        <time>2015-07-19T11:01:51Z</time>
      </trkpt>
      <trkpt lat="46.62338" lon="5.91436">
        <ele>908</ele>
        <time>2015-07-19T11:01:56Z</time>
      </trkpt>
      <trkpt lat="46.62333" lon="5.91438">
        <ele>908</ele>
        <time>2015-07-19T11:02:02Z</time>
      </trkpt>
      <trkpt lat="46.62331" lon="5.91436">
        <ele>908</ele>
        <time>2015-07-19T11:02:07Z</time>
      </trkpt>
      <trkpt lat="46.62325" lon="5.91439">
        <ele>909</ele>
        <time>2015-07-19T11:02:13Z</time>
      </trkpt>
      <trkpt lat="46.62325" lon="5.91441">
        <ele>909</ele>
        <time>2015-07-19T11:02:18Z</time>
      </trkpt>
      <trkpt lat="46.62321" lon="5.91441">
        <ele>908</ele>
        <time>2015-07-19T11:02:24Z</time>
      </trkpt>
      <trkpt lat="46.62319" lon="5.91441">
        <ele>908</ele>
        <time>2015-07-19T11:02:30Z</time>
      </trkpt>
      <trkpt lat="46.62317" lon="5.9144">
        <ele>909</ele>
        <time>2015-07-19T11:02:35Z</time>
      </trkpt>
      <trkpt lat="46.62318" lon="5.9144">
        <ele>908</ele>
        <time>2015-07-19T11:02:41Z</time>
      </trkpt>
      <trkpt lat="46.62315" lon="5.9144">
        <ele>909</ele>
        <time>2015-07-19T11:02:46Z</time>
      </trkpt>
      <trkpt lat="46.62311" lon="5.91439">
        <ele>909</ele>
        <time>2015-07-19T11:02:52Z</time>
      </trkpt>
      <trkpt lat="46.62309" lon="5.91437">
        <ele>909</ele>
        <time>2015-07-19T11:02:57Z</time>
      </trkpt>
      <trkpt lat="46.62306" lon="5.91433">
        <ele>909</ele>
        <time>2015-07-19T11:03:03Z</time>
      </trkpt>
      <trkpt lat="46.62304" lon="5.91432">
        <ele>909</ele>
        <time>2015-07-19T11:03:08Z</time>
      </trkpt>
      <trkpt lat="46.62299" lon="5.91429">
        <ele>909</ele>
        <time>2015-07-19T11:03:14Z</time>
      </trkpt>
      <trkpt lat="46.62295" lon="5.91427">
        <ele>909</ele>
        <time>2015-07-19T11:03:19Z</time>
      </trkpt>
      <trkpt lat="46.62291" lon="5.91425">
        <ele>910</ele>
        <time>2015-07-19T11:03:24Z</time>
      </trkpt>
      <trkpt lat="46.62286" lon="5.91422">
        <ele>911</ele>
        <time>2015-07-19T11:03:29Z</time>
      </trkpt>
      <trkpt lat="46.62278" lon="5.91421">
        <ele>911</ele>
        <time>2015-07-19T11:03:35Z</time>
      </trkpt>
      <trkpt lat="46.62274" lon="5.91422">
        <ele>912</ele>
        <time>2015-07-19T11:03:41Z</time>
      </trkpt>
      <trkpt lat="46.6227" lon="5.91425">
        <ele>911</ele>
        <time>2015-07-19T11:03:47Z</time>
      </trkpt>
      <trkpt lat="46.62265" lon="5.91428">
        <ele>912</ele>
        <time>2015-07-19T11:03:52Z</time>
      </trkpt>
      <trkpt lat="46.62262" lon="5.91433">
        <ele>913</ele>
        <time>2015-07-19T11:03:58Z</time>
      </trkpt>
      <trkpt lat="46.62258" lon="5.91435">
        <ele>913</ele>
        <time>2015-07-19T11:04:04Z</time>
      </trkpt>
      <trkpt lat="46.62254" lon="5.91438">
        <ele>913</ele>
        <time>2015-07-19T11:04:09Z</time>
      </trkpt>
      <trkpt lat="46.62251" lon="5.91442">
        <ele>913</ele>
        <time>2015-07-19T11:04:15Z</time>
      </trkpt>
      <trkpt lat="46.62246" lon="5.91446">
        <ele>913</ele>
        <time>2015-07-19T11:04:20Z</time>
      </trkpt>
      <trkpt lat="46.62244" lon="5.91451">
        <ele>912</ele>
        <time>2015-07-19T11:04:26Z</time>
      </trkpt>
      <trkpt lat="46.62238" lon="5.91455">
        <ele>911</ele>
        <time>2015-07-19T11:04:32Z</time>
      </trkpt>
      <trkpt lat="46.62231" lon="5.91461">
        <ele>911</ele>
        <time>2015-07-19T11:04:38Z</time>
      </trkpt>
      <trkpt lat="46.62225" lon="5.91466">
        <ele>910</ele>
        <time>2015-07-19T11:04:44Z</time>
      </trkpt>
      <trkpt lat="46.6222" lon="5.91472">
        <ele>909</ele>
        <time>2015-07-19T11:04:49Z</time>
      </trkpt>
      <trkpt lat="46.62221" lon="5.91478">
        <ele>908</ele>
        <time>2015-07-19T11:04:54Z</time>
      </trkpt>
      <trkpt lat="46.62216" lon="5.91481">
        <ele>908</ele>
        <time>2015-07-19T11:04:59Z</time>
      </trkpt>
      <trkpt lat="46.62213" lon="5.91487">
        <ele>907</ele>
        <time>2015-07-19T11:05:05Z</time>
      </trkpt>
      <trkpt lat="46.62215" lon="5.91495">
        <ele>905</ele>
        <time>2015-07-19T11:05:11Z</time>
      </trkpt>
      <trkpt lat="46.62217" lon="5.91501">
        <ele>905</ele>
        <time>2015-07-19T11:05:16Z</time>
      </trkpt>
      <trkpt lat="46.62216" lon="5.91503">
        <ele>904</ele>
        <time>2015-07-19T11:05:22Z</time>
      </trkpt>
      <trkpt lat="46.62219" lon="5.91509">
        <ele>903</ele>
        <time>2015-07-19T11:05:28Z</time>
      </trkpt>
      <trkpt lat="46.62217" lon="5.91512">
        <ele>902</ele>
        <time>2015-07-19T11:05:33Z</time>
      </trkpt>
      <trkpt lat="46.62213" lon="5.91519">
        <ele>900</ele>
        <time>2015-07-19T11:05:39Z</time>
      </trkpt>
      <trkpt lat="46.62213" lon="5.91525">
        <ele>899</ele>
        <time>2015-07-19T11:05:44Z</time>
      </trkpt>
      <trkpt lat="46.62215" lon="5.91531">
        <ele>898</ele>
        <time>2015-07-19T11:05:49Z</time>
      </trkpt>
      <trkpt lat="46.62218" lon="5.91536">
        <ele>897</ele>
        <time>2015-07-19T11:05:54Z</time>
      </trkpt>
      <trkpt lat="46.62218" lon="5.9154">
        <ele>896</ele>
        <time>2015-07-19T11:05:59Z</time>
      </trkpt>
      <trkpt lat="46.62218" lon="5.91547">
        <ele>895</ele>
        <time>2015-07-19T11:06:05Z</time>
      </trkpt>
      <trkpt lat="46.62219" lon="5.91554">
        <ele>895</ele>
        <time>2015-07-19T11:06:10Z</time>
      </trkpt>
      <trkpt lat="46.62219" lon="5.91562">
        <ele>894</ele>
        <time>2015-07-19T11:06:16Z</time>
      </trkpt>
      <trkpt lat="46.62222" lon="5.91568">
        <ele>893</ele>
        <time>2015-07-19T11:06:21Z</time>
      </trkpt>
      <trkpt lat="46.62226" lon="5.91574">
        <ele>892</ele>
        <time>2015-07-19T11:06:27Z</time>
      </trkpt>
      <trkpt lat="46.62229" lon="5.91577">
        <ele>892</ele>
        <time>2015-07-19T11:06:32Z</time>
      </trkpt>
      <trkpt lat="46.62229" lon="5.91584">
        <ele>890</ele>
        <time>2015-07-19T11:06:38Z</time>
      </trkpt>
      <trkpt lat="46.62229" lon="5.91591">
        <ele>890</ele>
        <time>2015-07-19T11:06:43Z</time>
      </trkpt>
      <trkpt lat="46.62232" lon="5.91598">
        <ele>890</ele>
        <time>2015-07-19T11:06:49Z</time>
      </trkpt>
      <trkpt lat="46.62237" lon="5.91605">
        <ele>890</ele>
        <time>2015-07-19T11:06:54Z</time>
      </trkpt>
      <trkpt lat="46.62236" lon="5.91611">
        <ele>890</ele>
        <time>2015-07-19T11:07:00Z</time>
      </trkpt>
      <trkpt lat="46.62239" lon="5.91614">
        <ele>890</ele>
        <time>2015-07-19T11:07:05Z</time>
      </trkpt>
      <trkpt lat="46.62241" lon="5.91622">
        <ele>889</ele>
        <time>2015-07-19T11:07:11Z</time>
      </trkpt>
      <trkpt lat="46.62242" lon="5.91629">
        <ele>889</ele>
        <time>2015-07-19T11:07:16Z</time>
      </trkpt>
      <trkpt lat="46.62246" lon="5.91634">
        <ele>889</ele>
        <time>2015-07-19T11:07:22Z</time>
      </trkpt>
      <trkpt lat="46.62252" lon="5.9164">
        <ele>888</ele>
        <time>2015-07-19T11:07:28Z</time>
      </trkpt>
      <trkpt lat="46.62254" lon="5.91649">
        <ele>888</ele>
        <time>2015-07-19T11:07:34Z</time>
      </trkpt>
      <trkpt lat="46.62257" lon="5.91659">
        <ele>887</ele>
        <time>2015-07-19T11:07:40Z</time>
      </trkpt>
      <trkpt lat="46.62256" lon="5.91664">
        <ele>886</ele>
        <time>2015-07-19T11:07:45Z</time>
      </trkpt>
      <trkpt lat="46.62255" lon="5.9167">
        <ele>886</ele>
        <time>2015-07-19T11:07:51Z</time>
      </trkpt>
      <trkpt lat="46.62257" lon="5.91675">
        <ele>885</ele>
        <time>2015-07-19T11:07:56Z</time>
      </trkpt>
      <trkpt lat="46.6226" lon="5.91681">
        <ele>885</ele>
        <time>2015-07-19T11:08:01Z</time>
      </trkpt>
      <trkpt lat="46.62265" lon="5.91688">
        <ele>884</ele>
        <time>2015-07-19T11:08:07Z</time>
      </trkpt>
      <trkpt lat="46.62266" lon="5.91693">
        <ele>883</ele>
        <time>2015-07-19T11:08:12Z</time>
      </trkpt>
      <trkpt lat="46.62272" lon="5.91701">
        <ele>883</ele>
        <time>2015-07-19T11:08:18Z</time>
      </trkpt>
      <trkpt lat="46.62277" lon="5.91707">
        <ele>882</ele>
        <time>2015-07-19T11:08:23Z</time>
      </trkpt>
      <trkpt lat="46.62279" lon="5.91711">
        <ele>882</ele>
        <time>2015-07-19T11:08:28Z</time>
      </trkpt>
      <trkpt lat="46.62285" lon="5.91718">
        <ele>882</ele>
        <time>2015-07-19T11:08:34Z</time>
      </trkpt>
      <trkpt lat="46.62288" lon="5.91724">
        <ele>883</ele>
        <time>2015-07-19T11:08:39Z</time>
      </trkpt>
      <trkpt lat="46.62292" lon="5.91729">
        <ele>883</ele>
        <time>2015-07-19T11:08:45Z</time>
      </trkpt>
      <trkpt lat="46.62289" lon="5.91731">
        <ele>883</ele>
        <time>2015-07-19T11:08:50Z</time>
      </trkpt>
      <trkpt lat="46.62285" lon="5.91734">
        <ele>883</ele>
        <time>2015-07-19T11:08:55Z</time>
      </trkpt>
      <trkpt lat="46.62285" lon="5.91737">
        <ele>883</ele>
        <time>2015-07-19T11:09:00Z</time>
      </trkpt>
      <trkpt lat="46.62291" lon="5.91743">
        <ele>882</ele>
        <time>2015-07-19T11:09:06Z</time>
      </trkpt>
      <trkpt lat="46.62292" lon="5.91745">
        <ele>882</ele>
        <time>2015-07-19T11:09:12Z</time>
      </trkpt>
      <trkpt lat="46.62294" lon="5.91748">
        <ele>883</ele>
        <time>2015-07-19T11:09:18Z</time>
      </trkpt>
      <trkpt lat="46.62294" lon="5.91752">
        <ele>883</ele>
        <time>2015-07-19T11:09:23Z</time>
      </trkpt>
      <trkpt lat="46.62298" lon="5.91755">
        <ele>883</ele>
        <time>2015-07-19T11:09:28Z</time>
      </trkpt>
      <trkpt lat="46.62301" lon="5.91755">
        <ele>883</ele>
        <time>2015-07-19T11:09:34Z</time>
      </trkpt>
      <trkpt lat="46.62304" lon="5.91754">
        <ele>883</ele>
        <time>2015-07-19T11:09:39Z</time>
      </trkpt>
      <trkpt lat="46.62301" lon="5.91752">
        <ele>883</ele>
        <time>2015-07-19T11:09:45Z</time>
      </trkpt>
      <trkpt lat="46.62305" lon="5.91757">
        <ele>883</ele>
        <time>2015-07-19T11:09:51Z</time>
      </trkpt>
      <trkpt lat="46.62312" lon="5.91767">
        <ele>883</ele>
        <time>2015-07-19T11:09:57Z</time>
      </trkpt>
      <trkpt lat="46.62317" lon="5.9177">
        <ele>882</ele>
        <time>2015-07-19T11:10:02Z</time>
      </trkpt>
      <trkpt lat="46.6232" lon="5.91772">
        <ele>882</ele>
        <time>2015-07-19T11:10:07Z</time>
      </trkpt>
      <trkpt lat="46.6232" lon="5.9177">
        <ele>883</ele>
        <time>2015-07-19T11:10:14Z</time>
      </trkpt>
      <trkpt lat="46.62316" lon="5.91765">
        <ele>883</ele>
        <time>2015-07-19T11:10:20Z</time>
      </trkpt>
      <trkpt lat="46.62323" lon="5.91765">
        <ele>883</ele>
        <time>2015-07-19T11:10:26Z</time>
      </trkpt>
      <trkpt lat="46.62326" lon="5.91762">
        <ele>884</ele>
        <time>2015-07-19T11:10:31Z</time>
      </trkpt>
      <trkpt lat="46.62325" lon="5.91757">
        <ele>884</ele>
        <time>2015-07-19T11:10:36Z</time>
      </trkpt>
      <trkpt lat="46.62323" lon="5.91759">
        <ele>883</ele>
        <time>2015-07-19T11:10:42Z</time>
      </trkpt>
      <trkpt lat="46.62321" lon="5.91761">
        <ele>883</ele>
        <time>2015-07-19T11:10:47Z</time>
      </trkpt>
      <trkpt lat="46.62319" lon="5.91761">
        <ele>883</ele>
        <time>2015-07-19T11:10:52Z</time>
      </trkpt>
      <trkpt lat="46.62317" lon="5.9176">
        <ele>884</ele>
        <time>2015-07-19T11:10:58Z</time>
      </trkpt>
      <trkpt lat="46.62311" lon="5.91759">
        <ele>884</ele>
        <time>2015-07-19T11:11:04Z</time>
      </trkpt>
      <trkpt lat="46.6231" lon="5.91757">
        <ele>884</ele>
        <time>2015-07-19T11:11:10Z</time>
      </trkpt>
      <trkpt lat="46.62309" lon="5.91759">
        <ele>884</ele>
        <time>2015-07-19T11:11:15Z</time>
      </trkpt>
      <trkpt lat="46.62307" lon="5.91759">
        <ele>884</ele>
        <time>2015-07-19T11:11:20Z</time>
      </trkpt>
      <trkpt lat="46.62309" lon="5.91761">
        <ele>884</ele>
        <time>2015-07-19T11:11:26Z</time>
      </trkpt>
      <trkpt lat="46.62311" lon="5.91764">
        <ele>884</ele>
        <time>2015-07-19T11:11:31Z</time>
      </trkpt>
      <trkpt lat="46.62311" lon="5.91767">
        <ele>884</ele>
        <time>2015-07-19T11:11:37Z</time>
      </trkpt>
      <trkpt lat="46.62311" lon="5.91769">
        <ele>883</ele>
        <time>2015-07-19T11:11:43Z</time>
      </trkpt>
      <trkpt lat="46.62311" lon="5.91769">
        <ele>883</ele>
        <time>2015-07-19T11:11:49Z</time>
      </trkpt>
      <trkpt lat="46.62311" lon="5.91768">
        <ele>883</ele>
        <time>2015-07-19T11:11:54Z</time>
      </trkpt>
      <trkpt lat="46.6231" lon="5.91768">
        <ele>883</ele>
        <time>2015-07-19T11:12:00Z</time>
      </trkpt>
      <trkpt lat="46.6231" lon="5.91772">
        <ele>883</ele>
        <time>2015-07-19T11:12:05Z</time>
      </trkpt>
      <trkpt lat="46.6231" lon="5.91772">
        <ele>883</ele>
        <time>2015-07-19T11:12:10Z</time>
      </trkpt>
      <trkpt lat="46.62309" lon="5.91771">
        <ele>884</ele>
        <time>2015-07-19T11:12:16Z</time>
      </trkpt>
      <trkpt lat="46.62308" lon="5.91766">
        <ele>884</ele>
        <time>2015-07-19T11:12:22Z</time>
      </trkpt>
      <trkpt lat="46.62308" lon="5.91765">
        <ele>884</ele>
        <time>2015-07-19T11:12:27Z</time>
      </trkpt>
      <trkpt lat="46.6231" lon="5.91766">
        <ele>883</ele>
        <time>2015-07-19T11:12:32Z</time>
      </trkpt>
      <trkpt lat="46.62312" lon="5.91765">
        <ele>883</ele>
        <time>2015-07-19T11:12:37Z</time>
      </trkpt>
      <trkpt lat="46.62315" lon="5.91767">
        <ele>884</ele>
        <time>2015-07-19T11:12:43Z</time>
      </trkpt>
      <trkpt lat="46.62318" lon="5.9177">
        <ele>884</ele>
        <time>2015-07-19T11:12:48Z</time>
      </trkpt>
      <trkpt lat="46.62319" lon="5.91776">
        <ele>884</ele>
        <time>2015-07-19T11:12:54Z</time>
      </trkpt>
      <trkpt lat="46.62321" lon="5.91782">
        <ele>884</ele>
        <time>2015-07-19T11:13:00Z</time>
      </trkpt>
      <trkpt lat="46.62322" lon="5.91786">
        <ele>885</ele>
        <time>2015-07-19T11:13:05Z</time>
      </trkpt>
      <trkpt lat="46.62323" lon="5.91793">
        <ele>884</ele>
        <time>2015-07-19T11:13:11Z</time>
      </trkpt>
      <trkpt lat="46.6233" lon="5.91799">
        <ele>884</ele>
        <time>2015-07-19T11:13:17Z</time>
      </trkpt>
      <trkpt lat="46.62336" lon="5.91806">
        <ele>885</ele>
        <time>2015-07-19T11:13:23Z</time>
      </trkpt>
      <trkpt lat="46.62338" lon="5.91809">
        <ele>886</ele>
        <time>2015-07-19T11:13:28Z</time>
      </trkpt>
      <trkpt lat="46.62342" lon="5.91816">
        <ele>886</ele>
        <time>2015-07-19T11:13:34Z</time>
      </trkpt>
      <trkpt lat="46.62341" lon="5.91819">
        <ele>887</ele>
        <time>2015-07-19T11:13:39Z</time>
      </trkpt>
      <trkpt lat="46.62346" lon="5.91823">
        <ele>887</ele>
        <time>2015-07-19T11:13:45Z</time>
      </trkpt>
      <trkpt lat="46.6235" lon="5.9183">
        <ele>887</ele>
        <time>2015-07-19T11:13:50Z</time>
      </trkpt>
      <trkpt lat="46.62356" lon="5.91835">
        <ele>888</ele>
        <time>2015-07-19T11:13:56Z</time>
      </trkpt>
      <trkpt lat="46.62361" lon="5.91839">
        <ele>888</ele>
        <time>2015-07-19T11:14:01Z</time>
      </trkpt>
      <trkpt lat="46.62366" lon="5.91845">
        <ele>888</ele>
        <time>2015-07-19T11:14:07Z</time>
      </trkpt>
      <trkpt lat="46.6237" lon="5.91852">
        <ele>888</ele>
        <time>2015-07-19T11:14:12Z</time>
      </trkpt>
      <trkpt lat="46.62373" lon="5.91858">
        <ele>889</ele>
        <time>2015-07-19T11:14:18Z</time>
      </trkpt>
      <trkpt lat="46.62379" lon="5.91864">
        <ele>888</ele>
        <time>2015-07-19T11:14:24Z</time>
      </trkpt>
      <trkpt lat="46.62382" lon="5.9187">
        <ele>889</ele>
        <time>2015-07-19T11:14:29Z</time>
      </trkpt>
      <trkpt lat="46.62385" lon="5.91876">
        <ele>888</ele>
        <time>2015-07-19T11:14:35Z</time>
      </trkpt>
      <trkpt lat="46.62389" lon="5.91881">
        <ele>888</ele>
        <time>2015-07-19T11:14:40Z</time>
      </trkpt>
      <trkpt lat="46.62392" lon="5.91887">
        <ele>887</ele>
        <time>2015-07-19T11:14:46Z</time>
      </trkpt>
      <trkpt lat="46.62396" lon="5.91892">
        <ele>887</ele>
        <time>2015-07-19T11:14:51Z</time>
      </trkpt>
      <trkpt lat="46.624" lon="5.91899">
        <ele>888</ele>
        <time>2015-07-19T11:14:57Z</time>
      </trkpt>
      <trkpt lat="46.62407" lon="5.91907">
        <ele>887</ele>
        <time>2015-07-19T11:15:03Z</time>
      </trkpt>
      <trkpt lat="46.62413" lon="5.91911">
        <ele>886</ele>
        <time>2015-07-19T11:15:09Z</time>
      </trkpt>
      <trkpt lat="46.62417" lon="5.91916">
        <ele>886</ele>
        <time>2015-07-19T11:15:14Z</time>
      </trkpt>
      <trkpt lat="46.62421" lon="5.91923">
        <ele>886</ele>
        <time>2015-07-19T11:15:19Z</time>
      </trkpt>
      <trkpt lat="46.62428" lon="5.91931">
        <ele>885</ele>
        <time>2015-07-19T11:15:25Z</time>
      </trkpt>
      <trkpt lat="46.6243" lon="5.91936">
        <ele>885</ele>
        <time>2015-07-19T11:15:30Z</time>
      </trkpt>
      <trkpt lat="46.62434" lon="5.91944">
        <ele>884</ele>
        <time>2015-07-19T11:15:35Z</time>
      </trkpt>
      <trkpt lat="46.62435" lon="5.91953">
        <ele>882</ele>
        <time>2015-07-19T11:15:41Z</time>
      </trkpt>
      <trkpt lat="46.62435" lon="5.9196">
        <ele>882</ele>
        <time>2015-07-19T11:15:47Z</time>
      </trkpt>
      <trkpt lat="46.62437" lon="5.91965">
        <ele>881</ele>
        <time>2015-07-19T11:15:53Z</time>
      </trkpt>
      <trkpt lat="46.62438" lon="5.9197">
        <ele>879</ele>
        <time>2015-07-19T11:15:59Z</time>
      </trkpt>
      <trkpt lat="46.62442" lon="5.91976">
        <ele>877</ele>
        <time>2015-07-19T11:16:05Z</time>
      </trkpt>
      <trkpt lat="46.62446" lon="5.91983">
        <ele>876</ele>
        <time>2015-07-19T11:16:11Z</time>
      </trkpt>
      <trkpt lat="46.62445" lon="5.9199">
        <ele>875</ele>
        <time>2015-07-19T11:16:17Z</time>
      </trkpt>
      <trkpt lat="46.62448" lon="5.92">
        <ele>875</ele>
        <time>2015-07-19T11:16:23Z</time>
      </trkpt>
      <trkpt lat="46.62451" lon="5.92006">
        <ele>874</ele>
        <time>2015-07-19T11:16:28Z</time>
      </trkpt>
      <trkpt lat="46.62452" lon="5.92015">
        <ele>873</ele>
        <time>2015-07-19T11:16:33Z</time>
      </trkpt>
      <trkpt lat="46.6245" lon="5.92024">
        <ele>872</ele>
        <time>2015-07-19T11:16:39Z</time>
      </trkpt>
      <trkpt lat="46.62448" lon="5.9203">
        <ele>871</ele>
        <time>2015-07-19T11:16:44Z</time>
      </trkpt>
      <trkpt lat="46.62447" lon="5.92044">
        <ele>869</ele>
        <time>2015-07-19T11:16:50Z</time>
      </trkpt>
      <trkpt lat="46.62448" lon="5.92049">
        <ele>868</ele>
        <time>2015-07-19T11:16:55Z</time>
      </trkpt>
      <trkpt lat="46.62446" lon="5.9205">
        <ele>868</ele>
        <time>2015-07-19T11:17:01Z</time>
      </trkpt>
      <trkpt lat="46.62442" lon="5.92051">
        <ele>868</ele>
        <time>2015-07-19T11:17:07Z</time>
      </trkpt>
      <trkpt lat="46.62437" lon="5.92052">
        <ele>868</ele>
        <time>2015-07-19T11:17:12Z</time>
      </trkpt>
      <trkpt lat="46.62434" lon="5.92053">
        <ele>868</ele>
        <time>2015-07-19T11:17:17Z</time>
      </trkpt>
      <trkpt lat="46.62432" lon="5.92055">
        <ele>867</ele>
        <time>2015-07-19T11:17:23Z</time>
      </trkpt>
      <trkpt lat="46.62434" lon="5.92054">
        <ele>867</ele>
        <time>2015-07-19T11:17:28Z</time>
      </trkpt>
      <trkpt lat="46.6244" lon="5.92055">
        <ele>867</ele>
        <time>2015-07-19T11:17:34Z</time>
      </trkpt>
      <trkpt lat="46.62439" lon="5.92056">
        <ele>867</ele>
        <time>2015-07-19T11:17:40Z</time>
      </trkpt>
      <trkpt lat="46.6244" lon="5.92058">
        <ele>866</ele>
        <time>2015-07-19T11:17:46Z</time>
      </trkpt>
      <trkpt lat="46.62437" lon="5.92058">
        <ele>866</ele>
        <time>2015-07-19T11:17:51Z</time>
      </trkpt>
      <trkpt lat="46.62434" lon="5.92055">
        <ele>865</ele>
        <time>2015-07-19T11:17:57Z</time>
      </trkpt>
      <trkpt lat="46.62431" lon="5.92053">
        <ele>864</ele>
        <time>2015-07-19T11:18:02Z</time>
      </trkpt>
      <trkpt lat="46.62427" lon="5.92052">
        <ele>864</ele>
        <time>2015-07-19T11:18:08Z</time>
      </trkpt>
      <trkpt lat="46.62424" lon="5.92051">
        <ele>863</ele>
        <time>2015-07-19T11:18:14Z</time>
      </trkpt>
      <trkpt lat="46.62422" lon="5.9205">
        <ele>861</ele>
        <time>2015-07-19T11:18:20Z</time>
      </trkpt>
      <trkpt lat="46.62419" lon="5.92048">
        <ele>861</ele>
        <time>2015-07-19T11:18:26Z</time>
      </trkpt>
      <trkpt lat="46.62415" lon="5.92047">
        <ele>860</ele>
        <time>2015-07-19T11:18:31Z</time>
      </trkpt>
      <trkpt lat="46.6241" lon="5.92047">
        <ele>858</ele>
        <time>2015-07-19T11:18:37Z</time>
      </trkpt>
      <trkpt lat="46.62408" lon="5.92046">
        <ele>858</ele>
        <time>2015-07-19T11:18:43Z</time>
      </trkpt>
      <trkpt lat="46.62403" lon="5.92042">
        <ele>857</ele>
        <time>2015-07-19T11:18:49Z</time>
      </trkpt>
      <trkpt lat="46.624" lon="5.92041">
        <ele>856</ele>
        <time>2015-07-19T11:18:55Z</time>
      </trkpt>
      <trkpt lat="46.62395" lon="5.92037">
        <ele>856</ele>
        <time>2015-07-19T11:19:01Z</time>
      </trkpt>
      <trkpt lat="46.62389" lon="5.92032">
        <ele>855</ele>
        <time>2015-07-19T11:19:07Z</time>
      </trkpt>
      <trkpt lat="46.62385" lon="5.92028">
        <ele>854</ele>
        <time>2015-07-19T11:19:12Z</time>
      </trkpt>
      <trkpt lat="46.6238" lon="5.92023">
        <ele>853</ele>
        <time>2015-07-19T11:19:18Z</time>
      </trkpt>
      <trkpt lat="46.62378" lon="5.92018">
        <ele>852</ele>
        <time>2015-07-19T11:19:24Z</time>
      </trkpt>
      <trkpt lat="46.62372" lon="5.92012">
        <ele>851</ele>
        <time>2015-07-19T11:19:30Z</time>
      </trkpt>
      <trkpt lat="46.62367" lon="5.9201">
        <ele>851</ele>
        <time>2015-07-19T11:19:36Z</time>
      </trkpt>
      <trkpt lat="46.62363" lon="5.92005">
        <ele>850</ele>
        <time>2015-07-19T11:19:41Z</time>
      </trkpt>
      <trkpt lat="46.6236" lon="5.91999">
        <ele>849</ele>
        <time>2015-07-19T11:19:47Z</time>
      </trkpt>
      <trkpt lat="46.62355" lon="5.91996">
        <ele>848</ele>
        <time>2015-07-19T11:19:52Z</time>
      </trkpt>
      <trkpt lat="46.62351" lon="5.91993">
        <ele>847</ele>
        <time>2015-07-19T11:19:58Z</time>
      </trkpt>
      <trkpt lat="46.62345" lon="5.91993">
        <ele>845</ele>
        <time>2015-07-19T11:20:04Z</time>
      </trkpt>
      <trkpt lat="46.6234" lon="5.91991">
        <ele>844</ele>
        <time>2015-07-19T11:20:10Z</time>
      </trkpt>
      <trkpt lat="46.62336" lon="5.91989">
        <ele>843</ele>
        <time>2015-07-19T11:20:15Z</time>
      </trkpt>
      <trkpt lat="46.62331" lon="5.91986">
        <ele>841</ele>
        <time>2015-07-19T11:20:21Z</time>
      </trkpt>
      <trkpt lat="46.62326" lon="5.91983">
        <ele>840</ele>
        <time>2015-07-19T11:20:27Z</time>
      </trkpt>
      <trkpt lat="46.62321" lon="5.91981">
        <ele>839</ele>
        <time>2015-07-19T11:20:32Z</time>
      </trkpt>
      <trkpt lat="46.62319" lon="5.9198">
        <ele>839</ele>
        <time>2015-07-19T11:20:38Z</time>
      </trkpt>
      <trkpt lat="46.62134" lon="5.92055">
        <ele>809.7</ele>
        <time>2015-07-19T11:20:43Z</time>
      </trkpt>
      <trkpt lat="46.6211" lon="5.92033">
        <ele>810.3</ele>
        <time>2015-07-19T11:20:43Z</time>
      </trkpt>
      <trkpt lat="46.62072" lon="5.91995">
        <ele>809.6</ele>
        <time>2015-07-19T11:20:43Z</time>
      </trkpt>
      <trkpt lat="46.62048" lon="5.91965">
        <ele>809.8</ele>
        <time>2015-07-19T11:20:43Z</time>
      </trkpt>
      <trkpt lat="46.62001" lon="5.9192">
        <ele>810</ele>
        <time>2015-07-19T11:20:43Z</time>
      </trkpt>
      <trkpt lat="46.61961" lon="5.91881">
        <ele>811.2</ele>
        <time>2015-07-19T11:20:43Z</time>
      </trkpt>
      <trkpt lat="46.61924" lon="5.9184">
        <ele>812.2</ele>
        <time>2015-07-19T11:20:43Z</time>
      </trkpt>
      <trkpt lat="46.61921" lon="5.91837">
        <ele>812.2</ele>
        <time>2015-07-19T11:20:43Z</time>
      </trkpt>
      <trkpt lat="46.61887" lon="5.91785">
        <ele>814.5</ele>
        <time>2015-07-19T11:20:43Z</time>
      </trkpt>
      <trkpt lat="46.61815" lon="5.91746">
        <ele>817</ele>
        <time>2015-07-19T11:20:43Z</time>
      </trkpt>
      <trkpt lat="46.61706" lon="5.91679">
        <ele>819.8</ele>
        <time>2015-07-19T11:20:43Z</time>
      </trkpt>
      <trkpt lat="46.61641" lon="5.91615">
        <ele>819</ele>
        <time>2015-07-19T11:20:43Z</time>
      </trkpt>
      <trkpt lat="46.61589" lon="5.91542">
        <ele>824.4</ele>
        <time>2015-07-19T11:20:43Z</time>
      </trkpt>
      <trkpt lat="46.61533" lon="5.91497">
        <ele>827.9</ele>
        <time>2015-07-19T11:20:43Z</time>
      </trkpt>
      <trkpt lat="46.61485" lon="5.91439">
        <ele>831.8</ele>
        <time>2015-07-19T11:20:43Z</time>
      </trkpt>
      <trkpt lat="46.61464" lon="5.91415">
        <ele>834.3</ele>
        <time>2015-07-19T11:20:43Z</time>
      </trkpt>
      <trkpt lat="46.61462" lon="5.91375">
        <ele>836</ele>
        <time>2015-07-19T11:20:43Z</time>
      </trkpt>
      <trkpt lat="46.61476" lon="5.91347">
        <ele>837.3</ele>
        <time>2015-07-19T11:20:43Z</time>
      </trkpt>
      <trkpt lat="46.61498" lon="5.91342">
        <ele>839.5</ele>
        <time>2015-07-19T11:20:43Z</time>
      </trkpt>
      <trkpt lat="46.6153" lon="5.9133">
        <ele>840.3</ele>
        <time>2015-07-19T11:20:43Z</time>
      </trkpt>
      <trkpt lat="46.61562" lon="5.91294">
        <ele>842.2</ele>
        <time>2015-07-19T11:20:43Z</time>
      </trkpt>
      <trkpt lat="46.61584" lon="5.91238">
        <ele>844.8</ele>
        <time>2015-07-19T11:20:43Z</time>
      </trkpt>
      <trkpt lat="46.616" lon="5.91169">
        <ele>849.3</ele>
        <time>2015-07-19T11:20:43Z</time>
      </trkpt>
      <trkpt lat="46.61591" lon="5.91108">
        <ele>853.2</ele>
        <time>2015-07-19T11:20:43Z</time>
      </trkpt>
      <trkpt lat="46.61562" lon="5.9104">
        <ele>858.3</ele>
        <time>2015-07-19T11:20:43Z</time>
      </trkpt>
      <trkpt lat="46.61518" lon="5.90998">
        <ele>862.3</ele>
        <time>2015-07-19T11:20:43Z</time>
      </trkpt>
      <trkpt lat="46.61478" lon="5.90964">
        <ele>865.2</ele>
        <time>2015-07-19T11:20:43Z</time>
      </trkpt>
      <trkpt lat="46.61438" lon="5.90934">
        <ele>867.8</ele>
        <time>2015-07-19T11:20:43Z</time>
      </trkpt>
      <trkpt lat="46.61405" lon="5.909">
        <ele>871.1</ele>
        <time>2015-07-19T11:20:43Z</time>
      </trkpt>
      <trkpt lat="46.61359" lon="5.90871">
        <ele>874</ele>
        <time>2015-07-19T11:20:43Z</time>
      </trkpt>
      <trkpt lat="46.61317" lon="5.90866">
        <ele>877.6</ele>
        <time>2015-07-19T11:20:43Z</time>
      </trkpt>
      <trkpt lat="46.6128" lon="5.90865">
        <ele>879.6</ele>
        <time>2015-07-19T11:20:43Z</time>
      </trkpt>
      <trkpt lat="46.61232" lon="5.90835">
        <ele>881.9</ele>
        <time>2015-07-19T11:20:43Z</time>
      </trkpt>
      <trkpt lat="46.61198" lon="5.90806">
        <ele>882.1</ele>
        <time>2015-07-19T11:20:43Z</time>
      </trkpt>
      <trkpt lat="46.61167" lon="5.90787">
        <ele>882.4</ele>
        <time>2015-07-19T11:20:43Z</time>
      </trkpt>
      <trkpt lat="46.61127" lon="5.90766">
        <ele>883.8</ele>
        <time>2015-07-19T11:20:43Z</time>
      </trkpt>
      <trkpt lat="46.61093" lon="5.90749">
        <ele>885.1</ele>
        <time>2015-07-19T11:20:43Z</time>
      </trkpt>
      <trkpt lat="46.61048" lon="5.90729">
        <ele>887</ele>
        <time>2015-07-19T11:20:43Z</time>
      </trkpt>
      <trkpt lat="46.61011" lon="5.90699">
        <ele>888.8</ele>
        <time>2015-07-19T11:20:43Z</time>
      </trkpt>
      <trkpt lat="46.60987" lon="5.90661">
        <ele>890.5</ele>
        <time>2015-07-19T11:20:43Z</time>
      </trkpt>
      <trkpt lat="46.60974" lon="5.90596">
        <ele>892.6</ele>
        <time>2015-07-19T11:20:43Z</time>
      </trkpt>
      <trkpt lat="46.60974" lon="5.90539">
        <ele>894.6</ele>
        <time>2015-07-19T11:20:43Z</time>
      </trkpt>
      <trkpt lat="46.60968" lon="5.90488">
        <ele>897.2</ele>
        <time>2015-07-19T11:20:43Z</time>
      </trkpt>
      <trkpt lat="46.60961" lon="5.90459">
        <ele>897.7</ele>
        <time>2015-07-19T11:20:43Z</time>
      </trkpt>
      <trkpt lat="46.60952" lon="5.90422">
        <ele>894.9</ele>
        <time>2015-07-19T11:20:43Z</time>
      </trkpt>
      <trkpt lat="46.60938" lon="5.90413">
        <ele>894.4</ele>
        <time>2015-07-19T11:20:43Z</time>
      </trkpt>
    </trkseg>
  </trk>
</gpx>